<?xml version='1.0' encoding='UTF-8'?><gpx version="1.1" creator="JPX - https://github.com/jenetics/jpx" xmlns="http://www.topografix.com/GPX/1/1"><trk><trkseg><trkpt lat="42.94116367556195" lon="11.259951550670571"><ele>95.0</ele><time>2026-04-03T10:59:17Z</time></trkpt><trkpt lat="42.94127340792659" lon="11.259872616692128"><ele>95.0</ele><time>2026-04-03T10:59:19Z</time></trkpt><trkpt lat="42.94137861466079" lon="11.25980836315774"><ele>95.0</ele><time>2026-04-03T10:59:20Z</time></trkpt><trkpt lat="42.94145339402947" lon="11.259708096370737"><ele>95.0</ele><time>2026-04-03T10:59:23Z</time></trkpt><trkpt lat="42.94155531782647" lon="11.259622559351666"><ele>94.57142857142857</ele><time>2026-04-03T10:59:25Z</time></trkpt><trkpt lat="42.94161202740414" lon="11.25957987410932"><ele>94.14285714285714</ele><time>2026-04-03T10:59:26Z</time></trkpt><trkpt lat="42.94166881490579" lon="11.259537839428123"><ele>93.71428571428572</ele><time>2026-04-03T10:59:27Z</time></trkpt><trkpt lat="42.94172680383901" lon="11.259490992684153"><ele>93.28571428571428</ele><time>2026-04-03T10:59:28Z</time></trkpt><trkpt lat="42.94179025494199" lon="11.259440209195358"><ele>92.85714285714285</ele><time>2026-04-03T10:59:29Z</time></trkpt><trkpt lat="42.94185815610344" lon="11.259390623032557"><ele>92.42857142857143</ele><time>2026-04-03T10:59:30Z</time></trkpt><trkpt lat="42.941928887662165" lon="11.25934156577492"><ele>92.0</ele><time>2026-04-03T10:59:31Z</time></trkpt><trkpt lat="42.941998904940085" lon="11.259289949296798"><ele>92.0</ele><time>2026-04-03T10:59:32Z</time></trkpt><trkpt lat="42.942071195952195" lon="11.259236053371817"><ele>92.0</ele><time>2026-04-03T10:59:33Z</time></trkpt><trkpt lat="42.94214328010045" lon="11.25918530712602"><ele>92.0</ele><time>2026-04-03T10:59:34Z</time></trkpt><trkpt lat="42.94221840385751" lon="11.259129865077774"><ele>92.0</ele><time>2026-04-03T10:59:35Z</time></trkpt><trkpt lat="42.94229220205846" lon="11.259074373505365"><ele>92.0</ele><time>2026-04-03T10:59:36Z</time></trkpt><trkpt lat="42.942369068344746" lon="11.259018097679254"><ele>92.0</ele><time>2026-04-03T10:59:37Z</time></trkpt><trkpt lat="42.94244424929256" lon="11.258961311515622"><ele>91.16666666666667</ele><time>2026-04-03T10:59:38Z</time></trkpt><trkpt lat="42.942517375622316" lon="11.25890531889648"><ele>90.33333333333334</ele><time>2026-04-03T10:59:39Z</time></trkpt><trkpt lat="42.9425928998948" lon="11.258848412321237"><ele>89.5</ele><time>2026-04-03T10:59:40Z</time></trkpt><trkpt lat="42.94266735755084" lon="11.258793105927534"><ele>88.66666666666667</ele><time>2026-04-03T10:59:41Z</time></trkpt><trkpt lat="42.9427456197686" lon="11.258733810287193"><ele>87.83333333333333</ele><time>2026-04-03T10:59:42Z</time></trkpt><trkpt lat="42.942822641221724" lon="11.258667359665823"><ele>87.0</ele><time>2026-04-03T10:59:43Z</time></trkpt><trkpt lat="42.94289670634988" lon="11.258605011864097"><ele>87.0</ele><time>2026-04-03T10:59:44Z</time></trkpt><trkpt lat="42.942981710585805" lon="11.258544980980174"><ele>87.0</ele><time>2026-04-03T10:59:45Z</time></trkpt><trkpt lat="42.943053637466086" lon="11.258485412222464"><ele>87.0</ele><time>2026-04-03T10:59:46Z</time></trkpt><trkpt lat="42.94312822938177" lon="11.258430044758956"><ele>87.0</ele><time>2026-04-03T10:59:47Z</time></trkpt><trkpt lat="42.94319971028539" lon="11.25837301993261"><ele>87.0</ele><time>2026-04-03T10:59:48Z</time></trkpt><trkpt lat="42.943273611520354" lon="11.258308308249001"><ele>87.0</ele><time>2026-04-03T10:59:49Z</time></trkpt><trkpt lat="42.94335376076072" lon="11.258248053066211"><ele>86.5</ele><time>2026-04-03T10:59:50Z</time></trkpt><trkpt lat="42.943427147424956" lon="11.258199057346717"><ele>86.0</ele><time>2026-04-03T10:59:51Z</time></trkpt><trkpt lat="42.9435021537102" lon="11.25813367742591"><ele>85.5</ele><time>2026-04-03T10:59:52Z</time></trkpt><trkpt lat="42.94357594151873" lon="11.258076975990948"><ele>85.0</ele><time>2026-04-03T10:59:53Z</time></trkpt><trkpt lat="42.94364969603662" lon="11.258015609255326"><ele>84.5</ele><time>2026-04-03T10:59:54Z</time></trkpt><trkpt lat="42.94372207588284" lon="11.257953904608554"><ele>84.0</ele><time>2026-04-03T10:59:55Z</time></trkpt><trkpt lat="42.94379935457587" lon="11.257894747945635"><ele>84.0</ele><time>2026-04-03T10:59:56Z</time></trkpt><trkpt lat="42.94387281144019" lon="11.257849156742749"><ele>84.0</ele><time>2026-04-03T10:59:57Z</time></trkpt><trkpt lat="42.9439510179895" lon="11.257789439064942"><ele>84.0</ele><time>2026-04-03T10:59:58Z</time></trkpt><trkpt lat="42.94402913345402" lon="11.25773089046777"><ele>84.0</ele><time>2026-04-03T10:59:59Z</time></trkpt><trkpt lat="42.94410162282305" lon="11.257669742419257"><ele>84.0</ele><time>2026-04-03T11:00:00Z</time></trkpt><trkpt lat="42.94417899432882" lon="11.257611458639385"><ele>84.0</ele><time>2026-04-03T11:00:01Z</time></trkpt><trkpt lat="42.94425394595618" lon="11.25755447011122"><ele>82.5</ele><time>2026-04-03T11:00:02Z</time></trkpt><trkpt lat="42.94432348624113" lon="11.257487286896803"><ele>81.0</ele><time>2026-04-03T11:00:03Z</time></trkpt><trkpt lat="42.944395618188985" lon="11.257421206197963"><ele>79.5</ele><time>2026-04-03T11:00:04Z</time></trkpt><trkpt lat="42.944461588488316" lon="11.257346643459224"><ele>78.0</ele><time>2026-04-03T11:00:05Z</time></trkpt><trkpt lat="42.944526808010245" lon="11.25726580707512"><ele>76.5</ele><time>2026-04-03T11:00:06Z</time></trkpt><trkpt lat="42.944590973693224" lon="11.257188892889921"><ele>75.0</ele><time>2026-04-03T11:00:07Z</time></trkpt><trkpt lat="42.94465205582744" lon="11.257108341664466"><ele>75.0</ele><time>2026-04-03T11:00:08Z</time></trkpt><trkpt lat="42.944706596493475" lon="11.257027183094342"><ele>75.0</ele><time>2026-04-03T11:00:09Z</time></trkpt><trkpt lat="42.94476156875101" lon="11.256943862075918"><ele>75.0</ele><time>2026-04-03T11:00:10Z</time></trkpt><trkpt lat="42.94481401276177" lon="11.256854476055356"><ele>75.0</ele><time>2026-04-03T11:00:11Z</time></trkpt><trkpt lat="42.9448617225242" lon="11.25676077357962"><ele>75.0</ele><time>2026-04-03T11:00:12Z</time></trkpt><trkpt lat="42.94491582551117" lon="11.256667490936158"><ele>75.0</ele><time>2026-04-03T11:00:13Z</time></trkpt><trkpt lat="42.94495717039218" lon="11.256563076799695"><ele>75.0</ele><time>2026-04-03T11:00:14Z</time></trkpt><trkpt lat="42.94500114160093" lon="11.25645505737932"><ele>75.0</ele><time>2026-04-03T11:00:15Z</time></trkpt><trkpt lat="42.94503995598787" lon="11.25634323951614"><ele>75.0</ele><time>2026-04-03T11:00:16Z</time></trkpt><trkpt lat="42.945079144081674" lon="11.256230427720958"><ele>75.0</ele><time>2026-04-03T11:00:17Z</time></trkpt><trkpt lat="42.94512004926993" lon="11.256114354380166"><ele>75.0</ele><time>2026-04-03T11:00:18Z</time></trkpt><trkpt lat="42.9451481737587" lon="11.255994349801023"><ele>75.0</ele><time>2026-04-03T11:00:19Z</time></trkpt><trkpt lat="42.94519516909568" lon="11.255889211519067"><ele>75.0</ele><time>2026-04-03T11:00:20Z</time></trkpt><trkpt lat="42.94524236247889" lon="11.255762131283001"><ele>75.0</ele><time>2026-04-03T11:00:21Z</time></trkpt><trkpt lat="42.94529186435914" lon="11.255628388173196"><ele>75.0</ele><time>2026-04-03T11:00:22Z</time></trkpt><trkpt lat="42.94534115589269" lon="11.255496253064306"><ele>75.0</ele><time>2026-04-03T11:00:23Z</time></trkpt><trkpt lat="42.94538767253904" lon="11.255360449734335"><ele>75.0</ele><time>2026-04-03T11:00:24Z</time></trkpt><trkpt lat="42.94544403603582" lon="11.255234238392362"><ele>75.0</ele><time>2026-04-03T11:00:25Z</time></trkpt><trkpt lat="42.94550724420378" lon="11.255113871400393"><ele>75.0</ele><time>2026-04-03T11:00:26Z</time></trkpt><trkpt lat="42.945575067317684" lon="11.254996449883993"><ele>75.0</ele><time>2026-04-03T11:00:27Z</time></trkpt><trkpt lat="42.94564676543198" lon="11.25488232493993"><ele>75.0</ele><time>2026-04-03T11:00:28Z</time></trkpt><trkpt lat="42.94571634196046" lon="11.254764229739287"><ele>74.5</ele><time>2026-04-03T11:00:29Z</time></trkpt><trkpt lat="42.94578875501421" lon="11.254643075069563"><ele>74.0</ele><time>2026-04-03T11:00:30Z</time></trkpt><trkpt lat="42.94586106275276" lon="11.254516010815447"><ele>73.5</ele><time>2026-04-03T11:00:31Z</time></trkpt><trkpt lat="42.945934061138644" lon="11.254390548525974"><ele>73.0</ele><time>2026-04-03T11:00:32Z</time></trkpt><trkpt lat="42.946004790779476" lon="11.254262029174221"><ele>73.0</ele><time>2026-04-03T11:00:33Z</time></trkpt><trkpt lat="42.946075070394336" lon="11.25413491168745"><ele>73.0</ele><time>2026-04-03T11:00:34Z</time></trkpt><trkpt lat="42.94614293151295" lon="11.254006100160355"><ele>73.0</ele><time>2026-04-03T11:00:35Z</time></trkpt><trkpt lat="42.946209174522735" lon="11.253877404331709"><ele>73.0</ele><time>2026-04-03T11:00:36Z</time></trkpt><trkpt lat="42.94627186121628" lon="11.253743147522107"><ele>73.25</ele><time>2026-04-03T11:00:37Z</time></trkpt><trkpt lat="42.946327140572485" lon="11.253598127660746"><ele>73.5</ele><time>2026-04-03T11:00:38Z</time></trkpt><trkpt lat="42.94638455517498" lon="11.253452468681086"><ele>73.75</ele><time>2026-04-03T11:00:39Z</time></trkpt><trkpt lat="42.94643766160155" lon="11.253309682424785"><ele>74.0</ele><time>2026-04-03T11:00:40Z</time></trkpt><trkpt lat="42.946485306662424" lon="11.25317418760559"><ele>73.75</ele><time>2026-04-03T11:00:41Z</time></trkpt><trkpt lat="42.946534910171614" lon="11.253039808345555"><ele>73.5</ele><time>2026-04-03T11:00:42Z</time></trkpt><trkpt lat="42.946593683221664" lon="11.252903709013692"><ele>73.25</ele><time>2026-04-03T11:00:43Z</time></trkpt><trkpt lat="42.94665537106394" lon="11.252765754130687"><ele>73.0</ele><time>2026-04-03T11:00:44Z</time></trkpt><trkpt lat="42.94672147870685" lon="11.252628982519822"><ele>73.0</ele><time>2026-04-03T11:00:45Z</time></trkpt><trkpt lat="42.94679658012151" lon="11.252497015107643"><ele>73.0</ele><time>2026-04-03T11:00:46Z</time></trkpt><trkpt lat="42.946877296270834" lon="11.252361645802283"><ele>73.0</ele><time>2026-04-03T11:00:47Z</time></trkpt><trkpt lat="42.94695699246497" lon="11.252230976158067"><ele>73.0</ele><time>2026-04-03T11:00:48Z</time></trkpt><trkpt lat="42.94703528834833" lon="11.252094282065435"><ele>73.5</ele><time>2026-04-03T11:00:49Z</time></trkpt><trkpt lat="42.947118104296" lon="11.251952215656292"><ele>74.0</ele><time>2026-04-03T11:00:50Z</time></trkpt><trkpt lat="42.947199673574495" lon="11.251816122803763"><ele>74.5</ele><time>2026-04-03T11:00:51Z</time></trkpt><trkpt lat="42.94727515326452" lon="11.251684870596717"><ele>75.0</ele><time>2026-04-03T11:00:52Z</time></trkpt><trkpt lat="42.94735387479694" lon="11.251540384960649"><ele>75.75</ele><time>2026-04-03T11:00:53Z</time></trkpt><trkpt lat="42.94743933401369" lon="11.251401670223125"><ele>76.5</ele><time>2026-04-03T11:00:54Z</time></trkpt><trkpt lat="42.94752029785237" lon="11.251259726197958"><ele>77.25</ele><time>2026-04-03T11:00:55Z</time></trkpt><trkpt lat="42.94759956911078" lon="11.251126234950442"><ele>78.0</ele><time>2026-04-03T11:00:56Z</time></trkpt><trkpt lat="42.947680793128654" lon="11.250981816052951"><ele>78.0</ele><time>2026-04-03T11:00:57Z</time></trkpt><trkpt lat="42.947760444162896" lon="11.250845402246634"><ele>78.0</ele><time>2026-04-03T11:00:58Z</time></trkpt><trkpt lat="42.94784263164902" lon="11.250703700066921"><ele>78.0</ele><time>2026-04-03T11:00:59Z</time></trkpt><trkpt lat="42.947928557009206" lon="11.250564249462276"><ele>78.0</ele><time>2026-04-03T11:01:00Z</time></trkpt><trkpt lat="42.94800500070626" lon="11.250429204415237"><ele>78.75</ele><time>2026-04-03T11:01:01Z</time></trkpt><trkpt lat="42.94808489692993" lon="11.250284394009954"><ele>79.5</ele><time>2026-04-03T11:01:02Z</time></trkpt><trkpt lat="42.94816468432908" lon="11.250148209934416"><ele>80.25</ele><time>2026-04-03T11:01:03Z</time></trkpt><trkpt lat="42.94825216136285" lon="11.25000317410944"><ele>81.0</ele><time>2026-04-03T11:01:04Z</time></trkpt><trkpt lat="42.948328437925795" lon="11.249861885880522"><ele>81.0</ele><time>2026-04-03T11:01:05Z</time></trkpt><trkpt lat="42.94840985449884" lon="11.24971359580927"><ele>81.0</ele><time>2026-04-03T11:01:06Z</time></trkpt><trkpt lat="42.94848379552207" lon="11.249566273158818"><ele>81.0</ele><time>2026-04-03T11:01:07Z</time></trkpt><trkpt lat="42.94854929795566" lon="11.249412722281075"><ele>81.0</ele><time>2026-04-03T11:01:08Z</time></trkpt><trkpt lat="42.948614316942326" lon="11.249251810892117"><ele>81.0</ele><time>2026-04-03T11:01:09Z</time></trkpt><trkpt lat="42.948674232353966" lon="11.249085520088077"><ele>81.0</ele><time>2026-04-03T11:01:10Z</time></trkpt><trkpt lat="42.94873106182954" lon="11.2489104301876"><ele>81.0</ele><time>2026-04-03T11:01:11Z</time></trkpt><trkpt lat="42.94878760539798" lon="11.248740983381719"><ele>81.0</ele><time>2026-04-03T11:01:12Z</time></trkpt><trkpt lat="42.948847332871665" lon="11.248555245081578"><ele>81.25</ele><time>2026-04-03T11:01:13Z</time></trkpt><trkpt lat="42.948900968319144" lon="11.248383544068814"><ele>81.5</ele><time>2026-04-03T11:01:14Z</time></trkpt><trkpt lat="42.948966069886495" lon="11.248202817086979"><ele>81.75</ele><time>2026-04-03T11:01:15Z</time></trkpt><trkpt lat="42.94902315717297" lon="11.24802717316782"><ele>82.0</ele><time>2026-04-03T11:01:16Z</time></trkpt><trkpt lat="42.94908107910618" lon="11.247845599511644"><ele>82.0</ele><time>2026-04-03T11:01:17Z</time></trkpt><trkpt lat="42.94914334993467" lon="11.24766847677384"><ele>82.0</ele><time>2026-04-03T11:01:18Z</time></trkpt><trkpt lat="42.94919927494128" lon="11.247497259899026"><ele>82.0</ele><time>2026-04-03T11:01:19Z</time></trkpt><trkpt lat="42.949261054509556" lon="11.247318675821322"><ele>82.0</ele><time>2026-04-03T11:01:20Z</time></trkpt><trkpt lat="42.94932543137159" lon="11.247141281071311"><ele>81.0</ele><time>2026-04-03T11:01:21Z</time></trkpt><trkpt lat="42.94937871097782" lon="11.246971928819915"><ele>80.0</ele><time>2026-04-03T11:01:22Z</time></trkpt><trkpt lat="42.949436379157326" lon="11.246796782005685"><ele>79.0</ele><time>2026-04-03T11:01:23Z</time></trkpt><trkpt lat="42.94950071420351" lon="11.246614980864651"><ele>78.0</ele><time>2026-04-03T11:01:24Z</time></trkpt><trkpt lat="42.94955411022162" lon="11.246438540087007"><ele>78.0</ele><time>2026-04-03T11:01:25Z</time></trkpt><trkpt lat="42.94962208864964" lon="11.24625525253076"><ele>78.0</ele><time>2026-04-03T11:01:26Z</time></trkpt><trkpt lat="42.94968143091718" lon="11.246081276108105"><ele>78.0</ele><time>2026-04-03T11:01:27Z</time></trkpt><trkpt lat="42.949737681456945" lon="11.245909336394634"><ele>78.0</ele><time>2026-04-03T11:01:28Z</time></trkpt><trkpt lat="42.949795856009956" lon="11.245735307793945"><ele>79.75</ele><time>2026-04-03T11:01:29Z</time></trkpt><trkpt lat="42.94984438908418" lon="11.245563148438363"><ele>81.5</ele><time>2026-04-03T11:01:30Z</time></trkpt><trkpt lat="42.949905389760076" lon="11.24538737748389"><ele>83.25</ele><time>2026-04-03T11:01:31Z</time></trkpt><trkpt lat="42.949963534273984" lon="11.245212734333402"><ele>85.0</ele><time>2026-04-03T11:01:32Z</time></trkpt><trkpt lat="42.95002742541848" lon="11.245043436027649"><ele>85.25</ele><time>2026-04-03T11:01:33Z</time></trkpt><trkpt lat="42.95008562431753" lon="11.244876310238242"><ele>85.5</ele><time>2026-04-03T11:01:34Z</time></trkpt><trkpt lat="42.950152772417646" lon="11.244720279894858"><ele>85.75</ele><time>2026-04-03T11:01:35Z</time></trkpt><trkpt lat="42.95022882756615" lon="11.244573709507305"><ele>86.0</ele><time>2026-04-03T11:01:36Z</time></trkpt><trkpt lat="42.950339084796006" lon="11.24445983361586"><ele>86.0</ele><time>2026-04-03T11:01:37Z</time></trkpt><trkpt lat="42.9504598772726" lon="11.244360705894133"><ele>86.0</ele><time>2026-04-03T11:01:38Z</time></trkpt><trkpt lat="42.95058471802089" lon="11.244276725983543"><ele>86.0</ele><time>2026-04-03T11:01:39Z</time></trkpt><trkpt lat="42.95070135041278" lon="11.244184588980346"><ele>86.0</ele><time>2026-04-03T11:01:40Z</time></trkpt><trkpt lat="42.950816099181274" lon="11.244090939796758"><ele>86.25</ele><time>2026-04-03T11:01:41Z</time></trkpt><trkpt lat="42.950929751108035" lon="11.243989160927898"><ele>86.5</ele><time>2026-04-03T11:01:42Z</time></trkpt><trkpt lat="42.95104252545253" lon="11.243889806786818"><ele>86.75</ele><time>2026-04-03T11:01:43Z</time></trkpt><trkpt lat="42.951158358800775" lon="11.243788696982659"><ele>87.0</ele><time>2026-04-03T11:01:44Z</time></trkpt><trkpt lat="42.951273079229864" lon="11.243697262175168"><ele>87.0</ele><time>2026-04-03T11:01:45Z</time></trkpt><trkpt lat="42.95139179023634" lon="11.24360237908644"><ele>87.0</ele><time>2026-04-03T11:01:46Z</time></trkpt><trkpt lat="42.95150343198268" lon="11.243505831231564"><ele>87.0</ele><time>2026-04-03T11:01:47Z</time></trkpt><trkpt lat="42.95161464386585" lon="11.243413127504573"><ele>87.0</ele><time>2026-04-03T11:01:48Z</time></trkpt><trkpt lat="42.95172748826581" lon="11.243317806018712"><ele>87.25</ele><time>2026-04-03T11:01:49Z</time></trkpt><trkpt lat="42.95183933818947" lon="11.243225442358685"><ele>87.5</ele><time>2026-04-03T11:01:50Z</time></trkpt><trkpt lat="42.95195370645559" lon="11.243134335065992"><ele>87.75</ele><time>2026-04-03T11:01:51Z</time></trkpt><trkpt lat="42.952065428108725" lon="11.243040252197043"><ele>88.0</ele><time>2026-04-03T11:01:52Z</time></trkpt><trkpt lat="42.952177850659595" lon="11.242944345802858"><ele>88.0</ele><time>2026-04-03T11:01:53Z</time></trkpt><trkpt lat="42.95228286749433" lon="11.242850717806993"><ele>88.0</ele><time>2026-04-03T11:01:54Z</time></trkpt><trkpt lat="42.95239081473816" lon="11.242758921504405"><ele>88.0</ele><time>2026-04-03T11:01:55Z</time></trkpt><trkpt lat="42.952504164554504" lon="11.24266474058518"><ele>88.0</ele><time>2026-04-03T11:01:56Z</time></trkpt><trkpt lat="42.95259314553138" lon="11.242566002784386"><ele>87.0</ele><time>2026-04-03T11:01:57Z</time></trkpt><trkpt lat="42.952691466729235" lon="11.242450186997509"><ele>86.0</ele><time>2026-04-03T11:01:58Z</time></trkpt><trkpt lat="42.9527739750364" lon="11.242325496321802"><ele>85.0</ele><time>2026-04-03T11:01:59Z</time></trkpt><trkpt lat="42.95285240108864" lon="11.2421854381404"><ele>84.0</ele><time>2026-04-03T11:02:00Z</time></trkpt><trkpt lat="42.95293598432157" lon="11.242041856400588"><ele>84.0</ele><time>2026-04-03T11:02:01Z</time></trkpt><trkpt lat="42.9530190854407" lon="11.241901210704988"><ele>84.0</ele><time>2026-04-03T11:02:02Z</time></trkpt><trkpt lat="42.95310396539458" lon="11.241762232300177"><ele>84.0</ele><time>2026-04-03T11:02:03Z</time></trkpt><trkpt lat="42.953189406835726" lon="11.24161775154745"><ele>84.0</ele><time>2026-04-03T11:02:04Z</time></trkpt><trkpt lat="42.95327463498098" lon="11.241478779985675"><ele>84.25</ele><time>2026-04-03T11:02:05Z</time></trkpt><trkpt lat="42.95335909892115" lon="11.241341288353127"><ele>84.5</ele><time>2026-04-03T11:02:06Z</time></trkpt><trkpt lat="42.95344559664979" lon="11.241199980180685"><ele>84.75</ele><time>2026-04-03T11:02:07Z</time></trkpt><trkpt lat="42.95352727756129" lon="11.241062365155475"><ele>85.0</ele><time>2026-04-03T11:02:08Z</time></trkpt><trkpt lat="42.95361042075236" lon="11.240919946652303"><ele>85.0</ele><time>2026-04-03T11:02:09Z</time></trkpt><trkpt lat="42.95369399224343" lon="11.240787292485331"><ele>85.0</ele><time>2026-04-03T11:02:10Z</time></trkpt><trkpt lat="42.95377784069852" lon="11.24065243277388"><ele>85.0</ele><time>2026-04-03T11:02:11Z</time></trkpt><trkpt lat="42.953863825165136" lon="11.240515213256735"><ele>85.0</ele><time>2026-04-03T11:02:12Z</time></trkpt><trkpt lat="42.953943077413435" lon="11.240376754830821"><ele>85.5</ele><time>2026-04-03T11:02:13Z</time></trkpt><trkpt lat="42.95402178218288" lon="11.240238751121497"><ele>86.0</ele><time>2026-04-03T11:02:14Z</time></trkpt><trkpt lat="42.95410189919813" lon="11.240105865470733"><ele>86.5</ele><time>2026-04-03T11:02:15Z</time></trkpt><trkpt lat="42.95418614416712" lon="11.23997195349877"><ele>87.0</ele><time>2026-04-03T11:02:16Z</time></trkpt><trkpt lat="42.9542686457499" lon="11.239840466261048"><ele>86.25</ele><time>2026-04-03T11:02:17Z</time></trkpt><trkpt lat="42.95435116137247" lon="11.239706925211637"><ele>85.5</ele><time>2026-04-03T11:02:18Z</time></trkpt><trkpt lat="42.954430638350004" lon="11.23957009960767"><ele>84.75</ele><time>2026-04-03T11:02:19Z</time></trkpt><trkpt lat="42.95451055444657" lon="11.239436676639142"><ele>84.0</ele><time>2026-04-03T11:02:20Z</time></trkpt><trkpt lat="42.954592307677146" lon="11.239299589414175"><ele>84.0</ele><time>2026-04-03T11:02:21Z</time></trkpt><trkpt lat="42.95467263412247" lon="11.239166575265683"><ele>84.0</ele><time>2026-04-03T11:02:22Z</time></trkpt><trkpt lat="42.95475597822049" lon="11.239027667459286"><ele>84.0</ele><time>2026-04-03T11:02:23Z</time></trkpt><trkpt lat="42.95483986422577" lon="11.238884975810866"><ele>84.0</ele><time>2026-04-03T11:02:24Z</time></trkpt><trkpt lat="42.95492120863799" lon="11.238741528398283"><ele>84.25</ele><time>2026-04-03T11:02:25Z</time></trkpt><trkpt lat="42.95500204582501" lon="11.238602188916815"><ele>84.5</ele><time>2026-04-03T11:02:26Z</time></trkpt><trkpt lat="42.955083187405236" lon="11.238464715169004"><ele>84.75</ele><time>2026-04-03T11:02:27Z</time></trkpt><trkpt lat="42.955168244492285" lon="11.238337289989591"><ele>85.0</ele><time>2026-04-03T11:02:28Z</time></trkpt><trkpt lat="42.95526127452099" lon="11.238220040508457"><ele>84.75</ele><time>2026-04-03T11:02:29Z</time></trkpt><trkpt lat="42.95536580234347" lon="11.238121588251136"><ele>84.5</ele><time>2026-04-03T11:02:30Z</time></trkpt><trkpt lat="42.95547714137669" lon="11.238040360606266"><ele>84.25</ele><time>2026-04-03T11:02:31Z</time></trkpt><trkpt lat="42.95559199939429" lon="11.237975738739303"><ele>84.0</ele><time>2026-04-03T11:02:32Z</time></trkpt><trkpt lat="42.9557018094312" lon="11.23791298707642"><ele>84.0</ele><time>2026-04-03T11:02:33Z</time></trkpt><trkpt lat="42.95581466042766" lon="11.237829426181944"><ele>84.0</ele><time>2026-04-03T11:02:34Z</time></trkpt><trkpt lat="42.955912197790575" lon="11.237721637721384"><ele>84.0</ele><time>2026-04-03T11:02:35Z</time></trkpt><trkpt lat="42.956004454626665" lon="11.237601568507568"><ele>84.0</ele><time>2026-04-03T11:02:36Z</time></trkpt><trkpt lat="42.956083869432895" lon="11.2374672594696"><ele>84.25</ele><time>2026-04-03T11:02:37Z</time></trkpt><trkpt lat="42.956151931426284" lon="11.237329520614937"><ele>84.5</ele><time>2026-04-03T11:02:38Z</time></trkpt><trkpt lat="42.95622495354691" lon="11.237186254677164"><ele>84.75</ele><time>2026-04-03T11:02:39Z</time></trkpt><trkpt lat="42.956288236123974" lon="11.237047827850878"><ele>85.0</ele><time>2026-04-03T11:02:40Z</time></trkpt><trkpt lat="42.95635041142739" lon="11.236907033865371"><ele>85.5</ele><time>2026-04-03T11:02:41Z</time></trkpt><trkpt lat="42.95641877029828" lon="11.236770771379248"><ele>86.0</ele><time>2026-04-03T11:02:42Z</time></trkpt><trkpt lat="42.95648907558345" lon="11.236642296170396"><ele>86.5</ele><time>2026-04-03T11:02:43Z</time></trkpt><trkpt lat="42.95655375104402" lon="11.23650825106876"><ele>87.0</ele><time>2026-04-03T11:02:44Z</time></trkpt><trkpt lat="42.95662165405571" lon="11.236373410246031"><ele>87.25</ele><time>2026-04-03T11:02:45Z</time></trkpt><trkpt lat="42.95668923272452" lon="11.2362414334777"><ele>87.5</ele><time>2026-04-03T11:02:46Z</time></trkpt><trkpt lat="42.95675606470353" lon="11.236108467458015"><ele>87.75</ele><time>2026-04-03T11:02:47Z</time></trkpt><trkpt lat="42.9568225495207" lon="11.235966970473909"><ele>88.0</ele><time>2026-04-03T11:02:48Z</time></trkpt><trkpt lat="42.956891097225885" lon="11.235828114590769"><ele>88.5</ele><time>2026-04-03T11:02:49Z</time></trkpt><trkpt lat="42.9569578882893" lon="11.235695396545978"><ele>89.0</ele><time>2026-04-03T11:02:50Z</time></trkpt><trkpt lat="42.95702641960083" lon="11.235563261646787"><ele>89.5</ele><time>2026-04-03T11:02:51Z</time></trkpt><trkpt lat="42.957097657570884" lon="11.23542871015991"><ele>90.0</ele><time>2026-04-03T11:02:52Z</time></trkpt><trkpt lat="42.95717498954767" lon="11.235304845726876"><ele>90.0</ele><time>2026-04-03T11:02:53Z</time></trkpt><trkpt lat="42.957258931704" lon="11.235202046820467"><ele>90.0</ele><time>2026-04-03T11:02:54Z</time></trkpt><trkpt lat="42.95735792083137" lon="11.235124184100481"><ele>90.0</ele><time>2026-04-03T11:02:55Z</time></trkpt><trkpt lat="42.95745970621965" lon="11.23506263156694"><ele>90.0</ele><time>2026-04-03T11:02:56Z</time></trkpt><trkpt lat="42.95756825733045" lon="11.235023797347825"><ele>90.25</ele><time>2026-04-03T11:02:57Z</time></trkpt><trkpt lat="42.957684615520186" lon="11.234998957015195"><ele>90.5</ele><time>2026-04-03T11:02:58Z</time></trkpt><trkpt lat="42.95780058854966" lon="11.234956701876703"><ele>90.75</ele><time>2026-04-03T11:02:59Z</time></trkpt><trkpt lat="42.9579031422883" lon="11.234880750736654"><ele>91.0</ele><time>2026-04-03T11:03:00Z</time></trkpt><trkpt lat="42.95799796217135" lon="11.234785167393456"><ele>91.0</ele><time>2026-04-03T11:03:01Z</time></trkpt><trkpt lat="42.958080219815535" lon="11.234668208963603"><ele>91.0</ele><time>2026-04-03T11:03:02Z</time></trkpt><trkpt lat="42.95814738977241" lon="11.234524003753917"><ele>91.0</ele><time>2026-04-03T11:03:03Z</time></trkpt><trkpt lat="42.95820351861658" lon="11.23436762602408"><ele>91.0</ele><time>2026-04-03T11:03:04Z</time></trkpt><trkpt lat="42.95826612526839" lon="11.234217821773877"><ele>91.0</ele><time>2026-04-03T11:03:05Z</time></trkpt><trkpt lat="42.95832908109748" lon="11.234072350888376"><ele>91.0</ele><time>2026-04-03T11:03:06Z</time></trkpt><trkpt lat="42.958387649139816" lon="11.2339266128533"><ele>91.0</ele><time>2026-04-03T11:03:07Z</time></trkpt><trkpt lat="42.95844822904062" lon="11.23378059971869"><ele>91.0</ele><time>2026-04-03T11:03:08Z</time></trkpt><trkpt lat="42.95850467947516" lon="11.233646228904494"><ele>91.0</ele><time>2026-04-03T11:03:09Z</time></trkpt><trkpt lat="42.9585526320725" lon="11.233517762289805"><ele>91.0</ele><time>2026-04-03T11:03:10Z</time></trkpt><trkpt lat="42.95858933220293" lon="11.23340001899604"><ele>91.0</ele><time>2026-04-03T11:03:11Z</time></trkpt><trkpt lat="42.958625459125734" lon="11.23329076792587"><ele>91.0</ele><time>2026-04-03T11:03:12Z</time></trkpt><trkpt lat="42.95865637660935" lon="11.233202644819992"><ele>91.0</ele><time>2026-04-03T11:03:13Z</time></trkpt><trkpt lat="42.95866242678723" lon="11.233105449144704"><ele>91.0</ele><time>2026-04-03T11:03:14Z</time></trkpt><trkpt lat="42.958648732628625" lon="11.233018239150622"><ele>91.66666666666666</ele><time>2026-04-03T11:03:15Z</time></trkpt><trkpt lat="42.95864628423236" lon="11.232869789266152"><ele>92.33333333333333</ele><time>2026-04-03T11:03:17Z</time></trkpt><trkpt lat="42.95863833077761" lon="11.232758509137591"><ele>93.0</ele><time>2026-04-03T11:03:19Z</time></trkpt><trkpt lat="42.95896674250605" lon="11.232588763643053"><ele>93.0</ele><time>2026-04-03T11:03:21Z</time></trkpt><trkpt lat="42.95902567807935" lon="11.232519114760999"><ele>93.0</ele><time>2026-04-03T11:03:22Z</time></trkpt><trkpt lat="42.95908609816514" lon="11.232448291682408"><ele>93.0</ele><time>2026-04-03T11:03:23Z</time></trkpt><trkpt lat="42.959155154176614" lon="11.232369257225704"><ele>93.0</ele><time>2026-04-03T11:03:24Z</time></trkpt><trkpt lat="42.95921409540777" lon="11.232302219838633"><ele>93.0</ele><time>2026-04-03T11:03:25Z</time></trkpt><trkpt lat="42.959285486706584" lon="11.232229424549395"><ele>93.0</ele><time>2026-04-03T11:03:26Z</time></trkpt><trkpt lat="42.95935114434533" lon="11.232168754157028"><ele>93.85714285714286</ele><time>2026-04-03T11:03:27Z</time></trkpt><trkpt lat="42.95941319256621" lon="11.232117274456792"><ele>94.71428571428572</ele><time>2026-04-03T11:03:28Z</time></trkpt><trkpt lat="42.95947869142593" lon="11.23206611483285"><ele>95.57142857142858</ele><time>2026-04-03T11:03:29Z</time></trkpt><trkpt lat="42.95953612623744" lon="11.232024724688056"><ele>96.42857142857143</ele><time>2026-04-03T11:03:30Z</time></trkpt><trkpt lat="42.95959956530103" lon="11.231984997622563"><ele>97.28571428571428</ele><time>2026-04-03T11:03:31Z</time></trkpt><trkpt lat="42.95966925940967" lon="11.231945504445132"><ele>98.14285714285715</ele><time>2026-04-03T11:03:32Z</time></trkpt><trkpt lat="42.95973448095708" lon="11.231900422827604"><ele>99.0</ele><time>2026-04-03T11:03:33Z</time></trkpt><trkpt lat="42.95981027608611" lon="11.231857974751723"><ele>99.0</ele><time>2026-04-03T11:03:34Z</time></trkpt><trkpt lat="42.95987615607981" lon="11.231824817315074"><ele>99.0</ele><time>2026-04-03T11:03:35Z</time></trkpt><trkpt lat="42.95994687373762" lon="11.231797716591117"><ele>99.0</ele><time>2026-04-03T11:03:36Z</time></trkpt><trkpt lat="42.960030899314745" lon="11.231759164567544"><ele>99.0</ele><time>2026-04-03T11:03:37Z</time></trkpt><trkpt lat="42.96010713694727" lon="11.231734976008307"><ele>99.0</ele><time>2026-04-03T11:03:38Z</time></trkpt><trkpt lat="42.960174383454465" lon="11.231711439768231"><ele>99.0</ele><time>2026-04-03T11:03:39Z</time></trkpt><trkpt lat="42.96023659525847" lon="11.231689309674726"><ele>99.0</ele><time>2026-04-03T11:03:40Z</time></trkpt><trkpt lat="42.96030268620105" lon="11.231657320743041"><ele>99.83333333333333</ele><time>2026-04-03T11:03:41Z</time></trkpt><trkpt lat="42.96036940043325" lon="11.231621804499579"><ele>100.66666666666666</ele><time>2026-04-03T11:03:42Z</time></trkpt><trkpt lat="42.96044006015866" lon="11.231586019261378"><ele>101.5</ele><time>2026-04-03T11:03:43Z</time></trkpt><trkpt lat="42.9605159839865" lon="11.231535525345013"><ele>102.33333333333333</ele><time>2026-04-03T11:03:44Z</time></trkpt><trkpt lat="42.96059295683149" lon="11.231481388177459"><ele>103.16666666666666</ele><time>2026-04-03T11:03:45Z</time></trkpt><trkpt lat="42.9606725399726" lon="11.23142987423861"><ele>104.0</ele><time>2026-04-03T11:03:46Z</time></trkpt><trkpt lat="42.96073215395919" lon="11.231383080907337"><ele>104.0</ele><time>2026-04-03T11:03:47Z</time></trkpt><trkpt lat="42.960796385548385" lon="11.231322876842603"><ele>104.0</ele><time>2026-04-03T11:03:48Z</time></trkpt><trkpt lat="42.960870180953144" lon="11.23126904590159"><ele>104.0</ele><time>2026-04-03T11:03:49Z</time></trkpt><trkpt lat="42.96093249885031" lon="11.231226214663678"><ele>104.0</ele><time>2026-04-03T11:03:50Z</time></trkpt><trkpt lat="42.961004600769925" lon="11.231176395453668"><ele>104.0</ele><time>2026-04-03T11:03:51Z</time></trkpt><trkpt lat="42.961065267288" lon="11.231149726762885"><ele>104.0</ele><time>2026-04-03T11:03:52Z</time></trkpt><trkpt lat="42.96113724210655" lon="11.231137991622953"><ele>104.0</ele><time>2026-04-03T11:03:53Z</time></trkpt><trkpt lat="42.96121395292588" lon="11.231127311311516"><ele>102.6</ele><time>2026-04-03T11:03:54Z</time></trkpt><trkpt lat="42.96130643869733" lon="11.231116189943032"><ele>101.2</ele><time>2026-04-03T11:03:55Z</time></trkpt><trkpt lat="42.96140447364235" lon="11.231106022664834"><ele>99.8</ele><time>2026-04-03T11:03:56Z</time></trkpt><trkpt lat="42.96152645488808" lon="11.231075536794044"><ele>98.39999999999999</ele><time>2026-04-03T11:03:58Z</time></trkpt><trkpt lat="42.96160178346499" lon="11.231062120741969"><ele>97.0</ele><time>2026-04-03T11:03:59Z</time></trkpt><trkpt lat="42.961678395430404" lon="11.231051135858278"><ele>96.66666666666667</ele><time>2026-04-03T11:04:00Z</time></trkpt><trkpt lat="42.96175815104737" lon="11.231037893861167"><ele>96.33333333333334</ele><time>2026-04-03T11:04:01Z</time></trkpt><trkpt lat="42.96183339526735" lon="11.231020799808993"><ele>96.0</ele><time>2026-04-03T11:04:02Z</time></trkpt><trkpt lat="42.96191310525095" lon="11.230998481143029"><ele>95.66666666666667</ele><time>2026-04-03T11:04:03Z</time></trkpt><trkpt lat="42.96200450332706" lon="11.230988385273367"><ele>95.33333333333334</ele><time>2026-04-03T11:04:04Z</time></trkpt><trkpt lat="42.96209836905728" lon="11.230979211580063"><ele>95.0</ele><time>2026-04-03T11:04:05Z</time></trkpt><trkpt lat="42.962185003011534" lon="11.230963689818795"><ele>95.0</ele><time>2026-04-03T11:04:06Z</time></trkpt><trkpt lat="42.96227624386401" lon="11.230940405039746"><ele>95.0</ele><time>2026-04-03T11:04:07Z</time></trkpt><trkpt lat="42.96235649253073" lon="11.230937298900832"><ele>95.0</ele><time>2026-04-03T11:04:08Z</time></trkpt><trkpt lat="42.96244439056505" lon="11.230938545200738"><ele>95.0</ele><time>2026-04-03T11:04:09Z</time></trkpt><trkpt lat="42.96253821290964" lon="11.230921696883856"><ele>95.0</ele><time>2026-04-03T11:04:10Z</time></trkpt><trkpt lat="42.962629588879544" lon="11.230908991257634"><ele>95.0</ele><time>2026-04-03T11:04:11Z</time></trkpt><trkpt lat="42.962733740772855" lon="11.230886889782003"><ele>95.2</ele><time>2026-04-03T11:04:12Z</time></trkpt><trkpt lat="42.96284224886499" lon="11.230863024613141"><ele>95.4</ele><time>2026-04-03T11:04:13Z</time></trkpt><trkpt lat="42.96294295146106" lon="11.230841718004115"><ele>95.6</ele><time>2026-04-03T11:04:14Z</time></trkpt><trkpt lat="42.96302849787996" lon="11.230826331211924"><ele>95.8</ele><time>2026-04-03T11:04:15Z</time></trkpt><trkpt lat="42.96312405486473" lon="11.230810604264706"><ele>96.0</ele><time>2026-04-03T11:04:16Z</time></trkpt><trkpt lat="42.96321615668272" lon="11.230801129726288"><ele>96.0</ele><time>2026-04-03T11:04:17Z</time></trkpt><trkpt lat="42.963308271698516" lon="11.230788437052112"><ele>96.0</ele><time>2026-04-03T11:04:18Z</time></trkpt><trkpt lat="42.96340193186686" lon="11.230770654062567"><ele>96.0</ele><time>2026-04-03T11:04:19Z</time></trkpt><trkpt lat="42.963495107110575" lon="11.230759824441504"><ele>96.0</ele><time>2026-04-03T11:04:20Z</time></trkpt><trkpt lat="42.96359117846583" lon="11.230734946613195"><ele>96.0</ele><time>2026-04-03T11:04:21Z</time></trkpt><trkpt lat="42.96367778665065" lon="11.230707334357783"><ele>95.6</ele><time>2026-04-03T11:04:22Z</time></trkpt><trkpt lat="42.96375392188656" lon="11.230686169039252"><ele>95.19999999999999</ele><time>2026-04-03T11:04:23Z</time></trkpt><trkpt lat="42.9638788904777" lon="11.23063676121647"><ele>94.80000000000001</ele><time>2026-04-03T11:04:25Z</time></trkpt><trkpt lat="42.96399400256961" lon="11.230651174076026"><ele>94.4</ele><time>2026-04-03T11:04:27Z</time></trkpt><trkpt lat="42.964057574168066" lon="11.230645725221542"><ele>94.0</ele><time>2026-04-03T11:04:28Z</time></trkpt><trkpt lat="42.964132453136166" lon="11.23061948095115"><ele>95.0</ele><time>2026-04-03T11:04:29Z</time></trkpt><trkpt lat="42.964195187608375" lon="11.230593015107097"><ele>96.0</ele><time>2026-04-03T11:04:30Z</time></trkpt><trkpt lat="42.964259000414806" lon="11.230555449795942"><ele>97.0</ele><time>2026-04-03T11:04:31Z</time></trkpt><trkpt lat="42.96432896732066" lon="11.230523655730908"><ele>98.0</ele><time>2026-04-03T11:04:32Z</time></trkpt><trkpt lat="42.96439501243903" lon="11.230488269501123"><ele>99.0</ele><time>2026-04-03T11:04:32.999Z</time></trkpt><trkpt lat="42.96446214790827" lon="11.230441777891821"><ele>100.0</ele><time>2026-04-03T11:04:33.999Z</time></trkpt><trkpt lat="42.96455288581115" lon="11.230409246164658"><ele>101.0</ele><time>2026-04-03T11:04:34.999Z</time></trkpt><trkpt lat="42.964640594028474" lon="11.230375724608257"><ele>100.99999999999999</ele><time>2026-04-03T11:04:35.999Z</time></trkpt><trkpt lat="42.96469255321974" lon="11.23032241500303"><ele>101.0</ele><time>2026-04-03T11:04:36.999Z</time></trkpt><trkpt lat="42.96477195414468" lon="11.230278511407784"><ele>101.0</ele><time>2026-04-03T11:04:37.999Z</time></trkpt><trkpt lat="42.96484819311294" lon="11.230235604993497"><ele>101.0</ele><time>2026-04-03T11:04:38.999Z</time></trkpt><trkpt lat="42.96493610119757" lon="11.23019722718277"><ele>100.99999999999999</ele><time>2026-04-03T11:04:39.999Z</time></trkpt><trkpt lat="42.96503328411613" lon="11.230145855442885"><ele>101.0</ele><time>2026-04-03T11:04:40.999Z</time></trkpt><trkpt lat="42.965114946988855" lon="11.230100596288823"><ele>99.8</ele><time>2026-04-03T11:04:41.999Z</time></trkpt><trkpt lat="42.965216292687565" lon="11.230045356074172"><ele>98.6</ele><time>2026-04-03T11:04:42.999Z</time></trkpt><trkpt lat="42.9653293427942" lon="11.229993334658202"><ele>97.4</ele><time>2026-04-03T11:04:43.999Z</time></trkpt><trkpt lat="42.96543140144258" lon="11.229939074453627"><ele>96.2</ele><time>2026-04-03T11:04:44.999Z</time></trkpt><trkpt lat="42.96552637836843" lon="11.229908009306689"><ele>95.0</ele><time>2026-04-03T11:04:45.999Z</time></trkpt><trkpt lat="42.96562205975454" lon="11.229840736766299"><ele>95.0</ele><time>2026-04-03T11:04:46.999Z</time></trkpt><trkpt lat="42.96570372434796" lon="11.229818575565357"><ele>95.0</ele><time>2026-04-03T11:04:47.999Z</time></trkpt><trkpt lat="42.9657747832439" lon="11.229790186522564"><ele>95.0</ele><time>2026-04-03T11:04:48.999Z</time></trkpt><trkpt lat="42.96584296884587" lon="11.229760167513577"><ele>95.0</ele><time>2026-04-03T11:04:49.999Z</time></trkpt><trkpt lat="42.96594047480923" lon="11.229709337985113"><ele>95.0</ele><time>2026-04-03T11:04:51.999Z</time></trkpt><trkpt lat="42.966015650062864" lon="11.229612312726456"><ele>95.0</ele><time>2026-04-03T11:04:53.999Z</time></trkpt><trkpt lat="42.96608122355348" lon="11.229536776493989"><ele>95.16666666666667</ele><time>2026-04-03T11:04:56.999Z</time></trkpt><trkpt lat="42.96613640760945" lon="11.229461595067475"><ele>95.33333333333334</ele><time>2026-04-03T11:04:59.999Z</time></trkpt><trkpt lat="42.96620395909335" lon="11.229383622720146"><ele>95.5</ele><time>2026-04-03T11:05:01.999Z</time></trkpt><trkpt lat="42.96625791495722" lon="11.229332192996342"><ele>95.66666666666667</ele><time>2026-04-03T11:05:10.999Z</time></trkpt><trkpt lat="42.966331935682405" lon="11.229256145958999"><ele>95.83333333333333</ele><time>2026-04-03T11:05:12.999Z</time></trkpt><trkpt lat="42.96640636432773" lon="11.229164944868243"><ele>96.0</ele><time>2026-04-03T11:05:14.999Z</time></trkpt><trkpt lat="42.96649733745865" lon="11.22908026999578"><ele>96.0</ele><time>2026-04-03T11:05:16.999Z</time></trkpt><trkpt lat="42.96656193434807" lon="11.22904340845843"><ele>96.0</ele><time>2026-04-03T11:05:17.999Z</time></trkpt><trkpt lat="42.96663153738334" lon="11.229011251319436"><ele>96.0</ele><time>2026-04-03T11:05:18.999Z</time></trkpt><trkpt lat="42.96669481145546" lon="11.228971240631342"><ele>96.0</ele><time>2026-04-03T11:05:19.999Z</time></trkpt><trkpt lat="42.966793577178805" lon="11.228905341283259"><ele>96.0</ele><time>2026-04-03T11:05:21.999Z</time></trkpt><trkpt lat="42.96684221312115" lon="11.228841152135296"><ele>96.0</ele><time>2026-04-03T11:05:22.999Z</time></trkpt><trkpt lat="42.96688951816685" lon="11.228783923678762"><ele>96.0</ele><time>2026-04-03T11:05:23.999Z</time></trkpt><trkpt lat="42.966943148589166" lon="11.22871142641844"><ele>96.0</ele><time>2026-04-03T11:05:24.999Z</time></trkpt><trkpt lat="42.966994653169586" lon="11.228635124751355"><ele>96.0</ele><time>2026-04-03T11:05:25.999Z</time></trkpt><trkpt lat="42.96705457716614" lon="11.22855687246417"><ele>96.0</ele><time>2026-04-03T11:05:26.999Z</time></trkpt><trkpt lat="42.96711271471202" lon="11.228470235841643"><ele>96.0</ele><time>2026-04-03T11:05:27.999Z</time></trkpt><trkpt lat="42.96716526836196" lon="11.228389382809702"><ele>96.0</ele><time>2026-04-03T11:05:28.999Z</time></trkpt><trkpt lat="42.96722007285081" lon="11.228304338471247"><ele>96.0</ele><time>2026-04-03T11:05:29.999Z</time></trkpt><trkpt lat="42.967284033350225" lon="11.228218437821285"><ele>96.0</ele><time>2026-04-03T11:05:30.999Z</time></trkpt><trkpt lat="42.96734524121669" lon="11.22812312372467"><ele>96.0</ele><time>2026-04-03T11:05:31.999Z</time></trkpt><trkpt lat="42.96741031397644" lon="11.228029817142609"><ele>96.0</ele><time>2026-04-03T11:05:32.999Z</time></trkpt><trkpt lat="42.96747438972178" lon="11.227929364292091"><ele>96.0</ele><time>2026-04-03T11:05:33.999Z</time></trkpt><trkpt lat="42.967538435403256" lon="11.227847864193523"><ele>96.0</ele><time>2026-04-03T11:05:34.999Z</time></trkpt><trkpt lat="42.96761791406611" lon="11.227744488139017"><ele>96.0</ele><time>2026-04-03T11:05:35.999Z</time></trkpt><trkpt lat="42.96768501405434" lon="11.227633360607813"><ele>96.0</ele><time>2026-04-03T11:05:36.999Z</time></trkpt><trkpt lat="42.967739592382166" lon="11.227529529589772"><ele>96.0</ele><time>2026-04-03T11:05:37.999Z</time></trkpt><trkpt lat="42.96778638397398" lon="11.227433334290245"><ele>96.0</ele><time>2026-04-03T11:05:38.999Z</time></trkpt><trkpt lat="42.96784358023261" lon="11.227338152433145"><ele>96.5</ele><time>2026-04-03T11:05:39.999Z</time></trkpt><trkpt lat="42.967893204456814" lon="11.227239267251969"><ele>97.0</ele><time>2026-04-03T11:05:40.999Z</time></trkpt><trkpt lat="42.96794817540902" lon="11.227141023146036"><ele>97.5</ele><time>2026-04-03T11:05:41.999Z</time></trkpt><trkpt lat="42.96800241459081" lon="11.227045053999367"><ele>98.0</ele><time>2026-04-03T11:05:42.999Z</time></trkpt><trkpt lat="42.96805055355482" lon="11.226954166272847"><ele>98.5</ele><time>2026-04-03T11:05:43.999Z</time></trkpt><trkpt lat="42.96810521464799" lon="11.226849974766656"><ele>99.0</ele><time>2026-04-03T11:05:44.999Z</time></trkpt><trkpt lat="42.96816028550966" lon="11.226750801633058"><ele>99.0</ele><time>2026-04-03T11:05:45.999Z</time></trkpt><trkpt lat="42.96821905749618" lon="11.22665902006746"><ele>99.0</ele><time>2026-04-03T11:05:46.999Z</time></trkpt><trkpt lat="42.96827763566045" lon="11.226559483831544"><ele>99.0</ele><time>2026-04-03T11:05:47.999Z</time></trkpt><trkpt lat="42.96833748279482" lon="11.226453759861707"><ele>99.0</ele><time>2026-04-03T11:05:48.999Z</time></trkpt><trkpt lat="42.96839192737304" lon="11.226353159658776"><ele>99.0</ele><time>2026-04-03T11:05:49.999Z</time></trkpt><trkpt lat="42.9684477317343" lon="11.226245949111993"><ele>98.66666666666667</ele><time>2026-04-03T11:05:50.999Z</time></trkpt><trkpt lat="42.96849151120557" lon="11.226143446582508"><ele>98.33333333333334</ele><time>2026-04-03T11:05:51.999Z</time></trkpt><trkpt lat="42.96852609304385" lon="11.226068589821299"><ele>98.0</ele><time>2026-04-03T11:05:52.999Z</time></trkpt><trkpt lat="42.968560217667495" lon="11.225995877325508"><ele>97.66666666666667</ele><time>2026-04-03T11:05:53.999Z</time></trkpt><trkpt lat="42.968638421422746" lon="11.225873319001373"><ele>97.33333333333334</ele><time>2026-04-03T11:05:55.999Z</time></trkpt><trkpt lat="42.96869967422286" lon="11.225769880139358"><ele>97.0</ele><time>2026-04-03T11:05:57.999Z</time></trkpt><trkpt lat="42.968767569432835" lon="11.225661440671002"><ele>98.0</ele><time>2026-04-03T11:05:59.999Z</time></trkpt><trkpt lat="42.96883042244038" lon="11.225566108151932"><ele>99.0</ele><time>2026-04-03T11:06:01.999Z</time></trkpt><trkpt lat="42.9688922250203" lon="11.225466773372474"><ele>100.0</ele><time>2026-04-03T11:06:03.999Z</time></trkpt><trkpt lat="42.968977129142466" lon="11.225341615813722"><ele>101.0</ele><time>2026-04-03T11:06:05.999Z</time></trkpt><trkpt lat="42.96902521978916" lon="11.225248958938767"><ele>102.0</ele><time>2026-04-03T11:06:06.999Z</time></trkpt><trkpt lat="42.96907865575293" lon="11.225150731637974"><ele>102.0</ele><time>2026-04-03T11:06:07.999Z</time></trkpt><trkpt lat="42.96912416508843" lon="11.225068361996293"><ele>102.0</ele><time>2026-04-03T11:06:08.999Z</time></trkpt><trkpt lat="42.96919512906316" lon="11.224966056796825"><ele>102.0</ele><time>2026-04-03T11:06:09.999Z</time></trkpt><trkpt lat="42.96928157011607" lon="11.224858866189363"><ele>102.0</ele><time>2026-04-03T11:06:10.999Z</time></trkpt><trkpt lat="42.96935600490207" lon="11.224741585132366"><ele>102.0</ele><time>2026-04-03T11:06:11.999Z</time></trkpt><trkpt lat="42.969439683654684" lon="11.22459850689719"><ele>102.0</ele><time>2026-04-03T11:06:12.999Z</time></trkpt><trkpt lat="42.96953291848749" lon="11.224465225524197"><ele>102.0</ele><time>2026-04-03T11:06:13.999Z</time></trkpt><trkpt lat="42.96962206929487" lon="11.22432412680459"><ele>102.0</ele><time>2026-04-03T11:06:14.999Z</time></trkpt><trkpt lat="42.96971895023722" lon="11.224176698284095"><ele>102.0</ele><time>2026-04-03T11:06:15.999Z</time></trkpt><trkpt lat="42.96983008665056" lon="11.224000463965494"><ele>101.33333333333334</ele><time>2026-04-03T11:06:16.999Z</time></trkpt><trkpt lat="42.969956520689934" lon="11.22381162331255"><ele>100.66666666666667</ele><time>2026-04-03T11:06:17.999Z</time></trkpt><trkpt lat="42.970084325127615" lon="11.223604398934247"><ele>100.0</ele><time>2026-04-03T11:06:18.999Z</time></trkpt><trkpt lat="42.97021761372618" lon="11.22339385249788"><ele>100.0</ele><time>2026-04-03T11:06:19.999Z</time></trkpt><trkpt lat="42.97038525761208" lon="11.223157420587025"><ele>100.0</ele><time>2026-04-03T11:06:20.999Z</time></trkpt><trkpt lat="42.97055105098436" lon="11.222908572834672"><ele>101.33333333333334</ele><time>2026-04-03T11:06:21.999Z</time></trkpt><trkpt lat="42.970700622140484" lon="11.222654738063888"><ele>102.66666666666666</ele><time>2026-04-03T11:06:22.999Z</time></trkpt><trkpt lat="42.97081328201441" lon="11.222497703782574"><ele>104.0</ele><time>2026-04-03T11:06:23.999Z</time></trkpt><trkpt lat="42.97095987457061" lon="11.222279656759882"><ele>104.0</ele><time>2026-04-03T11:06:24.999Z</time></trkpt><trkpt lat="42.97111681261192" lon="11.222053481903707"><ele>104.0</ele><time>2026-04-03T11:06:25.999Z</time></trkpt><trkpt lat="42.97123514553579" lon="11.221875644788026"><ele>104.0</ele><time>2026-04-03T11:06:26.999Z</time></trkpt><trkpt lat="42.97132774221667" lon="11.221756487330483"><ele>104.0</ele><time>2026-04-03T11:06:27.999Z</time></trkpt><trkpt lat="42.971408666875256" lon="11.221626434721339"><ele>104.0</ele><time>2026-04-03T11:06:28.999Z</time></trkpt><trkpt lat="42.97148940114744" lon="11.221488081053486"><ele>104.0</ele><time>2026-04-03T11:06:29.999Z</time></trkpt><trkpt lat="42.97157185724137" lon="11.22135531072394"><ele>104.0</ele><time>2026-04-03T11:06:30.999Z</time></trkpt><trkpt lat="42.97166662398889" lon="11.221199439871162"><ele>104.0</ele><time>2026-04-03T11:06:31.999Z</time></trkpt><trkpt lat="42.971765799361165" lon="11.221039529425447"><ele>104.0</ele><time>2026-04-03T11:06:32.999Z</time></trkpt><trkpt lat="42.971882520727554" lon="11.2208673344052"><ele>104.0</ele><time>2026-04-03T11:06:33.999Z</time></trkpt><trkpt lat="42.97197075106303" lon="11.22074016646858"><ele>105.66666666666666</ele><time>2026-04-03T11:06:34.999Z</time></trkpt><trkpt lat="42.972062643411334" lon="11.220601924371945"><ele>107.33333333333334</ele><time>2026-04-03T11:06:35.999Z</time></trkpt><trkpt lat="42.972172655101375" lon="11.220431759314096"><ele>109.0</ele><time>2026-04-03T11:06:36.999Z</time></trkpt><trkpt lat="42.97229363157645" lon="11.220243825241317"><ele>109.0</ele><time>2026-04-03T11:06:37.999Z</time></trkpt><trkpt lat="42.97238417802392" lon="11.220097335413811"><ele>109.0</ele><time>2026-04-03T11:06:38.999Z</time></trkpt><trkpt lat="42.972484346335" lon="11.219949399022521"><ele>109.0</ele><time>2026-04-03T11:06:39.999Z</time></trkpt><trkpt lat="42.97256127292903" lon="11.219840056668211"><ele>109.0</ele><time>2026-04-03T11:06:40.999Z</time></trkpt><trkpt lat="42.972624714381105" lon="11.219737647422447"><ele>109.00000000000001</ele><time>2026-04-03T11:06:41.999Z</time></trkpt><trkpt lat="42.972697010344405" lon="11.219626355517299"><ele>109.0</ele><time>2026-04-03T11:06:42.999Z</time></trkpt><trkpt lat="42.97276705285051" lon="11.21952652094239"><ele>109.0</ele><time>2026-04-03T11:06:43.999Z</time></trkpt><trkpt lat="42.972828738628266" lon="11.219438725020574"><ele>109.0</ele><time>2026-04-03T11:06:44.999Z</time></trkpt><trkpt lat="42.97288067072287" lon="11.219380204207788"><ele>109.00000000000001</ele><time>2026-04-03T11:06:45.999Z</time></trkpt><trkpt lat="42.972931687956745" lon="11.219306992755886"><ele>109.0</ele><time>2026-04-03T11:06:47.999Z</time></trkpt><trkpt lat="42.9729752369059" lon="11.219244566490934"><ele>109.0</ele><time>2026-04-03T11:06:52.999Z</time></trkpt><trkpt lat="42.97289159832718" lon="11.219328251396925"><ele>109.0</ele><time>2026-04-03T11:07:08.999Z</time></trkpt><trkpt lat="42.9728793211003" lon="11.219424141821191"><ele>109.0</ele><time>2026-04-03T11:07:11.999Z</time></trkpt><trkpt lat="42.97297121570596" lon="11.219471791436725"><ele>109.0</ele><time>2026-04-03T11:07:14.999Z</time></trkpt><trkpt lat="42.97310060760605" lon="11.219404772795452"><ele>109.0</ele><time>2026-04-03T11:07:16.999Z</time></trkpt><trkpt lat="42.973175672562945" lon="11.219392440449765"><ele>109.0</ele><time>2026-04-03T11:07:17.999Z</time></trkpt><trkpt lat="42.97325685068985" lon="11.21937517525818"><ele>109.0</ele><time>2026-04-03T11:07:19Z</time></trkpt><trkpt lat="42.97335733853436" lon="11.219336028103948"><ele>109.0</ele><time>2026-04-03T11:07:20Z</time></trkpt><trkpt lat="42.97345693489125" lon="11.219306864841526"><ele>109.0</ele><time>2026-04-03T11:07:21Z</time></trkpt><trkpt lat="42.973591215603605" lon="11.21928213820814"><ele>109.0</ele><time>2026-04-03T11:07:22Z</time></trkpt><trkpt lat="42.97372152892344" lon="11.21925311738182"><ele>108.5</ele><time>2026-04-03T11:07:23Z</time></trkpt><trkpt lat="42.97385293796453" lon="11.21920977449245"><ele>108.0</ele><time>2026-04-03T11:07:24Z</time></trkpt><trkpt lat="42.97399602484956" lon="11.219177512592957"><ele>107.5</ele><time>2026-04-03T11:07:25Z</time></trkpt><trkpt lat="42.97413887975719" lon="11.219144580797431"><ele>107.0</ele><time>2026-04-03T11:07:26Z</time></trkpt><trkpt lat="42.97427684343122" lon="11.219117223057633"><ele>106.5</ele><time>2026-04-03T11:07:27Z</time></trkpt><trkpt lat="42.97443427148998" lon="11.219079445602771"><ele>106.0</ele><time>2026-04-03T11:07:28Z</time></trkpt><trkpt lat="42.97454453609886" lon="11.219052288979523"><ele>105.5</ele><time>2026-04-03T11:07:29Z</time></trkpt><trkpt lat="42.97463224834714" lon="11.21903175139804"><ele>105.0</ele><time>2026-04-03T11:07:30Z</time></trkpt><trkpt lat="42.97474005831925" lon="11.21901356700704"><ele>105.0</ele><time>2026-04-03T11:07:31Z</time></trkpt><trkpt lat="42.97483802980116" lon="11.2189896968294"><ele>105.0</ele><time>2026-04-03T11:07:32Z</time></trkpt><trkpt lat="42.97491728001083" lon="11.218968179416622"><ele>105.0</ele><time>2026-04-03T11:07:33Z</time></trkpt><trkpt lat="42.975036626939314" lon="11.21893464278732"><ele>105.0</ele><time>2026-04-03T11:07:35Z</time></trkpt><trkpt lat="42.97510755605336" lon="11.218912147952818"><ele>105.0</ele><time>2026-04-03T11:07:37Z</time></trkpt><trkpt lat="42.97518965485823" lon="11.218884421248221"><ele>105.8</ele><time>2026-04-03T11:08:06Z</time></trkpt><trkpt lat="42.97529254056814" lon="11.218852178506058"><ele>106.6</ele><time>2026-04-03T11:08:08Z</time></trkpt><trkpt lat="42.97540577492585" lon="11.218828217957412"><ele>107.4</ele><time>2026-04-03T11:08:10Z</time></trkpt><trkpt lat="42.97548143998991" lon="11.218806039640377"><ele>108.2</ele><time>2026-04-03T11:08:11Z</time></trkpt><trkpt lat="42.97556489487772" lon="11.218787628199792"><ele>109.0</ele><time>2026-04-03T11:08:12Z</time></trkpt><trkpt lat="42.975638912842314" lon="11.218758645070727"><ele>109.00000000000001</ele><time>2026-04-03T11:08:13Z</time></trkpt><trkpt lat="42.97570883017055" lon="11.218738853929958"><ele>109.0</ele><time>2026-04-03T11:08:14Z</time></trkpt><trkpt lat="42.975776200007" lon="11.218723885101209"><ele>109.0</ele><time>2026-04-03T11:08:15Z</time></trkpt><trkpt lat="42.97585449291719" lon="11.218704149745548"><ele>109.0</ele><time>2026-04-03T11:08:16Z</time></trkpt><trkpt lat="42.97593914662699" lon="11.218684621507384"><ele>109.00000000000001</ele><time>2026-04-03T11:08:17Z</time></trkpt><trkpt lat="42.97601320934165" lon="11.218665770960198"><ele>109.0</ele><time>2026-04-03T11:08:18Z</time></trkpt><trkpt lat="42.97610810646644" lon="11.218644628187475"><ele>109.4</ele><time>2026-04-03T11:08:19Z</time></trkpt><trkpt lat="42.97621136980242" lon="11.21861993962253"><ele>109.80000000000001</ele><time>2026-04-03T11:08:20Z</time></trkpt><trkpt lat="42.97632214227071" lon="11.218588693082042"><ele>110.19999999999999</ele><time>2026-04-03T11:08:21Z</time></trkpt><trkpt lat="42.97642416458313" lon="11.218560253417081"><ele>110.6</ele><time>2026-04-03T11:08:22Z</time></trkpt><trkpt lat="42.976519650210804" lon="11.21852727298428"><ele>111.0</ele><time>2026-04-03T11:08:23Z</time></trkpt><trkpt lat="42.976624163167514" lon="11.218505818964152"><ele>111.0</ele><time>2026-04-03T11:08:24Z</time></trkpt><trkpt lat="42.97671636719518" lon="11.218473769190021"><ele>111.0</ele><time>2026-04-03T11:08:25Z</time></trkpt><trkpt lat="42.97680236184202" lon="11.218442179684459"><ele>111.0</ele><time>2026-04-03T11:08:26Z</time></trkpt><trkpt lat="42.97689577271609" lon="11.218407523165013"><ele>111.0</ele><time>2026-04-03T11:08:27Z</time></trkpt><trkpt lat="42.97698779530522" lon="11.21838069878663"><ele>111.0</ele><time>2026-04-03T11:08:28Z</time></trkpt><trkpt lat="42.97707961806898" lon="11.218366063029414"><ele>111.0</ele><time>2026-04-03T11:08:29Z</time></trkpt><trkpt lat="42.97716643589048" lon="11.218346469879213"><ele>111.0</ele><time>2026-04-03T11:08:30Z</time></trkpt><trkpt lat="42.97725503871538" lon="11.218322722955183"><ele>111.0</ele><time>2026-04-03T11:08:31Z</time></trkpt><trkpt lat="42.97734109638776" lon="11.218303347641164"><ele>111.0</ele><time>2026-04-03T11:08:32Z</time></trkpt><trkpt lat="42.97742192565583" lon="11.218285530557848"><ele>111.0</ele><time>2026-04-03T11:08:33Z</time></trkpt><trkpt lat="42.97750497404514" lon="11.218267535933427"><ele>111.0</ele><time>2026-04-03T11:08:34Z</time></trkpt><trkpt lat="42.97758961314406" lon="11.218263861625376"><ele>111.0</ele><time>2026-04-03T11:08:35Z</time></trkpt><trkpt lat="42.97766141885046" lon="11.218229158160014"><ele>111.0</ele><time>2026-04-03T11:08:36Z</time></trkpt><trkpt lat="42.97775590939117" lon="11.21821271798437"><ele>111.0</ele><time>2026-04-03T11:08:37Z</time></trkpt><trkpt lat="42.97783662653033" lon="11.218192135367172"><ele>111.0</ele><time>2026-04-03T11:08:38Z</time></trkpt><trkpt lat="42.97792239104211" lon="11.218172490626948"><ele>111.0</ele><time>2026-04-03T11:08:39Z</time></trkpt><trkpt lat="42.97800742594753" lon="11.218150767977441"><ele>111.0</ele><time>2026-04-03T11:08:40Z</time></trkpt><trkpt lat="42.97809396995532" lon="11.218130638776751"><ele>111.4</ele><time>2026-04-03T11:08:41Z</time></trkpt><trkpt lat="42.97819398678999" lon="11.2181055319672"><ele>111.8</ele><time>2026-04-03T11:08:42Z</time></trkpt><trkpt lat="42.978280833898005" lon="11.218082913132685"><ele>112.20000000000002</ele><time>2026-04-03T11:08:43Z</time></trkpt><trkpt lat="42.978364987259276" lon="11.218056767919776"><ele>112.60000000000001</ele><time>2026-04-03T11:08:44Z</time></trkpt><trkpt lat="42.9784561246784" lon="11.218033426950115"><ele>113.0</ele><time>2026-04-03T11:08:45Z</time></trkpt><trkpt lat="42.97854921694608" lon="11.218006562774647"><ele>113.0</ele><time>2026-04-03T11:08:46Z</time></trkpt><trkpt lat="42.978639742026395" lon="11.217995263329506"><ele>113.00000000000001</ele><time>2026-04-03T11:08:47Z</time></trkpt><trkpt lat="42.97872153736439" lon="11.217966430285081"><ele>113.00000000000001</ele><time>2026-04-03T11:08:48Z</time></trkpt><trkpt lat="42.978824415086336" lon="11.217942273206926"><ele>113.0</ele><time>2026-04-03T11:08:49Z</time></trkpt><trkpt lat="42.978921269733604" lon="11.217916925462747"><ele>113.0</ele><time>2026-04-03T11:08:50Z</time></trkpt><trkpt lat="42.97901662860964" lon="11.217896666745737"><ele>113.0</ele><time>2026-04-03T11:08:51Z</time></trkpt><trkpt lat="42.9791107189707" lon="11.217874695858628"><ele>113.00000000000001</ele><time>2026-04-03T11:08:52Z</time></trkpt><trkpt lat="42.979206058319825" lon="11.21785128159352"><ele>113.00000000000001</ele><time>2026-04-03T11:08:53Z</time></trkpt><trkpt lat="42.97929985556028" lon="11.217827735373739"><ele>113.0</ele><time>2026-04-03T11:08:54Z</time></trkpt><trkpt lat="42.97940578393292" lon="11.217798194671419"><ele>113.0</ele><time>2026-04-03T11:08:55Z</time></trkpt><trkpt lat="42.9795143533846" lon="11.2177799524706"><ele>113.25</ele><time>2026-04-03T11:08:56Z</time></trkpt><trkpt lat="42.979631637356995" lon="11.217741097574477"><ele>113.5</ele><time>2026-04-03T11:08:57Z</time></trkpt><trkpt lat="42.97975964121093" lon="11.21773299035647"><ele>113.75</ele><time>2026-04-03T11:08:58Z</time></trkpt><trkpt lat="42.979875264325635" lon="11.217683119553671"><ele>114.0</ele><time>2026-04-03T11:08:59Z</time></trkpt><trkpt lat="42.97997769730027" lon="11.217680056327826"><ele>114.4</ele><time>2026-04-03T11:09:00Z</time></trkpt><trkpt lat="42.98010754655059" lon="11.21764666068731"><ele>114.80000000000001</ele><time>2026-04-03T11:09:01Z</time></trkpt><trkpt lat="42.98022123853518" lon="11.217617099856021"><ele>115.19999999999999</ele><time>2026-04-03T11:09:02Z</time></trkpt><trkpt lat="42.98030935345348" lon="11.217572139140007"><ele>115.6</ele><time>2026-04-03T11:09:03Z</time></trkpt><trkpt lat="42.980399278630166" lon="11.217546431682722"><ele>116.0</ele><time>2026-04-03T11:09:04Z</time></trkpt><trkpt lat="42.980490507336185" lon="11.217523439881578"><ele>115.99999999999999</ele><time>2026-04-03T11:09:05Z</time></trkpt><trkpt lat="42.98058424857383" lon="11.217501626270368"><ele>116.0</ele><time>2026-04-03T11:09:06Z</time></trkpt><trkpt lat="42.98069059383911" lon="11.217473088809282"><ele>116.0</ele><time>2026-04-03T11:09:07Z</time></trkpt><trkpt lat="42.980779262424306" lon="11.217449314936113"><ele>116.0</ele><time>2026-04-03T11:09:08Z</time></trkpt><trkpt lat="42.98084521904858" lon="11.217432848631272"><ele>115.99999999999999</ele><time>2026-04-03T11:09:09Z</time></trkpt><trkpt lat="42.98091470433428" lon="11.217412976395794"><ele>116.0</ele><time>2026-04-03T11:09:10Z</time></trkpt><trkpt lat="42.980986360693144" lon="11.217398428380855"><ele>116.6</ele><time>2026-04-03T11:09:11Z</time></trkpt><trkpt lat="42.981070355649265" lon="11.21738100387167"><ele>117.19999999999999</ele><time>2026-04-03T11:09:12Z</time></trkpt><trkpt lat="42.98115851940247" lon="11.2173617284042"><ele>117.80000000000001</ele><time>2026-04-03T11:09:13Z</time></trkpt><trkpt lat="42.98124678998783" lon="11.217340392645747"><ele>118.4</ele><time>2026-04-03T11:09:14Z</time></trkpt><trkpt lat="42.98135098418558" lon="11.217317902408325"><ele>119.0</ele><time>2026-04-03T11:09:15Z</time></trkpt><trkpt lat="42.98145343854991" lon="11.217297783509201"><ele>119.0</ele><time>2026-04-03T11:09:16Z</time></trkpt><trkpt lat="42.98154130826825" lon="11.217280032652804"><ele>119.0</ele><time>2026-04-03T11:09:17Z</time></trkpt><trkpt lat="42.98163447627329" lon="11.217251157659325"><ele>119.0</ele><time>2026-04-03T11:09:18Z</time></trkpt><trkpt lat="42.98173046957944" lon="11.21724626853612"><ele>119.0</ele><time>2026-04-03T11:09:19Z</time></trkpt><trkpt lat="42.98182963304357" lon="11.217208534204907"><ele>119.0</ele><time>2026-04-03T11:09:20Z</time></trkpt><trkpt lat="42.981917876453814" lon="11.217188275665887"><ele>119.66666666666666</ele><time>2026-04-03T11:09:21Z</time></trkpt><trkpt lat="42.98201179603974" lon="11.217167228034613"><ele>120.33333333333333</ele><time>2026-04-03T11:09:22Z</time></trkpt><trkpt lat="42.98209334665402" lon="11.21714234017032"><ele>121.0</ele><time>2026-04-03T11:09:23Z</time></trkpt><trkpt lat="42.98216433193814" lon="11.217122668279282"><ele>121.66666666666666</ele><time>2026-04-03T11:09:24Z</time></trkpt><trkpt lat="42.98223185981454" lon="11.217104523770487"><ele>122.33333333333333</ele><time>2026-04-03T11:09:25Z</time></trkpt><trkpt lat="42.98230381845341" lon="11.217091146377301"><ele>123.0</ele><time>2026-04-03T11:09:26Z</time></trkpt><trkpt lat="42.98237562392388" lon="11.217081260307808"><ele>123.0</ele><time>2026-04-03T11:09:27Z</time></trkpt><trkpt lat="42.98245198205192" lon="11.217105465255706"><ele>123.0</ele><time>2026-04-03T11:09:28Z</time></trkpt><trkpt lat="42.98252332223947" lon="11.21709698205858"><ele>123.0</ele><time>2026-04-03T11:09:29Z</time></trkpt><trkpt lat="42.982591721644894" lon="11.217052197654859"><ele>123.0</ele><time>2026-04-03T11:09:30Z</time></trkpt><trkpt lat="42.98266574009525" lon="11.217030241308798"><ele>123.0</ele><time>2026-04-03T11:09:31Z</time></trkpt><trkpt lat="42.98275934423787" lon="11.21695525127928"><ele>123.0</ele><time>2026-04-03T11:09:32Z</time></trkpt><trkpt lat="42.982870020604295" lon="11.216880007245708"><ele>123.2</ele><time>2026-04-03T11:09:33Z</time></trkpt><trkpt lat="42.98295782914373" lon="11.216799808447064"><ele>123.4</ele><time>2026-04-03T11:09:34Z</time></trkpt><trkpt lat="42.983038196659756" lon="11.21674109330059"><ele>123.60000000000001</ele><time>2026-04-03T11:09:35Z</time></trkpt><trkpt lat="42.983123735155665" lon="11.216707320006511"><ele>123.80000000000001</ele><time>2026-04-03T11:09:36Z</time></trkpt><trkpt lat="42.98319592043909" lon="11.216608955218868"><ele>124.0</ele><time>2026-04-03T11:09:37Z</time></trkpt><trkpt lat="42.98328181622961" lon="11.216544598883903"><ele>123.6</ele><time>2026-04-03T11:09:38Z</time></trkpt><trkpt lat="42.98337282550476" lon="11.216474071371952"><ele>123.2</ele><time>2026-04-03T11:09:39Z</time></trkpt><trkpt lat="42.98345815487645" lon="11.21640140390389"><ele>122.79999999999998</ele><time>2026-04-03T11:09:40Z</time></trkpt><trkpt lat="42.983550536327016" lon="11.216341533498307"><ele>122.39999999999999</ele><time>2026-04-03T11:09:41Z</time></trkpt><trkpt lat="42.983630886334566" lon="11.216272522262527"><ele>122.0</ele><time>2026-04-03T11:09:42Z</time></trkpt><trkpt lat="42.98371297760331" lon="11.216208656068556"><ele>122.0</ele><time>2026-04-03T11:09:43Z</time></trkpt><trkpt lat="42.983792267418494" lon="11.21614118613551"><ele>121.99999999999999</ele><time>2026-04-03T11:09:44Z</time></trkpt><trkpt lat="42.983882469209206" lon="11.21607434548828"><ele>121.99999999999999</ele><time>2026-04-03T11:09:45Z</time></trkpt><trkpt lat="42.983957331203726" lon="11.21601638680209"><ele>122.0</ele><time>2026-04-03T11:09:46Z</time></trkpt><trkpt lat="42.984041882287535" lon="11.215949860718544"><ele>122.0</ele><time>2026-04-03T11:09:47Z</time></trkpt><trkpt lat="42.98412847405155" lon="11.215879668108755"><ele>121.66666666666666</ele><time>2026-04-03T11:09:48Z</time></trkpt><trkpt lat="42.984209672699045" lon="11.21581534822771"><ele>121.33333333333333</ele><time>2026-04-03T11:09:49Z</time></trkpt><trkpt lat="42.984302490784444" lon="11.215761530335952"><ele>121.0</ele><time>2026-04-03T11:09:50Z</time></trkpt><trkpt lat="42.984372093859065" lon="11.215686719263953"><ele>120.66666666666666</ele><time>2026-04-03T11:09:51Z</time></trkpt><trkpt lat="42.984434937149935" lon="11.215631773131971"><ele>120.33333333333333</ele><time>2026-04-03T11:09:52Z</time></trkpt><trkpt lat="42.98449637822082" lon="11.215582083147776"><ele>120.0</ele><time>2026-04-03T11:09:53Z</time></trkpt><trkpt lat="42.98457350035014" lon="11.215539028774115"><ele>120.0</ele><time>2026-04-03T11:09:54Z</time></trkpt><trkpt lat="42.984636279374236" lon="11.215470969880856"><ele>120.0</ele><time>2026-04-03T11:09:55Z</time></trkpt><trkpt lat="42.984698955447236" lon="11.215436054451825"><ele>120.0</ele><time>2026-04-03T11:09:56Z</time></trkpt><trkpt lat="42.98482656975371" lon="11.215422426451928"><ele>120.0</ele><time>2026-04-03T11:09:58Z</time></trkpt><trkpt lat="42.984908016962734" lon="11.215550684628075"><ele>120.0</ele><time>2026-04-03T11:10:00Z</time></trkpt><trkpt lat="42.98493218723536" lon="11.215666879507221"><ele>120.0</ele><time>2026-04-03T11:10:01Z</time></trkpt><trkpt lat="42.984962979216924" lon="11.215808836224943"><ele>120.0</ele><time>2026-04-03T11:10:02Z</time></trkpt><trkpt lat="42.98499975842061" lon="11.215950666541305"><ele>120.0</ele><time>2026-04-03T11:10:03Z</time></trkpt><trkpt lat="42.98503183011927" lon="11.216052404316835"><ele>120.0</ele><time>2026-04-03T11:10:04Z</time></trkpt><trkpt lat="42.985058468216586" lon="11.21614155022194"><ele>120.0</ele><time>2026-04-03T11:10:05Z</time></trkpt><trkpt lat="42.98508306275316" lon="11.216231039353689"><ele>120.0</ele><time>2026-04-03T11:10:06Z</time></trkpt><trkpt lat="42.98511112855231" lon="11.216333395360847"><ele>119.6</ele><time>2026-04-03T11:10:07Z</time></trkpt><trkpt lat="42.985152419955064" lon="11.216428851322027"><ele>119.2</ele><time>2026-04-03T11:10:08Z</time></trkpt><trkpt lat="42.985205985833595" lon="11.21650623690172"><ele>118.80000000000001</ele><time>2026-04-03T11:10:09Z</time></trkpt><trkpt lat="42.98529102964354" lon="11.216556030962877"><ele>118.4</ele><time>2026-04-03T11:10:10Z</time></trkpt><trkpt lat="42.98539513285272" lon="11.216607354628758"><ele>118.0</ele><time>2026-04-03T11:10:11Z</time></trkpt><trkpt lat="42.98548887645478" lon="11.216651451851083"><ele>118.0</ele><time>2026-04-03T11:10:12Z</time></trkpt><trkpt lat="42.9855819272905" lon="11.216705034289442"><ele>118.00000000000001</ele><time>2026-04-03T11:10:13Z</time></trkpt><trkpt lat="42.985666550105556" lon="11.216735489658719"><ele>118.00000000000001</ele><time>2026-04-03T11:10:14Z</time></trkpt><trkpt lat="42.98576571771573" lon="11.216770336243286"><ele>118.0</ele><time>2026-04-03T11:10:15Z</time></trkpt><trkpt lat="42.98586345784887" lon="11.216793938868665"><ele>118.0</ele><time>2026-04-03T11:10:16Z</time></trkpt><trkpt lat="42.98595543545467" lon="11.21681671405535"><ele>118.0</ele><time>2026-04-03T11:10:17Z</time></trkpt><trkpt lat="42.98605057040032" lon="11.216841516884607"><ele>118.00000000000001</ele><time>2026-04-03T11:10:18Z</time></trkpt><trkpt lat="42.9861490243755" lon="11.21686402737163"><ele>118.00000000000001</ele><time>2026-04-03T11:10:19Z</time></trkpt><trkpt lat="42.98624814850175" lon="11.21688002626231"><ele>118.0</ele><time>2026-04-03T11:10:20Z</time></trkpt><trkpt lat="42.98634427060698" lon="11.216883630175408"><ele>118.0</ele><time>2026-04-03T11:10:21Z</time></trkpt><trkpt lat="42.986440067267075" lon="11.216873543916083"><ele>118.0</ele><time>2026-04-03T11:10:22Z</time></trkpt><trkpt lat="42.986551763955674" lon="11.216870919208677"><ele>118.0</ele><time>2026-04-03T11:10:23Z</time></trkpt><trkpt lat="42.9866867592517" lon="11.21682364158694"><ele>118.0</ele><time>2026-04-03T11:10:24Z</time></trkpt><trkpt lat="42.98685282667852" lon="11.216781412259675"><ele>118.0</ele><time>2026-04-03T11:10:25Z</time></trkpt><trkpt lat="42.98702915282297" lon="11.21674113580651"><ele>117.66666666666667</ele><time>2026-04-03T11:10:26Z</time></trkpt><trkpt lat="42.987207390206436" lon="11.216707272891837"><ele>117.33333333333334</ele><time>2026-04-03T11:10:27Z</time></trkpt><trkpt lat="42.9874151620757" lon="11.216665189866578"><ele>117.0</ele><time>2026-04-03T11:10:28Z</time></trkpt><trkpt lat="42.98762507044343" lon="11.216626967272846"><ele>117.0</ele><time>2026-04-03T11:10:29Z</time></trkpt><trkpt lat="42.987855875561074" lon="11.216579784300713"><ele>117.0</ele><time>2026-04-03T11:10:30Z</time></trkpt><trkpt lat="42.98804919060309" lon="11.216557991568104"><ele>117.0</ele><time>2026-04-03T11:10:31Z</time></trkpt><trkpt lat="42.98821199668259" lon="11.216550092519572"><ele>117.0</ele><time>2026-04-03T11:10:32Z</time></trkpt><trkpt lat="42.988355638574305" lon="11.216543406432871"><ele>117.0</ele><time>2026-04-03T11:10:33Z</time></trkpt><trkpt lat="42.98847454061485" lon="11.216540500161084"><ele>117.0</ele><time>2026-04-03T11:10:34Z</time></trkpt><trkpt lat="42.98857396544793" lon="11.216538889239764"><ele>117.0</ele><time>2026-04-03T11:10:35Z</time></trkpt><trkpt lat="42.9886654073023" lon="11.216543984749304"><ele>117.0</ele><time>2026-04-03T11:10:36Z</time></trkpt><trkpt lat="42.988757295692345" lon="11.216533925719062"><ele>116.99999999999999</ele><time>2026-04-03T11:10:37Z</time></trkpt><trkpt lat="42.98887255948051" lon="11.216517376442827"><ele>116.99999999999999</ele><time>2026-04-03T11:10:39Z</time></trkpt><trkpt lat="42.989007419403265" lon="11.216474672277686"><ele>117.0</ele><time>2026-04-03T11:10:41Z</time></trkpt><trkpt lat="42.98907475066335" lon="11.216441799660883"><ele>117.0</ele><time>2026-04-03T11:10:42Z</time></trkpt><trkpt lat="42.98914617311411" lon="11.21640212643402"><ele>117.33333333333333</ele><time>2026-04-03T11:10:43Z</time></trkpt><trkpt lat="42.98921966903757" lon="11.216361159647704"><ele>117.66666666666666</ele><time>2026-04-03T11:10:44Z</time></trkpt><trkpt lat="42.98928464819828" lon="11.216323610479247"><ele>118.0</ele><time>2026-04-03T11:10:45Z</time></trkpt><trkpt lat="42.989393796178724" lon="11.216283598695332"><ele>118.33333333333333</ele><time>2026-04-03T11:10:47Z</time></trkpt><trkpt lat="42.98948678406142" lon="11.216267900472786"><ele>118.66666666666666</ele><time>2026-04-03T11:10:49Z</time></trkpt><trkpt lat="42.989556077257696" lon="11.216268197900387"><ele>119.0</ele><time>2026-04-03T11:10:51Z</time></trkpt><trkpt lat="42.98961495909005" lon="11.216130740758532"><ele>118.99999999999999</ele><time>2026-04-03T11:11:00Z</time></trkpt><trkpt lat="42.98966227633249" lon="11.216012521433402"><ele>119.0</ele><time>2026-04-03T11:11:02Z</time></trkpt><trkpt lat="42.989696457137974" lon="11.215934503824304"><ele>119.0</ele><time>2026-04-03T11:11:03Z</time></trkpt><trkpt lat="42.989739092056276" lon="11.215860097960734"><ele>119.0</ele><time>2026-04-03T11:11:04Z</time></trkpt><trkpt lat="42.989788309656056" lon="11.21577050288946"><ele>118.99999999999999</ele><time>2026-04-03T11:11:05Z</time></trkpt><trkpt lat="42.98984577441058" lon="11.215648606170255"><ele>119.0</ele><time>2026-04-03T11:11:06Z</time></trkpt><trkpt lat="42.98989766630442" lon="11.215544169644115"><ele>119.0</ele><time>2026-04-03T11:11:07Z</time></trkpt><trkpt lat="42.989945385036556" lon="11.215442981860413"><ele>119.0</ele><time>2026-04-03T11:11:08Z</time></trkpt><trkpt lat="42.989997525653735" lon="11.215342779504798"><ele>119.0</ele><time>2026-04-03T11:11:09Z</time></trkpt><trkpt lat="42.990056576838285" lon="11.215230584360633"><ele>119.0</ele><time>2026-04-03T11:11:10Z</time></trkpt><trkpt lat="42.99011446396479" lon="11.215113506552717"><ele>119.0</ele><time>2026-04-03T11:11:11Z</time></trkpt><trkpt lat="42.99017336860628" lon="11.214981613246481"><ele>119.0</ele><time>2026-04-03T11:11:12Z</time></trkpt><trkpt lat="42.99023295776396" lon="11.214865319723788"><ele>119.0</ele><time>2026-04-03T11:11:13Z</time></trkpt><trkpt lat="42.990291606885485" lon="11.214743967954865"><ele>119.0</ele><time>2026-04-03T11:11:14Z</time></trkpt><trkpt lat="42.99035093300345" lon="11.214623525558464"><ele>119.0</ele><time>2026-04-03T11:11:15Z</time></trkpt><trkpt lat="42.990405759666366" lon="11.214500940154"><ele>119.0</ele><time>2026-04-03T11:11:16Z</time></trkpt><trkpt lat="42.99046425128076" lon="11.214391624994827"><ele>119.49999999999999</ele><time>2026-04-03T11:11:17Z</time></trkpt><trkpt lat="42.99051241955299" lon="11.214286569326593"><ele>120.0</ele><time>2026-04-03T11:11:18Z</time></trkpt><trkpt lat="42.99055565129087" lon="11.214201836765735"><ele>120.5</ele><time>2026-04-03T11:11:19Z</time></trkpt><trkpt lat="42.99060131063635" lon="11.214114939781318"><ele>121.0</ele><time>2026-04-03T11:11:20Z</time></trkpt><trkpt lat="42.990651953722974" lon="11.21400777596723"><ele>121.49999999999999</ele><time>2026-04-03T11:11:21Z</time></trkpt><trkpt lat="42.99069997241816" lon="11.213908398574251"><ele>122.0</ele><time>2026-04-03T11:11:22Z</time></trkpt><trkpt lat="42.99075028123932" lon="11.21380507780482"><ele>122.33333333333333</ele><time>2026-04-03T11:11:23Z</time></trkpt><trkpt lat="42.99080096434789" lon="11.21370098246114"><ele>122.66666666666666</ele><time>2026-04-03T11:11:24Z</time></trkpt><trkpt lat="42.99085189666282" lon="11.213597577773845"><ele>123.0</ele><time>2026-04-03T11:11:25Z</time></trkpt><trkpt lat="42.99090492149107" lon="11.213513020686342"><ele>123.33333333333334</ele><time>2026-04-03T11:11:26Z</time></trkpt><trkpt lat="42.99096269458239" lon="11.21340952065526"><ele>123.66666666666667</ele><time>2026-04-03T11:11:27Z</time></trkpt><trkpt lat="42.99101269307632" lon="11.213314231672097"><ele>124.0</ele><time>2026-04-03T11:11:28Z</time></trkpt><trkpt lat="42.99106029812322" lon="11.213224313193113"><ele>124.16666666666667</ele><time>2026-04-03T11:11:29Z</time></trkpt><trkpt lat="42.99109754336244" lon="11.213117558300686"><ele>124.33333333333334</ele><time>2026-04-03T11:11:30Z</time></trkpt><trkpt lat="42.99112720714891" lon="11.213015933206561"><ele>124.5</ele><time>2026-04-03T11:11:31Z</time></trkpt><trkpt lat="42.99115762827228" lon="11.21288392929141"><ele>124.66666666666666</ele><time>2026-04-03T11:11:32Z</time></trkpt><trkpt lat="42.991162462101926" lon="11.21276501518156"><ele>124.83333333333333</ele><time>2026-04-03T11:11:33Z</time></trkpt><trkpt lat="42.991175248914345" lon="11.212639763543626"><ele>125.0</ele><time>2026-04-03T11:11:34Z</time></trkpt><trkpt lat="42.991176683204614" lon="11.212521129313455"><ele>124.99999999999999</ele><time>2026-04-03T11:11:35Z</time></trkpt><trkpt lat="42.99117154489425" lon="11.212395261911285"><ele>125.0</ele><time>2026-04-03T11:11:36Z</time></trkpt><trkpt lat="42.99115626765209" lon="11.21227605375844"><ele>125.0</ele><time>2026-04-03T11:11:37.001Z</time></trkpt><trkpt lat="42.99112868094671" lon="11.21216013120334"><ele>125.0</ele><time>2026-04-03T11:11:38.001Z</time></trkpt><trkpt lat="42.991105387745684" lon="11.212066055111071"><ele>124.99999999999999</ele><time>2026-04-03T11:11:39.001Z</time></trkpt><trkpt lat="42.99108446733608" lon="11.211982609474632"><ele>125.0</ele><time>2026-04-03T11:11:40.001Z</time></trkpt><trkpt lat="42.99105551281215" lon="11.21185759732468"><ele>125.16666666666666</ele><time>2026-04-03T11:11:42.001Z</time></trkpt><trkpt lat="42.9910315087323" lon="11.211738552663416"><ele>125.33333333333333</ele><time>2026-04-03T11:11:44.001Z</time></trkpt><trkpt lat="42.991009673647355" lon="11.211634372795322"><ele>125.5</ele><time>2026-04-03T11:11:46.001Z</time></trkpt><trkpt lat="42.991009227079495" lon="11.21153357298882"><ele>125.66666666666666</ele><time>2026-04-03T11:11:48.001Z</time></trkpt><trkpt lat="42.99100870058313" lon="11.211435983393105"><ele>125.83333333333333</ele><time>2026-04-03T11:11:50Z</time></trkpt><trkpt lat="42.991013674117205" lon="11.211331683020413"><ele>126.0</ele><time>2026-04-03T11:11:52Z</time></trkpt><trkpt lat="42.99101123516637" lon="11.211182932497582"><ele>126.4</ele><time>2026-04-03T11:11:54Z</time></trkpt><trkpt lat="42.99103160961625" lon="11.211039241586153"><ele>126.8</ele><time>2026-04-03T11:11:56Z</time></trkpt><trkpt lat="42.99104692404106" lon="11.210882029687804"><ele>127.20000000000002</ele><time>2026-04-03T11:11:58Z</time></trkpt><trkpt lat="42.99105852640019" lon="11.210725543110073"><ele>127.60000000000001</ele><time>2026-04-03T11:12:00Z</time></trkpt><trkpt lat="42.99108922058461" lon="11.210582647010604"><ele>128.0</ele><time>2026-04-03T11:12:02Z</time></trkpt><trkpt lat="42.991148433737145" lon="11.21043395850323"><ele>128.66666666666666</ele><time>2026-04-03T11:12:04Z</time></trkpt><trkpt lat="42.99120365630103" lon="11.210375909084085"><ele>129.33333333333331</ele><time>2026-04-03T11:12:05Z</time></trkpt><trkpt lat="42.99125755470337" lon="11.21030456172624"><ele>130.0</ele><time>2026-04-03T11:12:06Z</time></trkpt><trkpt lat="42.991304679195615" lon="11.210225040142523"><ele>130.66666666666666</ele><time>2026-04-03T11:12:07Z</time></trkpt><trkpt lat="42.991353972109174" lon="11.210157707057082"><ele>131.33333333333334</ele><time>2026-04-03T11:12:08Z</time></trkpt><trkpt lat="42.991415901197186" lon="11.210051845240308"><ele>132.0</ele><time>2026-04-03T11:12:09Z</time></trkpt><trkpt lat="42.99147345517228" lon="11.209964799550956"><ele>132.0</ele><time>2026-04-03T11:12:10Z</time></trkpt><trkpt lat="42.991537712428794" lon="11.209875312237992"><ele>132.0</ele><time>2026-04-03T11:12:11Z</time></trkpt><trkpt lat="42.99161180469557" lon="11.209770767295074"><ele>132.0</ele><time>2026-04-03T11:12:12Z</time></trkpt><trkpt lat="42.99167444004737" lon="11.20966870362065"><ele>132.0</ele><time>2026-04-03T11:12:13Z</time></trkpt><trkpt lat="42.991738017713054" lon="11.209569157619274"><ele>132.0</ele><time>2026-04-03T11:12:14Z</time></trkpt><trkpt lat="42.991795970453495" lon="11.209474510725775"><ele>131.83333333333334</ele><time>2026-04-03T11:12:15Z</time></trkpt><trkpt lat="42.991850219955204" lon="11.209381169542736"><ele>131.66666666666666</ele><time>2026-04-03T11:12:16Z</time></trkpt><trkpt lat="42.99190141782549" lon="11.20931529651721"><ele>131.5</ele><time>2026-04-03T11:12:17Z</time></trkpt><trkpt lat="42.99194952121402" lon="11.209243164765152"><ele>131.33333333333331</ele><time>2026-04-03T11:12:18Z</time></trkpt><trkpt lat="42.99200097618506" lon="11.2091596121864"><ele>131.16666666666666</ele><time>2026-04-03T11:12:19Z</time></trkpt><trkpt lat="42.99204355805943" lon="11.209064853160264"><ele>131.0</ele><time>2026-04-03T11:12:20Z</time></trkpt><trkpt lat="42.992041235120176" lon="11.20887970940822"><ele>131.5</ele><time>2026-04-03T11:12:22Z</time></trkpt><trkpt lat="42.99195514001545" lon="11.208773287564254"><ele>132.0</ele><time>2026-04-03T11:12:23Z</time></trkpt><trkpt lat="42.99184554972988" lon="11.20865824468524"><ele>132.5</ele><time>2026-04-03T11:12:24Z</time></trkpt><trkpt lat="42.99171939175791" lon="11.2085267053549"><ele>133.0</ele><time>2026-04-03T11:12:25Z</time></trkpt><trkpt lat="42.99156358319703" lon="11.208361346176813"><ele>134.5</ele><time>2026-04-03T11:12:26Z</time></trkpt><trkpt lat="42.99137853384408" lon="11.20816495380688"><ele>136.0</ele><time>2026-04-03T11:12:27Z</time></trkpt><trkpt lat="42.99118467952554" lon="11.207955999560838"><ele>136.0</ele><time>2026-04-03T11:12:28Z</time></trkpt><trkpt lat="42.99097137897735" lon="11.207723893097308"><ele>136.0</ele><time>2026-04-03T11:12:29Z</time></trkpt><trkpt lat="42.99075991441927" lon="11.207492483085224"><ele>137.5</ele><time>2026-04-03T11:12:30Z</time></trkpt><trkpt lat="42.99053076589316" lon="11.20724512634456"><ele>139.0</ele><time>2026-04-03T11:12:31Z</time></trkpt><trkpt lat="42.99035609013321" lon="11.207058051546916"><ele>139.0</ele><time>2026-04-03T11:12:32Z</time></trkpt><trkpt lat="42.99019789373163" lon="11.206886686001937"><ele>139.0</ele><time>2026-04-03T11:12:33Z</time></trkpt><trkpt lat="42.99009984225486" lon="11.20677864044678"><ele>139.0</ele><time>2026-04-03T11:12:34Z</time></trkpt><trkpt lat="42.990002760642795" lon="11.20667331563395"><ele>138.75</ele><time>2026-04-03T11:12:35Z</time></trkpt><trkpt lat="42.9899079997901" lon="11.206577411563815"><ele>138.5</ele><time>2026-04-03T11:12:36Z</time></trkpt><trkpt lat="42.98982211163851" lon="11.206490193553877"><ele>138.25</ele><time>2026-04-03T11:12:37Z</time></trkpt><trkpt lat="42.98973303154639" lon="11.206398397924032"><ele>138.0</ele><time>2026-04-03T11:12:38Z</time></trkpt><trkpt lat="42.989637713460304" lon="11.206297977782315"><ele>138.4</ele><time>2026-04-03T11:12:39Z</time></trkpt><trkpt lat="42.98954578076582" lon="11.206198175368181"><ele>138.8</ele><time>2026-04-03T11:12:40Z</time></trkpt><trkpt lat="42.9894618463374" lon="11.20611484573982"><ele>139.2</ele><time>2026-04-03T11:12:41Z</time></trkpt><trkpt lat="42.98938423084815" lon="11.206075013220877"><ele>139.6</ele><time>2026-04-03T11:12:42Z</time></trkpt><trkpt lat="42.98928969784464" lon="11.206030247712551"><ele>140.0</ele><time>2026-04-03T11:12:44Z</time></trkpt><trkpt lat="42.989225723459924" lon="11.206034269272832"><ele>141.0</ele><time>2026-04-03T11:12:47Z</time></trkpt><trkpt lat="42.98915601876836" lon="11.20606585785628"><ele>142.0</ele><time>2026-04-03T11:13:41Z</time></trkpt><trkpt lat="42.989069113985884" lon="11.206115923623532"><ele>143.0</ele><time>2026-04-03T11:13:43Z</time></trkpt><trkpt lat="42.98896488747855" lon="11.206155973826469"><ele>144.0</ele><time>2026-04-03T11:13:45Z</time></trkpt><trkpt lat="42.98890020600517" lon="11.2061770763295"><ele>145.0</ele><time>2026-04-03T11:13:46Z</time></trkpt><trkpt lat="42.98883788173795" lon="11.206194722437669"><ele>146.0</ele><time>2026-04-03T11:13:47Z</time></trkpt><trkpt lat="42.98872116591375" lon="11.206219689413219"><ele>146.0</ele><time>2026-04-03T11:13:49Z</time></trkpt><trkpt lat="42.98861066209469" lon="11.206239780781653"><ele>146.0</ele><time>2026-04-03T11:13:50Z</time></trkpt><trkpt lat="42.98851563152669" lon="11.206276457428165"><ele>146.0</ele><time>2026-04-03T11:13:51Z</time></trkpt><trkpt lat="42.98843010681805" lon="11.20626837484631"><ele>146.0</ele><time>2026-04-03T11:13:52Z</time></trkpt><trkpt lat="42.9883441290246" lon="11.20628243120713"><ele>146.0</ele><time>2026-04-03T11:13:53Z</time></trkpt><trkpt lat="42.98825285387762" lon="11.20630022632944"><ele>146.5</ele><time>2026-04-03T11:13:54Z</time></trkpt><trkpt lat="42.988155686526696" lon="11.206324499735667"><ele>147.0</ele><time>2026-04-03T11:13:55Z</time></trkpt><trkpt lat="42.988066345956774" lon="11.206356561005258"><ele>147.5</ele><time>2026-04-03T11:13:56Z</time></trkpt><trkpt lat="42.98799848112216" lon="11.206388547490526"><ele>148.0</ele><time>2026-04-03T11:13:57Z</time></trkpt><trkpt lat="42.98793399837392" lon="11.206425854453634"><ele>148.5</ele><time>2026-04-03T11:13:58Z</time></trkpt><trkpt lat="42.987868932163515" lon="11.206463312116032"><ele>149.0</ele><time>2026-04-03T11:13:59Z</time></trkpt><trkpt lat="42.98776736404186" lon="11.206519529895512"><ele>147.4</ele><time>2026-04-03T11:14:01Z</time></trkpt><trkpt lat="42.98766498176669" lon="11.206563501517918"><ele>145.8</ele><time>2026-04-03T11:14:03Z</time></trkpt><trkpt lat="42.9875780672779" lon="11.20660610347579"><ele>144.2</ele><time>2026-04-03T11:14:05Z</time></trkpt><trkpt lat="42.98748001480017" lon="11.206628272043757"><ele>142.6</ele><time>2026-04-03T11:14:07Z</time></trkpt><trkpt lat="42.98736926788335" lon="11.206667234509338"><ele>141.0</ele><time>2026-04-03T11:14:09Z</time></trkpt><trkpt lat="42.98725318180341" lon="11.206710877742578"><ele>140.8</ele><time>2026-04-03T11:14:11Z</time></trkpt><trkpt lat="42.98713902179385" lon="11.206754981296022"><ele>140.6</ele><time>2026-04-03T11:14:13Z</time></trkpt><trkpt lat="42.98702343751934" lon="11.20681070292549"><ele>140.4</ele><time>2026-04-03T11:14:15Z</time></trkpt><trkpt lat="42.98695839222713" lon="11.206847334385282"><ele>140.2</ele><time>2026-04-03T11:14:16Z</time></trkpt><trkpt lat="42.98688690836924" lon="11.20689260848046"><ele>140.0</ele><time>2026-04-03T11:14:17Z</time></trkpt><trkpt lat="42.98682030498463" lon="11.206938181136163"><ele>140.0</ele><time>2026-04-03T11:14:18Z</time></trkpt><trkpt lat="42.986754957268296" lon="11.206984221567494"><ele>140.0</ele><time>2026-04-03T11:14:19Z</time></trkpt><trkpt lat="42.98668176847365" lon="11.20703911682598"><ele>140.0</ele><time>2026-04-03T11:14:20Z</time></trkpt><trkpt lat="42.98661322668176" lon="11.20709924044003"><ele>140.0</ele><time>2026-04-03T11:14:21Z</time></trkpt><trkpt lat="42.98654804684739" lon="11.207158115303699"><ele>140.0</ele><time>2026-04-03T11:14:22Z</time></trkpt><trkpt lat="42.986490020452976" lon="11.20721052867806"><ele>140.0</ele><time>2026-04-03T11:14:23Z</time></trkpt><trkpt lat="42.98642896777927" lon="11.207261981523214"><ele>138.66666666666666</ele><time>2026-04-03T11:14:24Z</time></trkpt><trkpt lat="42.986365665991826" lon="11.20730932005697"><ele>137.33333333333331</ele><time>2026-04-03T11:14:25Z</time></trkpt><trkpt lat="42.98629974414487" lon="11.207357026554403"><ele>136.0</ele><time>2026-04-03T11:14:26Z</time></trkpt><trkpt lat="42.98624097328203" lon="11.207391645699092"><ele>134.66666666666666</ele><time>2026-04-03T11:14:27Z</time></trkpt><trkpt lat="42.986177371142006" lon="11.207416007558301"><ele>133.33333333333334</ele><time>2026-04-03T11:14:28Z</time></trkpt><trkpt lat="42.986110454558776" lon="11.207406666979297"><ele>132.0</ele><time>2026-04-03T11:14:29Z</time></trkpt><trkpt lat="42.985986141620586" lon="11.20732852596278"><ele>132.0</ele><time>2026-04-03T11:14:31Z</time></trkpt><trkpt lat="42.98593720100973" lon="11.207257475967168"><ele>132.0</ele><time>2026-04-03T11:14:32Z</time></trkpt><trkpt lat="42.985897455642956" lon="11.207153758572616"><ele>132.0</ele><time>2026-04-03T11:14:33Z</time></trkpt><trkpt lat="42.985837124258936" lon="11.20704577871969"><ele>132.0</ele><time>2026-04-03T11:14:34Z</time></trkpt><trkpt lat="42.9857788208903" lon="11.206945326123886"><ele>132.0</ele><time>2026-04-03T11:14:35Z</time></trkpt><trkpt lat="42.985720520000626" lon="11.206844877768976"><ele>132.0</ele><time>2026-04-03T11:14:36Z</time></trkpt><trkpt lat="42.9856668714251" lon="11.206752445058534"><ele>132.0</ele><time>2026-04-03T11:14:37Z</time></trkpt><trkpt lat="42.985609937022375" lon="11.206656992316539"><ele>132.0</ele><time>2026-04-03T11:14:38Z</time></trkpt><trkpt lat="42.98555899811839" lon="11.20657152178456"><ele>132.0</ele><time>2026-04-03T11:14:39Z</time></trkpt><trkpt lat="42.98549534917172" lon="11.2064668810702"><ele>132.0</ele><time>2026-04-03T11:14:40Z</time></trkpt><trkpt lat="42.98542823944189" lon="11.20635793171225"><ele>132.0</ele><time>2026-04-03T11:14:41Z</time></trkpt><trkpt lat="42.985355411503534" lon="11.206242211625645"><ele>132.0</ele><time>2026-04-03T11:14:42Z</time></trkpt><trkpt lat="42.98528601823754" lon="11.206127582844289"><ele>132.0</ele><time>2026-04-03T11:14:43Z</time></trkpt><trkpt lat="42.98522476264736" lon="11.20602256903924"><ele>132.0</ele><time>2026-04-03T11:14:44Z</time></trkpt><trkpt lat="42.98516220962967" lon="11.205927526933946"><ele>132.0</ele><time>2026-04-03T11:14:45Z</time></trkpt><trkpt lat="42.9851076850141" lon="11.205861991908252"><ele>132.0</ele><time>2026-04-03T11:14:46Z</time></trkpt><trkpt lat="42.98503961695242" lon="11.205848034465411"><ele>132.0</ele><time>2026-04-03T11:14:47Z</time></trkpt><trkpt lat="42.9849507572193" lon="11.205892457607554"><ele>132.6</ele><time>2026-04-03T11:14:48Z</time></trkpt><trkpt lat="42.98488745948774" lon="11.206072046516052"><ele>133.2</ele><time>2026-04-03T11:14:49Z</time></trkpt><trkpt lat="42.984799168500444" lon="11.206195067673859"><ele>133.8</ele><time>2026-04-03T11:14:50Z</time></trkpt><trkpt lat="42.98476059047734" lon="11.206263596991818"><ele>134.4</ele><time>2026-04-03T11:14:51Z</time></trkpt><trkpt lat="42.9847247414453" lon="11.206335782709564"><ele>135.0</ele><time>2026-04-03T11:14:52Z</time></trkpt><trkpt lat="42.98470277114342" lon="11.206425422102972"><ele>135.0</ele><time>2026-04-03T11:14:53Z</time></trkpt><trkpt lat="42.98461105007395" lon="11.206350735290291"><ele>135.0</ele><time>2026-04-03T11:14:55Z</time></trkpt><trkpt lat="42.98450257760849" lon="11.206296411698576"><ele>135.0</ele><time>2026-04-03T11:14:56Z</time></trkpt><trkpt lat="42.984373155298485" lon="11.206211548293044"><ele>135.0</ele><time>2026-04-03T11:14:57Z</time></trkpt><trkpt lat="42.98422986718481" lon="11.206122308947807"><ele>135.25</ele><time>2026-04-03T11:14:58Z</time></trkpt><trkpt lat="42.98409589116074" lon="11.206049803218262"><ele>135.5</ele><time>2026-04-03T11:14:59Z</time></trkpt><trkpt lat="42.9839779649328" lon="11.205987486142394"><ele>135.75</ele><time>2026-04-03T11:15:00Z</time></trkpt><trkpt lat="42.98387823178409" lon="11.205934832211263"><ele>136.0</ele><time>2026-04-03T11:15:01Z</time></trkpt><trkpt lat="42.98378603774016" lon="11.205886158531403"><ele>136.0</ele><time>2026-04-03T11:15:02Z</time></trkpt><trkpt lat="42.983693334438314" lon="11.205837215991902"><ele>136.0</ele><time>2026-04-03T11:15:03Z</time></trkpt><trkpt lat="42.98360537775821" lon="11.205790779421498"><ele>136.0</ele><time>2026-04-03T11:15:04Z</time></trkpt><trkpt lat="42.98351432537708" lon="11.205742708482784"><ele>136.0</ele><time>2026-04-03T11:15:05Z</time></trkpt><trkpt lat="42.98342001555429" lon="11.205695546749109"><ele>136.0</ele><time>2026-04-03T11:15:06Z</time></trkpt><trkpt lat="42.983325959621105" lon="11.205675644194004"><ele>136.5</ele><time>2026-04-03T11:15:07Z</time></trkpt><trkpt lat="42.98324563471913" lon="11.205634400602937"><ele>137.0</ele><time>2026-04-03T11:15:08Z</time></trkpt><trkpt lat="42.983183776333995" lon="11.205558650040782"><ele>137.5</ele><time>2026-04-03T11:15:09Z</time></trkpt><trkpt lat="42.98313396732246" lon="11.20548198581805"><ele>138.0</ele><time>2026-04-03T11:15:10Z</time></trkpt><trkpt lat="42.98309852511302" lon="11.205385472909128"><ele>138.5</ele><time>2026-04-03T11:15:11Z</time></trkpt><trkpt lat="42.983058030094824" lon="11.205290570403543"><ele>139.0</ele><time>2026-04-03T11:15:12Z</time></trkpt><trkpt lat="42.983020138257835" lon="11.205207485255734"><ele>139.0</ele><time>2026-04-03T11:15:13Z</time></trkpt><trkpt lat="42.98297614535104" lon="11.205111022346294"><ele>139.0</ele><time>2026-04-03T11:15:14Z</time></trkpt><trkpt lat="42.98292810121952" lon="11.205005676350403"><ele>139.0</ele><time>2026-04-03T11:15:15Z</time></trkpt><trkpt lat="42.9828833908579" lon="11.204907640283533"><ele>139.0</ele><time>2026-04-03T11:15:16Z</time></trkpt><trkpt lat="42.982841097564894" lon="11.204814904101022"><ele>139.0</ele><time>2026-04-03T11:15:17Z</time></trkpt><trkpt lat="42.982798438271715" lon="11.204721365429494"><ele>139.0</ele><time>2026-04-03T11:15:18Z</time></trkpt><trkpt lat="42.98275526797413" lon="11.204633858528956"><ele>139.5</ele><time>2026-04-03T11:15:19Z</time></trkpt><trkpt lat="42.98270090414505" lon="11.204564937529176"><ele>140.0</ele><time>2026-04-03T11:15:20Z</time></trkpt><trkpt lat="42.982670549212386" lon="11.20447505858216"><ele>140.5</ele><time>2026-04-03T11:15:21Z</time></trkpt><trkpt lat="42.98265226769085" lon="11.204381373891676"><ele>141.0</ele><time>2026-04-03T11:15:23Z</time></trkpt><trkpt lat="42.98267695210641" lon="11.204270196861511"><ele>141.5</ele><time>2026-04-03T11:15:25Z</time></trkpt><trkpt lat="42.98272111976493" lon="11.204195538650369"><ele>142.0</ele><time>2026-04-03T11:15:26Z</time></trkpt><trkpt lat="42.9827666543896" lon="11.20410424559683"><ele>142.0</ele><time>2026-04-03T11:15:27Z</time></trkpt><trkpt lat="42.98281656120899" lon="11.204002692066878"><ele>142.0</ele><time>2026-04-03T11:15:28Z</time></trkpt><trkpt lat="42.98287290463426" lon="11.203894643149194"><ele>142.0</ele><time>2026-04-03T11:15:29Z</time></trkpt><trkpt lat="42.982931051864185" lon="11.203788515501191"><ele>142.0</ele><time>2026-04-03T11:15:30Z</time></trkpt><trkpt lat="42.98298705537009" lon="11.203682616656389"><ele>142.0</ele><time>2026-04-03T11:15:31Z</time></trkpt><trkpt lat="42.98304446798072" lon="11.20356540723557"><ele>142.4</ele><time>2026-04-03T11:15:32Z</time></trkpt><trkpt lat="42.98310184077721" lon="11.203455049360903"><ele>142.79999999999998</ele><time>2026-04-03T11:15:33Z</time></trkpt><trkpt lat="42.983149725055796" lon="11.203325869599356"><ele>143.2</ele><time>2026-04-03T11:15:34Z</time></trkpt><trkpt lat="42.98320885159962" lon="11.203202788728918"><ele>143.6</ele><time>2026-04-03T11:15:35Z</time></trkpt><trkpt lat="42.983274115106404" lon="11.203059189146241"><ele>144.0</ele><time>2026-04-03T11:15:36Z</time></trkpt><trkpt lat="42.98333625428308" lon="11.202921228759351"><ele>147.0</ele><time>2026-04-03T11:15:37Z</time></trkpt><trkpt lat="42.98340591590911" lon="11.202788766179594"><ele>150.0</ele><time>2026-04-03T11:15:38Z</time></trkpt><trkpt lat="42.983466001101014" lon="11.202646226543608"><ele>153.0</ele><time>2026-04-03T11:15:39Z</time></trkpt><trkpt lat="42.98352650877903" lon="11.202500921915219"><ele>156.0</ele><time>2026-04-03T11:15:40Z</time></trkpt><trkpt lat="42.983592841111125" lon="11.20236755022589"><ele>158.0</ele><time>2026-04-03T11:15:41Z</time></trkpt><trkpt lat="42.9836615844049" lon="11.202216207006423"><ele>160.0</ele><time>2026-04-03T11:15:42Z</time></trkpt><trkpt lat="42.983730168863765" lon="11.202057887243384"><ele>162.0</ele><time>2026-04-03T11:15:43Z</time></trkpt><trkpt lat="42.98380073120473" lon="11.201914599430996"><ele>164.0</ele><time>2026-04-03T11:15:44Z</time></trkpt><trkpt lat="42.983882017422694" lon="11.201758623169496"><ele>164.0</ele><time>2026-04-03T11:15:45Z</time></trkpt><trkpt lat="42.98394609081528" lon="11.20161637480468"><ele>164.0</ele><time>2026-04-03T11:15:46Z</time></trkpt><trkpt lat="42.984014641794" lon="11.201481231221663"><ele>164.0</ele><time>2026-04-03T11:15:47Z</time></trkpt><trkpt lat="42.98408104309902" lon="11.201356793921889"><ele>164.0</ele><time>2026-04-03T11:15:48Z</time></trkpt><trkpt lat="42.984131376079205" lon="11.201248416402992"><ele>164.0</ele><time>2026-04-03T11:15:49Z</time></trkpt><trkpt lat="42.98417253040751" lon="11.201148267277237"><ele>164.66666666666666</ele><time>2026-04-03T11:15:50Z</time></trkpt><trkpt lat="42.9842369218912" lon="11.201003045753875"><ele>165.33333333333331</ele><time>2026-04-03T11:15:52Z</time></trkpt><trkpt lat="42.984261791706" lon="11.200921340295386"><ele>166.0</ele><time>2026-04-03T11:15:53Z</time></trkpt><trkpt lat="42.98431219230466" lon="11.20083101171878"><ele>166.66666666666666</ele><time>2026-04-03T11:15:54Z</time></trkpt><trkpt lat="42.984347837935715" lon="11.200753823863424"><ele>167.33333333333334</ele><time>2026-04-03T11:15:55Z</time></trkpt><trkpt lat="42.98438670702347" lon="11.200673544907382"><ele>168.0</ele><time>2026-04-03T11:15:56Z</time></trkpt><trkpt lat="42.984432740704264" lon="11.20056380668474"><ele>168.4</ele><time>2026-04-03T11:15:58Z</time></trkpt><trkpt lat="42.984490547044246" lon="11.200482657991632"><ele>168.8</ele><time>2026-04-03T11:16:01Z</time></trkpt><trkpt lat="42.984558573534876" lon="11.200392072458087"><ele>169.2</ele><time>2026-04-03T11:16:06Z</time></trkpt><trkpt lat="42.98465960973877" lon="11.200300154922889"><ele>169.6</ele><time>2026-04-03T11:16:08Z</time></trkpt><trkpt lat="42.984728111304925" lon="11.200242931492124"><ele>170.0</ele><time>2026-04-03T11:16:09Z</time></trkpt><trkpt lat="42.98478866126828" lon="11.200188194161003"><ele>170.0</ele><time>2026-04-03T11:16:10Z</time></trkpt><trkpt lat="42.98485496575366" lon="11.200126616877187"><ele>170.0</ele><time>2026-04-03T11:16:11Z</time></trkpt><trkpt lat="42.984923428101304" lon="11.200059084780396"><ele>170.0</ele><time>2026-04-03T11:16:12Z</time></trkpt><trkpt lat="42.98500608549949" lon="11.199985733286027"><ele>170.0</ele><time>2026-04-03T11:16:13Z</time></trkpt><trkpt lat="42.98509098567439" lon="11.199915347785396"><ele>170.0</ele><time>2026-04-03T11:16:14Z</time></trkpt><trkpt lat="42.985170387207376" lon="11.19984678852206"><ele>171.0</ele><time>2026-04-03T11:16:15Z</time></trkpt><trkpt lat="42.985248951168685" lon="11.1997714431601"><ele>172.0</ele><time>2026-04-03T11:16:16Z</time></trkpt><trkpt lat="42.985328623545136" lon="11.19969953540061"><ele>173.0</ele><time>2026-04-03T11:16:17Z</time></trkpt><trkpt lat="42.98539993085219" lon="11.199623395256463"><ele>174.0</ele><time>2026-04-03T11:16:18Z</time></trkpt><trkpt lat="42.985474043376655" lon="11.199541617045924"><ele>175.0</ele><time>2026-04-03T11:16:19Z</time></trkpt><trkpt lat="42.98554083309768" lon="11.19945162555786"><ele>175.0</ele><time>2026-04-03T11:16:20Z</time></trkpt><trkpt lat="42.985584434242405" lon="11.199362208924272"><ele>175.0</ele><time>2026-04-03T11:16:21Z</time></trkpt><trkpt lat="42.98562503298072" lon="11.199244026154195"><ele>175.0</ele><time>2026-04-03T11:16:22Z</time></trkpt><trkpt lat="42.98565786742163" lon="11.199117737146802"><ele>175.0</ele><time>2026-04-03T11:16:23Z</time></trkpt><trkpt lat="42.98569425134484" lon="11.198994996784746"><ele>175.0</ele><time>2026-04-03T11:16:24Z</time></trkpt><trkpt lat="42.98572431386661" lon="11.198882861678998"><ele>175.6</ele><time>2026-04-03T11:16:25Z</time></trkpt><trkpt lat="42.98575550516902" lon="11.198764476794413"><ele>176.2</ele><time>2026-04-03T11:16:26Z</time></trkpt><trkpt lat="42.98578647080452" lon="11.198640245386859"><ele>176.8</ele><time>2026-04-03T11:16:27Z</time></trkpt><trkpt lat="42.98582036566407" lon="11.198528601244014"><ele>177.4</ele><time>2026-04-03T11:16:28Z</time></trkpt><trkpt lat="42.98584954068041" lon="11.19842138732354"><ele>178.0</ele><time>2026-04-03T11:16:29Z</time></trkpt><trkpt lat="42.98587981291761" lon="11.19830086005142"><ele>180.2</ele><time>2026-04-03T11:16:30Z</time></trkpt><trkpt lat="42.9859100006865" lon="11.198185110612295"><ele>182.4</ele><time>2026-04-03T11:16:31Z</time></trkpt><trkpt lat="42.985946176281495" lon="11.19806750020738"><ele>184.6</ele><time>2026-04-03T11:16:32Z</time></trkpt><trkpt lat="42.98597694956327" lon="11.197941206671544"><ele>186.79999999999998</ele><time>2026-04-03T11:16:33Z</time></trkpt><trkpt lat="42.98601254165764" lon="11.197809189196485"><ele>189.0</ele><time>2026-04-03T11:16:34Z</time></trkpt><trkpt lat="42.98605028326235" lon="11.197688317004179"><ele>190.2</ele><time>2026-04-03T11:16:35Z</time></trkpt><trkpt lat="42.986084033367895" lon="11.197556754667966"><ele>191.39999999999998</ele><time>2026-04-03T11:16:36Z</time></trkpt><trkpt lat="42.986130922719994" lon="11.197415912476176"><ele>192.6</ele><time>2026-04-03T11:16:37Z</time></trkpt><trkpt lat="42.98616668874076" lon="11.197294933185955"><ele>193.8</ele><time>2026-04-03T11:16:38Z</time></trkpt><trkpt lat="42.98620982454586" lon="11.197145369380884"><ele>195.0</ele><time>2026-04-03T11:16:39Z</time></trkpt><trkpt lat="42.98624109093025" lon="11.197005681500073"><ele>196.0</ele><time>2026-04-03T11:16:40Z</time></trkpt><trkpt lat="42.98627967915393" lon="11.19688689662492"><ele>197.0</ele><time>2026-04-03T11:16:41Z</time></trkpt><trkpt lat="42.98630880264134" lon="11.1967708703896"><ele>198.0</ele><time>2026-04-03T11:16:42Z</time></trkpt><trkpt lat="42.98633439414712" lon="11.19665737814059"><ele>199.0</ele><time>2026-04-03T11:16:43Z</time></trkpt><trkpt lat="42.98636514392623" lon="11.196544303143359"><ele>200.0</ele><time>2026-04-03T11:16:44Z</time></trkpt><trkpt lat="42.98639863584411" lon="11.196429897350484"><ele>200.33333333333334</ele><time>2026-04-03T11:16:45Z</time></trkpt><trkpt lat="42.98643135050585" lon="11.196321694442473"><ele>200.66666666666669</ele><time>2026-04-03T11:16:46Z</time></trkpt><trkpt lat="42.98645513547426" lon="11.196234485969532"><ele>201.0</ele><time>2026-04-03T11:16:47Z</time></trkpt><trkpt lat="42.98647872058901" lon="11.1961518734302"><ele>201.33333333333331</ele><time>2026-04-03T11:16:48Z</time></trkpt><trkpt lat="42.9865096328279" lon="11.196041826308432"><ele>201.66666666666666</ele><time>2026-04-03T11:16:50Z</time></trkpt><trkpt lat="42.98653900099559" lon="11.195938562160427"><ele>202.0</ele><time>2026-04-03T11:16:53Z</time></trkpt><trkpt lat="42.98656962890911" lon="11.195767235211846"><ele>203.0</ele><time>2026-04-03T11:16:55Z</time></trkpt><trkpt lat="42.986594082058474" lon="11.195656648019932"><ele>204.0</ele><time>2026-04-03T11:16:56Z</time></trkpt><trkpt lat="42.98662302926705" lon="11.19554196969103"><ele>205.0</ele><time>2026-04-03T11:16:57Z</time></trkpt><trkpt lat="42.9866543040883" lon="11.195427245883753"><ele>206.0</ele><time>2026-04-03T11:16:58Z</time></trkpt><trkpt lat="42.986679929229446" lon="11.195306764473782"><ele>207.0</ele><time>2026-04-03T11:16:59Z</time></trkpt><trkpt lat="42.98670983371476" lon="11.195182361623425"><ele>206.39999999999998</ele><time>2026-04-03T11:17:00Z</time></trkpt><trkpt lat="42.98673879327348" lon="11.19506278230338"><ele>205.79999999999998</ele><time>2026-04-03T11:17:01Z</time></trkpt><trkpt lat="42.98677245731012" lon="11.194942315180617"><ele>205.2</ele><time>2026-04-03T11:17:02Z</time></trkpt><trkpt lat="42.98680449837395" lon="11.194822431251248"><ele>204.6</ele><time>2026-04-03T11:17:03Z</time></trkpt><trkpt lat="42.986835916026195" lon="11.19470365062652"><ele>204.0</ele><time>2026-04-03T11:17:04Z</time></trkpt><trkpt lat="42.986871315093346" lon="11.194576454836891"><ele>204.0</ele><time>2026-04-03T11:17:05Z</time></trkpt><trkpt lat="42.98690753225165" lon="11.194443243815574"><ele>204.0</ele><time>2026-04-03T11:17:06Z</time></trkpt><trkpt lat="42.98693673911018" lon="11.194317259471859"><ele>204.0</ele><time>2026-04-03T11:17:07Z</time></trkpt><trkpt lat="42.986968531696675" lon="11.194194436476613"><ele>204.0</ele><time>2026-04-03T11:17:08Z</time></trkpt><trkpt lat="42.98699773524591" lon="11.194071720834566"><ele>204.0</ele><time>2026-04-03T11:17:09Z</time></trkpt><trkpt lat="42.987025395132264" lon="11.193966393097762"><ele>205.6</ele><time>2026-04-03T11:17:10Z</time></trkpt><trkpt lat="42.98705350515997" lon="11.193862382594862"><ele>207.2</ele><time>2026-04-03T11:17:11Z</time></trkpt><trkpt lat="42.98707806398827" lon="11.193777162689171"><ele>208.79999999999998</ele><time>2026-04-03T11:17:12Z</time></trkpt><trkpt lat="42.987129404200665" lon="11.193634762201393"><ele>210.39999999999998</ele><time>2026-04-03T11:17:14Z</time></trkpt><trkpt lat="42.987184927423804" lon="11.193490782576584"><ele>212.0</ele><time>2026-04-03T11:17:16Z</time></trkpt><trkpt lat="42.987218505071304" lon="11.193407769467886"><ele>212.00000000000003</ele><time>2026-04-03T11:17:17Z</time></trkpt><trkpt lat="42.9872642396528" lon="11.193314182702188"><ele>212.0</ele><time>2026-04-03T11:17:18Z</time></trkpt><trkpt lat="42.98730681037033" lon="11.193224631048718"><ele>212.0</ele><time>2026-04-03T11:17:19Z</time></trkpt><trkpt lat="42.987346165618966" lon="11.193129765587017"><ele>212.0</ele><time>2026-04-03T11:17:20Z</time></trkpt><trkpt lat="42.98738765622726" lon="11.193032878940043"><ele>212.00000000000003</ele><time>2026-04-03T11:17:21Z</time></trkpt><trkpt lat="42.98742847333597" lon="11.19294363390494"><ele>212.0</ele><time>2026-04-03T11:17:22Z</time></trkpt><trkpt lat="42.987467191695934" lon="11.192856598093115"><ele>212.8</ele><time>2026-04-03T11:17:23Z</time></trkpt><trkpt lat="42.98751752717487" lon="11.192758076616023"><ele>213.6</ele><time>2026-04-03T11:17:24Z</time></trkpt><trkpt lat="42.987566639599194" lon="11.192649277639198"><ele>214.40000000000003</ele><time>2026-04-03T11:17:25Z</time></trkpt><trkpt lat="42.98761567703821" lon="11.192542062818177"><ele>215.20000000000002</ele><time>2026-04-03T11:17:26Z</time></trkpt><trkpt lat="42.98766767357075" lon="11.192441485039518"><ele>216.0</ele><time>2026-04-03T11:17:27Z</time></trkpt><trkpt lat="42.98772129795825" lon="11.192333711354301"><ele>217.5</ele><time>2026-04-03T11:17:28Z</time></trkpt><trkpt lat="42.98776223586127" lon="11.192226856476704"><ele>219.0</ele><time>2026-04-03T11:17:29Z</time></trkpt><trkpt lat="42.987814821301946" lon="11.192114029787335"><ele>220.5</ele><time>2026-04-03T11:17:30Z</time></trkpt><trkpt lat="42.98786163830968" lon="11.192012184679704"><ele>222.0</ele><time>2026-04-03T11:17:31Z</time></trkpt><trkpt lat="42.987907988237836" lon="11.191921933715848"><ele>223.5</ele><time>2026-04-03T11:17:32Z</time></trkpt><trkpt lat="42.98795038431454" lon="11.191845541463378"><ele>225.0</ele><time>2026-04-03T11:17:33Z</time></trkpt><trkpt lat="42.98804956875136" lon="11.191713011504364"><ele>225.00000000000003</ele><time>2026-04-03T11:17:35Z</time></trkpt><trkpt lat="42.98810680988218" lon="11.191660096527519"><ele>225.0</ele><time>2026-04-03T11:17:36Z</time></trkpt><trkpt lat="42.98816528355434" lon="11.191610472165117"><ele>225.00000000000003</ele><time>2026-04-03T11:17:37Z</time></trkpt><trkpt lat="42.98822787179527" lon="11.191563947966262"><ele>225.00000000000003</ele><time>2026-04-03T11:17:38Z</time></trkpt><trkpt lat="42.98829045190751" lon="11.191519139147083"><ele>225.0</ele><time>2026-04-03T11:17:39Z</time></trkpt><trkpt lat="42.98834986255759" lon="11.191462159662937"><ele>225.00000000000003</ele><time>2026-04-03T11:17:40Z</time></trkpt><trkpt lat="42.988415559343494" lon="11.191398855802648"><ele>225.00000000000003</ele><time>2026-04-03T11:17:41Z</time></trkpt><trkpt lat="42.988485474363934" lon="11.191337033221693"><ele>228.2</ele><time>2026-04-03T11:17:42Z</time></trkpt><trkpt lat="42.98856155171066" lon="11.191272105626751"><ele>231.4</ele><time>2026-04-03T11:17:43Z</time></trkpt><trkpt lat="42.98864385591184" lon="11.191204010417836"><ele>234.60000000000002</ele><time>2026-04-03T11:17:44Z</time></trkpt><trkpt lat="42.98872577414048" lon="11.191127388836575"><ele>237.8</ele><time>2026-04-03T11:17:45Z</time></trkpt><trkpt lat="42.988809435834476" lon="11.19105045550933"><ele>241.0</ele><time>2026-04-03T11:17:46Z</time></trkpt><trkpt lat="42.98889568112756" lon="11.190975858587597"><ele>240.99999999999997</ele><time>2026-04-03T11:17:47Z</time></trkpt><trkpt lat="42.98898563144259" lon="11.190906944238113"><ele>241.0</ele><time>2026-04-03T11:17:48Z</time></trkpt><trkpt lat="42.98905585811427" lon="11.190838952432141"><ele>241.0</ele><time>2026-04-03T11:17:49Z</time></trkpt><trkpt lat="42.989116071529615" lon="11.190778710310896"><ele>241.0</ele><time>2026-04-03T11:17:50Z</time></trkpt><trkpt lat="42.9891824373388" lon="11.190716678174155"><ele>240.99999999999997</ele><time>2026-04-03T11:17:51Z</time></trkpt><trkpt lat="42.98927155384819" lon="11.190642478113958"><ele>241.0</ele><time>2026-04-03T11:17:52Z</time></trkpt><trkpt lat="42.989354799199816" lon="11.190562796456154"><ele>244.83333333333331</ele><time>2026-04-03T11:17:53Z</time></trkpt><trkpt lat="42.98943676957782" lon="11.190477254774354"><ele>248.66666666666666</ele><time>2026-04-03T11:17:54Z</time></trkpt><trkpt lat="42.989501624471835" lon="11.190408752459449"><ele>252.5</ele><time>2026-04-03T11:17:55Z</time></trkpt><trkpt lat="42.9895663625813" lon="11.190339529083406"><ele>256.3333333333333</ele><time>2026-04-03T11:17:56Z</time></trkpt><trkpt lat="42.98961795189877" lon="11.190257506029798"><ele>260.1666666666667</ele><time>2026-04-03T11:17:57Z</time></trkpt><trkpt lat="42.98967036641012" lon="11.190147521629477"><ele>264.0</ele><time>2026-04-03T11:17:58Z</time></trkpt><trkpt lat="42.989724790013334" lon="11.190030713272174"><ele>264.0</ele><time>2026-04-03T11:17:59Z</time></trkpt><trkpt lat="42.98979024455129" lon="11.189922371025048"><ele>264.0</ele><time>2026-04-03T11:18:00Z</time></trkpt><trkpt lat="42.989858246251885" lon="11.189823767267146"><ele>264.0</ele><time>2026-04-03T11:18:01Z</time></trkpt><trkpt lat="42.989925239366144" lon="11.189742751105442"><ele>264.0</ele><time>2026-04-03T11:18:02Z</time></trkpt><trkpt lat="42.989980864839545" lon="11.189649921108215"><ele>264.0</ele><time>2026-04-03T11:18:03Z</time></trkpt><trkpt lat="42.99005310953016" lon="11.189606325366382"><ele>266.6666666666667</ele><time>2026-04-03T11:18:04Z</time></trkpt><trkpt lat="42.990122360024685" lon="11.189538103423313"><ele>269.3333333333333</ele><time>2026-04-03T11:18:05Z</time></trkpt><trkpt lat="42.99018838449881" lon="11.189459371314172"><ele>272.0</ele><time>2026-04-03T11:18:06Z</time></trkpt><trkpt lat="42.990237349528236" lon="11.189387756056549"><ele>274.66666666666663</ele><time>2026-04-03T11:18:07Z</time></trkpt><trkpt lat="42.99026578134974" lon="11.189306230929875"><ele>277.3333333333333</ele><time>2026-04-03T11:18:08Z</time></trkpt><trkpt lat="42.990310637799084" lon="11.189224179276504"><ele>280.0</ele><time>2026-04-03T11:18:09Z</time></trkpt><trkpt lat="42.99034466699516" lon="11.189097198586662"><ele>281.4</ele><time>2026-04-03T11:18:10Z</time></trkpt><trkpt lat="42.99037666865523" lon="11.188966935030676"><ele>282.8</ele><time>2026-04-03T11:18:11Z</time></trkpt><trkpt lat="42.990415419272374" lon="11.18882419244218"><ele>284.2</ele><time>2026-04-03T11:18:12Z</time></trkpt><trkpt lat="42.990464587458234" lon="11.188698814529994"><ele>285.6</ele><time>2026-04-03T11:18:13Z</time></trkpt><trkpt lat="42.990498212489825" lon="11.188561863379386"><ele>287.0</ele><time>2026-04-03T11:18:14Z</time></trkpt><trkpt lat="42.99052057410709" lon="11.18842093708086"><ele>287.0</ele><time>2026-04-03T11:18:15Z</time></trkpt><trkpt lat="42.99053611601831" lon="11.188263969242312"><ele>287.0</ele><time>2026-04-03T11:18:16Z</time></trkpt><trkpt lat="42.990557017490474" lon="11.188088853916804"><ele>287.0</ele><time>2026-04-03T11:18:17Z</time></trkpt><trkpt lat="42.990544336839946" lon="11.187958818569095"><ele>287.0</ele><time>2026-04-03T11:18:18Z</time></trkpt><trkpt lat="42.9905414131592" lon="11.18785513432727"><ele>287.0</ele><time>2026-04-03T11:18:19Z</time></trkpt><trkpt lat="42.99052571770119" lon="11.187704971700043"><ele>287.7142857142857</ele><time>2026-04-03T11:18:21Z</time></trkpt><trkpt lat="42.99050063515905" lon="11.187624914333332"><ele>288.42857142857144</ele><time>2026-04-03T11:18:22Z</time></trkpt><trkpt lat="42.99051648397004" lon="11.187539296302461"><ele>289.1428571428571</ele><time>2026-04-03T11:18:24Z</time></trkpt><trkpt lat="42.99057119706381" lon="11.187490558986479"><ele>289.8571428571429</ele><time>2026-04-03T11:18:25Z</time></trkpt><trkpt lat="42.99065494263251" lon="11.187544497038035"><ele>290.57142857142856</ele><time>2026-04-03T11:18:26Z</time></trkpt><trkpt lat="42.990719820058345" lon="11.187554893805908"><ele>291.2857142857143</ele><time>2026-04-03T11:18:27Z</time></trkpt><trkpt lat="42.9907861898737" lon="11.187548153364833"><ele>292.0</ele><time>2026-04-03T11:18:28Z</time></trkpt><trkpt lat="42.99088253079132" lon="11.187497503366066"><ele>295.2</ele><time>2026-04-03T11:18:30Z</time></trkpt><trkpt lat="42.990955090743576" lon="11.187469145503757"><ele>298.4</ele><time>2026-04-03T11:18:33Z</time></trkpt><trkpt lat="42.99104661317996" lon="11.187433859162134"><ele>301.6</ele><time>2026-04-03T11:18:41Z</time></trkpt><trkpt lat="42.9911787568301" lon="11.187421493301224"><ele>304.8</ele><time>2026-04-03T11:18:43Z</time></trkpt><trkpt lat="42.99129833103185" lon="11.187411491174913"><ele>308.0</ele><time>2026-04-03T11:18:45Z</time></trkpt><trkpt lat="42.991369409600146" lon="11.187400098584387"><ele>308.0</ele><time>2026-04-03T11:18:46Z</time></trkpt><trkpt lat="42.99144594270986" lon="11.187389065594122"><ele>308.0</ele><time>2026-04-03T11:18:47Z</time></trkpt><trkpt lat="42.991521541202474" lon="11.187366825285073"><ele>308.0</ele><time>2026-04-03T11:18:48Z</time></trkpt><trkpt lat="42.99159370199307" lon="11.187339372786466"><ele>308.0</ele><time>2026-04-03T11:18:49Z</time></trkpt><trkpt lat="42.99169394199469" lon="11.187347107955144"><ele>308.0</ele><time>2026-04-03T11:18:51Z</time></trkpt><trkpt lat="42.99176885215678" lon="11.187365544976561"><ele>308.0</ele><time>2026-04-03T11:18:53Z</time></trkpt><trkpt lat="42.99187709201948" lon="11.187450399902978"><ele>308.5</ele><time>2026-04-03T11:18:55Z</time></trkpt><trkpt lat="42.99193959277008" lon="11.187479501820548"><ele>309.0</ele><time>2026-04-03T11:18:56Z</time></trkpt><trkpt lat="42.992003351305534" lon="11.187486979214949"><ele>309.5</ele><time>2026-04-03T11:18:57Z</time></trkpt><trkpt lat="42.9920753026917" lon="11.187477873510566"><ele>310.0</ele><time>2026-04-03T11:18:58Z</time></trkpt><trkpt lat="42.99215712935799" lon="11.187456717573998"><ele>310.5</ele><time>2026-04-03T11:18:59Z</time></trkpt><trkpt lat="42.99222885710998" lon="11.187426206767098"><ele>311.0</ele><time>2026-04-03T11:19:00Z</time></trkpt><trkpt lat="42.9923145070554" lon="11.187372315100118"><ele>312.0</ele><time>2026-04-03T11:19:01Z</time></trkpt><trkpt lat="42.99238972867861" lon="11.187325165355366"><ele>313.0</ele><time>2026-04-03T11:19:02Z</time></trkpt><trkpt lat="42.992461265286416" lon="11.187292962631673"><ele>314.0</ele><time>2026-04-03T11:19:03Z</time></trkpt><trkpt lat="42.99254767009415" lon="11.187253993949"><ele>315.0</ele><time>2026-04-03T11:19:04Z</time></trkpt><trkpt lat="42.992616523643136" lon="11.18722220000253"><ele>316.0</ele><time>2026-04-03T11:19:04.999Z</time></trkpt><trkpt lat="42.992681299003166" lon="11.187170193116229"><ele>317.0</ele><time>2026-04-03T11:19:05.999Z</time></trkpt><trkpt lat="42.9927502693783" lon="11.18710451624675"><ele>317.0</ele><time>2026-04-03T11:19:06.999Z</time></trkpt><trkpt lat="42.99281536371133" lon="11.1870332849999"><ele>317.0</ele><time>2026-04-03T11:19:07.999Z</time></trkpt><trkpt lat="42.992880239963114" lon="11.186956994630156"><ele>317.0</ele><time>2026-04-03T11:19:08.999Z</time></trkpt><trkpt lat="42.99294629598367" lon="11.186882744483867"><ele>317.0</ele><time>2026-04-03T11:19:09.999Z</time></trkpt><trkpt lat="42.993002450141454" lon="11.186816473982786"><ele>317.0</ele><time>2026-04-03T11:19:10.999Z</time></trkpt><trkpt lat="42.99306858542789" lon="11.186739132536289"><ele>317.0</ele><time>2026-04-03T11:19:11.999Z</time></trkpt><trkpt lat="42.993138809199074" lon="11.18664728136781"><ele>317.0</ele><time>2026-04-03T11:19:12.999Z</time></trkpt><trkpt lat="42.99321676811524" lon="11.18656272009836"><ele>317.0</ele><time>2026-04-03T11:19:13.999Z</time></trkpt><trkpt lat="42.99328861153566" lon="11.186476708223754"><ele>317.0</ele><time>2026-04-03T11:19:14.999Z</time></trkpt><trkpt lat="42.99336827828394" lon="11.186396097700804"><ele>317.0</ele><time>2026-04-03T11:19:15.999Z</time></trkpt><trkpt lat="42.99343647781786" lon="11.186331020731853"><ele>317.0</ele><time>2026-04-03T11:19:16.999Z</time></trkpt><trkpt lat="42.99350416088539" lon="11.186258225643773"><ele>318.8</ele><time>2026-04-03T11:19:17.999Z</time></trkpt><trkpt lat="42.993562325590666" lon="11.186194591105295"><ele>320.6</ele><time>2026-04-03T11:19:18.999Z</time></trkpt><trkpt lat="42.99363475154826" lon="11.18610327180479"><ele>322.40000000000003</ele><time>2026-04-03T11:19:19.999Z</time></trkpt><trkpt lat="42.993713056733384" lon="11.186020418708718"><ele>324.2</ele><time>2026-04-03T11:19:20.999Z</time></trkpt><trkpt lat="42.993793038221774" lon="11.185940529944421"><ele>326.0</ele><time>2026-04-03T11:19:21.999Z</time></trkpt><trkpt lat="42.99387296417753" lon="11.1858510050248"><ele>326.0</ele><time>2026-04-03T11:19:22.999Z</time></trkpt><trkpt lat="42.993947002489044" lon="11.185768218087778"><ele>326.0</ele><time>2026-04-03T11:19:23.999Z</time></trkpt><trkpt lat="42.99401853598351" lon="11.18569132632352"><ele>326.0</ele><time>2026-04-03T11:19:24.999Z</time></trkpt><trkpt lat="42.994091794697226" lon="11.185604948744398"><ele>326.0</ele><time>2026-04-03T11:19:25.999Z</time></trkpt><trkpt lat="42.99416782501966" lon="11.18551768446533"><ele>326.0</ele><time>2026-04-03T11:19:26.999Z</time></trkpt><trkpt lat="42.99424730691905" lon="11.185434412511603"><ele>327.83333333333337</ele><time>2026-04-03T11:19:27.999Z</time></trkpt><trkpt lat="42.994321854243545" lon="11.185358445291262"><ele>329.6666666666667</ele><time>2026-04-03T11:19:28.999Z</time></trkpt><trkpt lat="42.994391402966066" lon="11.18527973852413"><ele>331.5</ele><time>2026-04-03T11:19:29.999Z</time></trkpt><trkpt lat="42.994455147444626" lon="11.18520594886478"><ele>333.3333333333333</ele><time>2026-04-03T11:19:30.999Z</time></trkpt><trkpt lat="42.99451827990642" lon="11.185136168883327"><ele>335.16666666666663</ele><time>2026-04-03T11:19:31.999Z</time></trkpt><trkpt lat="42.99459293745174" lon="11.185057917335023"><ele>337.0</ele><time>2026-04-03T11:19:32.999Z</time></trkpt><trkpt lat="42.994662038753894" lon="11.184988460442739"><ele>337.0</ele><time>2026-04-03T11:19:33.999Z</time></trkpt><trkpt lat="42.99473690747386" lon="11.184898646944447"><ele>337.0</ele><time>2026-04-03T11:19:34.999Z</time></trkpt><trkpt lat="42.994801906145014" lon="11.184814510073993"><ele>337.0</ele><time>2026-04-03T11:19:35.999Z</time></trkpt><trkpt lat="42.994882606958235" lon="11.184727593173443"><ele>337.0</ele><time>2026-04-03T11:19:36.999Z</time></trkpt><trkpt lat="42.99495275266602" lon="11.184647618855163"><ele>337.0</ele><time>2026-04-03T11:19:37.999Z</time></trkpt><trkpt lat="42.99503056663908" lon="11.18455988839247"><ele>336.3333333333333</ele><time>2026-04-03T11:19:38.999Z</time></trkpt><trkpt lat="42.9950959232369" lon="11.184480531322691"><ele>335.66666666666663</ele><time>2026-04-03T11:19:39.999Z</time></trkpt><trkpt lat="42.99516518563516" lon="11.184404194289089"><ele>335.0</ele><time>2026-04-03T11:19:40.999Z</time></trkpt><trkpt lat="42.99521649436678" lon="11.184326412797315"><ele>334.3333333333333</ele><time>2026-04-03T11:19:41.999Z</time></trkpt><trkpt lat="42.99525587824023" lon="11.184239380392265"><ele>333.6666666666667</ele><time>2026-04-03T11:19:42.999Z</time></trkpt><trkpt lat="42.99528531710017" lon="11.184137527683212"><ele>333.0</ele><time>2026-04-03T11:19:43.999Z</time></trkpt><trkpt lat="42.995294156015156" lon="11.18400110656703"><ele>334.3333333333333</ele><time>2026-04-03T11:19:44.999Z</time></trkpt><trkpt lat="42.99529956954059" lon="11.183885765150043"><ele>335.6666666666667</ele><time>2026-04-03T11:19:45.999Z</time></trkpt><trkpt lat="42.99533184744138" lon="11.183788534736486"><ele>337.0</ele><time>2026-04-03T11:19:46.999Z</time></trkpt><trkpt lat="42.995365659451565" lon="11.183699762785295"><ele>338.33333333333337</ele><time>2026-04-03T11:19:47.999Z</time></trkpt><trkpt lat="42.99538838840712" lon="11.183543450458505"><ele>339.6666666666667</ele><time>2026-04-03T11:19:49.999Z</time></trkpt><trkpt lat="42.99536051936936" lon="11.183450146259572"><ele>341.0</ele><time>2026-04-03T11:19:50.999Z</time></trkpt><trkpt lat="42.99536945472134" lon="11.183348211131012"><ele>341.0</ele><time>2026-04-03T11:19:51.999Z</time></trkpt><trkpt lat="42.99536574938398" lon="11.18323890302645"><ele>341.0</ele><time>2026-04-03T11:19:52.999Z</time></trkpt><trkpt lat="42.99536690508699" lon="11.183136296611375"><ele>341.0</ele><time>2026-04-03T11:19:53.999Z</time></trkpt><trkpt lat="42.995399565752365" lon="11.183042938021151"><ele>341.0</ele><time>2026-04-03T11:19:54.999Z</time></trkpt><trkpt lat="42.995437886120364" lon="11.182953312617878"><ele>341.0</ele><time>2026-04-03T11:19:55.999Z</time></trkpt><trkpt lat="42.995482448695064" lon="11.182878194849605"><ele>341.0</ele><time>2026-04-03T11:19:56.999Z</time></trkpt><trkpt lat="42.995527116351276" lon="11.182814849286578"><ele>341.0</ele><time>2026-04-03T11:19:57.999Z</time></trkpt><trkpt lat="42.99557382898615" lon="11.182750317674119"><ele>340.1666666666667</ele><time>2026-04-03T11:19:58.999Z</time></trkpt><trkpt lat="42.99562476856176" lon="11.182688439158316"><ele>339.33333333333337</ele><time>2026-04-03T11:19:59.999Z</time></trkpt><trkpt lat="42.99567953657523" lon="11.182636918854143"><ele>338.5</ele><time>2026-04-03T11:20:00.999Z</time></trkpt><trkpt lat="42.99573588444315" lon="11.18255645836257"><ele>337.6666666666667</ele><time>2026-04-03T11:20:01.999Z</time></trkpt><trkpt lat="42.995784123550166" lon="11.182485930876277"><ele>336.8333333333333</ele><time>2026-04-03T11:20:02.999Z</time></trkpt><trkpt lat="42.99584120007887" lon="11.182350751148913"><ele>336.0</ele><time>2026-04-03T11:20:04.999Z</time></trkpt><trkpt lat="42.99586906919745" lon="11.18225197467041"><ele>336.0</ele><time>2026-04-03T11:20:05.999Z</time></trkpt><trkpt lat="42.99589635716684" lon="11.182140800547852"><ele>336.0</ele><time>2026-04-03T11:20:06.999Z</time></trkpt><trkpt lat="42.995917110136986" lon="11.182012287299152"><ele>336.0</ele><time>2026-04-03T11:20:07.999Z</time></trkpt><trkpt lat="42.99593836903562" lon="11.181893639107448"><ele>336.0</ele><time>2026-04-03T11:20:08.999Z</time></trkpt><trkpt lat="42.9959529828942" lon="11.181801642012452"><ele>336.0</ele><time>2026-04-03T11:20:09.999Z</time></trkpt><trkpt lat="42.99599234958139" lon="11.181712488761887"><ele>336.0</ele><time>2026-04-03T11:20:10.999Z</time></trkpt><trkpt lat="42.99604231595461" lon="11.181610288321275"><ele>336.0</ele><time>2026-04-03T11:20:11.999Z</time></trkpt><trkpt lat="42.99608550581587" lon="11.181517203403889"><ele>336.0</ele><time>2026-04-03T11:20:13Z</time></trkpt><trkpt lat="42.99611770993296" lon="11.181427035279635"><ele>336.0</ele><time>2026-04-03T11:20:14Z</time></trkpt><trkpt lat="42.9961560174397" lon="11.181354434136944"><ele>336.0</ele><time>2026-04-03T11:20:15Z</time></trkpt><trkpt lat="42.99620869912019" lon="11.181228027005977"><ele>336.0</ele><time>2026-04-03T11:20:17Z</time></trkpt><trkpt lat="42.99619266524264" lon="11.181067342163484"><ele>336.0</ele><time>2026-04-03T11:20:19Z</time></trkpt><trkpt lat="42.996191839326926" lon="11.180971625487064"><ele>337.6666666666667</ele><time>2026-04-03T11:20:20Z</time></trkpt><trkpt lat="42.996164247609464" lon="11.180867352472903"><ele>339.3333333333333</ele><time>2026-04-03T11:20:21Z</time></trkpt><trkpt lat="42.996136739897985" lon="11.180765239607434"><ele>341.0</ele><time>2026-04-03T11:20:22Z</time></trkpt><trkpt lat="42.99610298796103" lon="11.180657605534599"><ele>342.66666666666663</ele><time>2026-04-03T11:20:22.999Z</time></trkpt><trkpt lat="42.996074236905784" lon="11.180567454942345"><ele>344.3333333333333</ele><time>2026-04-03T11:20:23.999Z</time></trkpt><trkpt lat="42.99606010855169" lon="11.18046629016575"><ele>346.0</ele><time>2026-04-03T11:20:24.999Z</time></trkpt><trkpt lat="42.99605600318831" lon="11.180359549797624"><ele>347.0</ele><time>2026-04-03T11:20:25.999Z</time></trkpt><trkpt lat="42.99604997045175" lon="11.1802679269467"><ele>348.0</ele><time>2026-04-03T11:20:26.999Z</time></trkpt><trkpt lat="42.99605098786478" lon="11.180159707215077"><ele>349.0</ele><time>2026-04-03T11:20:28.999Z</time></trkpt><trkpt lat="42.996085781095864" lon="11.18002446181955"><ele>350.0</ele><time>2026-04-03T11:20:30.999Z</time></trkpt><trkpt lat="42.99612579772894" lon="11.17993917564847"><ele>351.0</ele><time>2026-04-03T11:20:31.999Z</time></trkpt><trkpt lat="42.99615188662633" lon="11.179843487402792"><ele>352.0</ele><time>2026-04-03T11:20:32.999Z</time></trkpt><trkpt lat="42.99614046852491" lon="11.179737202119298"><ele>352.5</ele><time>2026-04-03T11:20:33.999Z</time></trkpt><trkpt lat="42.996116535313725" lon="11.179628692952148"><ele>353.0</ele><time>2026-04-03T11:20:34.999Z</time></trkpt><trkpt lat="42.99610767246792" lon="11.179524125228763"><ele>353.5</ele><time>2026-04-03T11:20:35.999Z</time></trkpt><trkpt lat="42.996124083270004" lon="11.179435406762131"><ele>354.0</ele><time>2026-04-03T11:20:36.999Z</time></trkpt><trkpt lat="42.99616964650935" lon="11.17934733279865"><ele>354.5</ele><time>2026-04-03T11:20:37.999Z</time></trkpt><trkpt lat="42.99622041099793" lon="11.179267702336492"><ele>355.0</ele><time>2026-04-03T11:20:38.999Z</time></trkpt><trkpt lat="42.996283352123854" lon="11.17918520856972"><ele>355.0</ele><time>2026-04-03T11:20:39.999Z</time></trkpt><trkpt lat="42.99634606112345" lon="11.179098766641056"><ele>355.0</ele><time>2026-04-03T11:20:40.999Z</time></trkpt><trkpt lat="42.996410383425854" lon="11.179016581700303"><ele>355.0</ele><time>2026-04-03T11:20:41.999Z</time></trkpt><trkpt lat="42.99649404563904" lon="11.178931039958103"><ele>355.0</ele><time>2026-04-03T11:20:42.999Z</time></trkpt><trkpt lat="42.996576675640384" lon="11.178845370257523"><ele>355.0</ele><time>2026-04-03T11:20:43.999Z</time></trkpt><trkpt lat="42.996642991632946" lon="11.17876766558597"><ele>355.66666666666663</ele><time>2026-04-03T11:20:44.999Z</time></trkpt><trkpt lat="42.99670293618391" lon="11.178697727118793"><ele>356.3333333333333</ele><time>2026-04-03T11:20:45.999Z</time></trkpt><trkpt lat="42.996762997114914" lon="11.1786509566787"><ele>357.0</ele><time>2026-04-03T11:20:46.999Z</time></trkpt><trkpt lat="42.99682577029544" lon="11.17858879073536"><ele>357.6666666666667</ele><time>2026-04-03T11:20:47.999Z</time></trkpt><trkpt lat="42.99689121150547" lon="11.1785179822847"><ele>358.33333333333337</ele><time>2026-04-03T11:20:48.999Z</time></trkpt><trkpt lat="42.996956575809904" lon="11.178449769361052"><ele>359.0</ele><time>2026-04-03T11:20:49.999Z</time></trkpt><trkpt lat="42.997025570424654" lon="11.178394040534906"><ele>359.0</ele><time>2026-04-03T11:20:50.999Z</time></trkpt><trkpt lat="42.997085873007045" lon="11.178330676328295"><ele>359.0</ele><time>2026-04-03T11:20:51.999Z</time></trkpt><trkpt lat="42.997169696101565" lon="11.178251470398832"><ele>359.0</ele><time>2026-04-03T11:20:52.999Z</time></trkpt><trkpt lat="42.99724001640068" lon="11.178175186678194"><ele>359.0</ele><time>2026-04-03T11:20:53.999Z</time></trkpt><trkpt lat="42.99731391812861" lon="11.178096224336745"><ele>359.0</ele><time>2026-04-03T11:20:54.999Z</time></trkpt><trkpt lat="42.99738292516204" lon="11.17802156677811"><ele>359.0</ele><time>2026-04-03T11:20:55.999Z</time></trkpt><trkpt lat="42.99746338319037" lon="11.177944945058256"><ele>359.6666666666667</ele><time>2026-04-03T11:20:56.999Z</time></trkpt><trkpt lat="42.997537480647345" lon="11.177880148094728"><ele>360.33333333333337</ele><time>2026-04-03T11:20:57.999Z</time></trkpt><trkpt lat="42.99761086655523" lon="11.17780987243688"><ele>361.0</ele><time>2026-04-03T11:20:58.999Z</time></trkpt><trkpt lat="42.99767934532133" lon="11.177743627554705"><ele>361.6666666666667</ele><time>2026-04-03T11:20:59.999Z</time></trkpt><trkpt lat="42.99774981775975" lon="11.177676432152845"><ele>362.3333333333333</ele><time>2026-04-03T11:21:00.999Z</time></trkpt><trkpt lat="42.99781637074547" lon="11.17760634623584"><ele>363.0</ele><time>2026-04-03T11:21:01.999Z</time></trkpt><trkpt lat="42.9978768411687" lon="11.177551323147197"><ele>363.0</ele><time>2026-04-03T11:21:02.999Z</time></trkpt><trkpt lat="42.997942797233314" lon="11.177488585041557"><ele>363.0</ele><time>2026-04-03T11:21:03.999Z</time></trkpt><trkpt lat="42.998016483096755" lon="11.177431093512165"><ele>363.0</ele><time>2026-04-03T11:21:04.999Z</time></trkpt><trkpt lat="42.99809188284794" lon="11.177371304453041"><ele>363.0</ele><time>2026-04-03T11:21:05.999Z</time></trkpt><trkpt lat="42.998162776094034" lon="11.177302150073437"><ele>363.0</ele><time>2026-04-03T11:21:06.999Z</time></trkpt><trkpt lat="42.998235211644705" lon="11.177227561818176"><ele>363.0</ele><time>2026-04-03T11:21:07.999Z</time></trkpt><trkpt lat="42.99830664415878" lon="11.177155405878592"><ele>362.4285714285714</ele><time>2026-04-03T11:21:08.999Z</time></trkpt><trkpt lat="42.99837515600965" lon="11.177089472829245"><ele>361.85714285714283</ele><time>2026-04-03T11:21:09.999Z</time></trkpt><trkpt lat="42.9984320570568" lon="11.177029296551067"><ele>361.2857142857143</ele><time>2026-04-03T11:21:10.999Z</time></trkpt><trkpt lat="42.998480922119505" lon="11.176968548897522"><ele>360.71428571428567</ele><time>2026-04-03T11:21:11.999Z</time></trkpt><trkpt lat="42.99853817142068" lon="11.176890092858004"><ele>360.14285714285717</ele><time>2026-04-03T11:21:12.999Z</time></trkpt><trkpt lat="42.99858860227151" lon="11.176805555786757"><ele>359.57142857142856</ele><time>2026-04-03T11:21:13.999Z</time></trkpt><trkpt lat="42.99862719014126" lon="11.176731296063707"><ele>359.0</ele><time>2026-04-03T11:21:14.999Z</time></trkpt><trkpt lat="42.998672537608186" lon="11.176656521995127"><ele>359.0</ele><time>2026-04-03T11:21:15.999Z</time></trkpt><trkpt lat="42.99872079160172" lon="11.176595533139421"><ele>359.0</ele><time>2026-04-03T11:21:16.999Z</time></trkpt><trkpt lat="42.99877474623634" lon="11.176515042666692"><ele>359.0</ele><time>2026-04-03T11:21:17.999Z</time></trkpt><trkpt lat="42.99880945284643" lon="11.176433756967153"><ele>359.0</ele><time>2026-04-03T11:21:18.999Z</time></trkpt><trkpt lat="42.99885988703145" lon="11.176348361001468"><ele>359.0</ele><time>2026-04-03T11:21:19.999Z</time></trkpt><trkpt lat="42.9989847324814" lon="11.176289198509648"><ele>359.0</ele><time>2026-04-03T11:21:21.999Z</time></trkpt><trkpt lat="42.99906396204746" lon="11.176309064447114"><ele>360.0</ele><time>2026-04-03T11:21:22.999Z</time></trkpt><trkpt lat="42.999152090619575" lon="11.176338816117768"><ele>361.0</ele><time>2026-04-03T11:21:23.999Z</time></trkpt><trkpt lat="42.999227932828774" lon="11.176352139985879"><ele>362.0</ele><time>2026-04-03T11:21:24.999Z</time></trkpt><trkpt lat="42.9993440743403" lon="11.176261133910058"><ele>363.0</ele><time>2026-04-03T11:21:26.999Z</time></trkpt><trkpt lat="42.99939457521491" lon="11.176193801937783"><ele>364.0</ele><time>2026-04-03T11:21:27.999Z</time></trkpt><trkpt lat="42.99945654225985" lon="11.176157059667018"><ele>365.0</ele><time>2026-04-03T11:21:28.999Z</time></trkpt><trkpt lat="42.99951277077384" lon="11.176096305495395"><ele>365.1666666666667</ele><time>2026-04-03T11:21:29.999Z</time></trkpt><trkpt lat="42.99952730381186" lon="11.175957355664398"><ele>365.33333333333337</ele><time>2026-04-03T11:21:30.999Z</time></trkpt><trkpt lat="42.999566486448224" lon="11.175881218073567"><ele>365.5</ele><time>2026-04-03T11:21:31.999Z</time></trkpt><trkpt lat="42.99963195380134" lon="11.175857820614402"><ele>365.6666666666667</ele><time>2026-04-03T11:21:32.999Z</time></trkpt><trkpt lat="42.99968298597571" lon="11.175793565854063"><ele>365.8333333333333</ele><time>2026-04-03T11:21:33.999Z</time></trkpt><trkpt lat="42.999761742836114" lon="11.175759958864061"><ele>366.0</ele><time>2026-04-03T11:21:34.999Z</time></trkpt><trkpt lat="42.99984647162507" lon="11.17572520252427"><ele>367.1666666666667</ele><time>2026-04-03T11:21:35.999Z</time></trkpt><trkpt lat="42.999919852452265" lon="11.175682539027042"><ele>368.3333333333333</ele><time>2026-04-03T11:21:36.999Z</time></trkpt><trkpt lat="42.99998938056876" lon="11.175616121113151"><ele>369.5</ele><time>2026-04-03T11:21:37.999Z</time></trkpt><trkpt lat="43.00005061047468" lon="11.17555252552156"><ele>370.66666666666663</ele><time>2026-04-03T11:21:38.999Z</time></trkpt><trkpt lat="43.000111113799065" lon="11.17549045672593"><ele>371.8333333333333</ele><time>2026-04-03T11:21:39.999Z</time></trkpt><trkpt lat="43.000173513904194" lon="11.175433295127306"><ele>373.0</ele><time>2026-04-03T11:21:40.999Z</time></trkpt><trkpt lat="43.000229258776415" lon="11.175374206731357"><ele>373.0</ele><time>2026-04-03T11:21:41.999Z</time></trkpt><trkpt lat="43.00030589705498" lon="11.175297367590122"><ele>373.0</ele><time>2026-04-03T11:21:43.999Z</time></trkpt><trkpt lat="43.000375443616385" lon="11.175259609242303"><ele>373.0</ele><time>2026-04-03T11:21:45.999Z</time></trkpt><trkpt lat="43.000433562647274" lon="11.175217009717766"><ele>373.0</ele><time>2026-04-03T11:21:47.999Z</time></trkpt><trkpt lat="43.00049492741795" lon="11.175147321993665"><ele>373.0</ele><time>2026-04-03T11:22:08Z</time></trkpt><trkpt lat="43.0004439749456" lon="11.174987187344847"><ele>373.0</ele><time>2026-04-03T11:22:09Z</time></trkpt><trkpt lat="43.0004255982331" lon="11.174837251301824"><ele>374.5</ele><time>2026-04-03T11:22:11Z</time></trkpt><trkpt lat="43.00037724808461" lon="11.174681353352605"><ele>376.0</ele><time>2026-04-03T11:22:13Z</time></trkpt><trkpt lat="43.0003616860203" lon="11.174590595170095"><ele>377.5</ele><time>2026-04-03T11:22:14Z</time></trkpt><trkpt lat="43.0003403015652" lon="11.174498173882977"><ele>379.0</ele><time>2026-04-03T11:22:15Z</time></trkpt><trkpt lat="43.00031770186445" lon="11.174405168429182"><ele>380.5</ele><time>2026-04-03T11:22:16Z</time></trkpt><trkpt lat="43.00029349758683" lon="11.174299628093365"><ele>382.0</ele><time>2026-04-03T11:22:17Z</time></trkpt><trkpt lat="43.000272723138984" lon="11.174197675904258"><ele>382.0</ele><time>2026-04-03T11:22:18Z</time></trkpt><trkpt lat="43.00025775248775" lon="11.174107276415894"><ele>382.0</ele><time>2026-04-03T11:22:19Z</time></trkpt><trkpt lat="43.00024178085298" lon="11.174023740499413"><ele>382.0</ele><time>2026-04-03T11:22:20Z</time></trkpt><trkpt lat="43.00022286576368" lon="11.173928648150008"><ele>382.0</ele><time>2026-04-03T11:22:21Z</time></trkpt><trkpt lat="43.00021000515493" lon="11.173835696052528"><ele>382.0</ele><time>2026-04-03T11:22:22Z</time></trkpt><trkpt lat="43.00020953021826" lon="11.173738259378874"><ele>382.0</ele><time>2026-04-03T11:22:23Z</time></trkpt><trkpt lat="43.00022278169851" lon="11.17364731444121"><ele>382.0</ele><time>2026-04-03T11:22:24Z</time></trkpt><trkpt lat="43.0002571941852" lon="11.17356782114962"><ele>382.40000000000003</ele><time>2026-04-03T11:22:25Z</time></trkpt><trkpt lat="43.000335964526144" lon="11.173450616998375"><ele>382.8</ele><time>2026-04-03T11:22:27Z</time></trkpt><trkpt lat="43.00038184894656" lon="11.17336756102696"><ele>383.2</ele><time>2026-04-03T11:22:28Z</time></trkpt><trkpt lat="43.00053551651046" lon="11.173414640773744"><ele>383.6</ele><time>2026-04-03T11:22:31Z</time></trkpt><trkpt lat="43.00058008821404" lon="11.173476234222138"><ele>384.0</ele><time>2026-04-03T11:22:32Z</time></trkpt><trkpt lat="43.00063152365967" lon="11.173548185751248"><ele>384.0</ele><time>2026-04-03T11:22:33Z</time></trkpt><trkpt lat="43.00069607448478" lon="11.17361682447911"><ele>384.0</ele><time>2026-04-03T11:22:34Z</time></trkpt><trkpt lat="43.000760606588976" lon="11.17368991568504"><ele>384.0</ele><time>2026-04-03T11:22:35Z</time></trkpt><trkpt lat="43.000823834637565" lon="11.17375679365124"><ele>384.0</ele><time>2026-04-03T11:22:36Z</time></trkpt><trkpt lat="43.00088430655413" lon="11.173818029733148"><ele>384.0</ele><time>2026-04-03T11:22:37Z</time></trkpt><trkpt lat="43.00094851572399" lon="11.173885790911987"><ele>384.0</ele><time>2026-04-03T11:22:38Z</time></trkpt><trkpt lat="43.00101344943681" lon="11.173957906763086"><ele>383.79999999999995</ele><time>2026-04-03T11:22:39Z</time></trkpt><trkpt lat="43.001087832983714" lon="11.174026457628617"><ele>383.59999999999997</ele><time>2026-04-03T11:22:40Z</time></trkpt><trkpt lat="43.00117371294547" lon="11.174074086510434"><ele>383.4</ele><time>2026-04-03T11:22:41Z</time></trkpt><trkpt lat="43.001265242627284" lon="11.174083338784415"><ele>383.2</ele><time>2026-04-03T11:22:42Z</time></trkpt><trkpt lat="43.00136599840776" lon="11.174019606335072"><ele>383.0</ele><time>2026-04-03T11:22:43Z</time></trkpt><trkpt lat="43.001448929889946" lon="11.173922809209074"><ele>383.0</ele><time>2026-04-03T11:22:44Z</time></trkpt><trkpt lat="43.00151375974818" lon="11.173809487242462"><ele>383.0</ele><time>2026-04-03T11:22:45Z</time></trkpt><trkpt lat="43.00155998038973" lon="11.173687703273986"><ele>383.0</ele><time>2026-04-03T11:22:46Z</time></trkpt><trkpt lat="43.001593090472234" lon="11.173560109305415"><ele>383.0</ele><time>2026-04-03T11:22:47Z</time></trkpt><trkpt lat="43.001628282001775" lon="11.173432736520096"><ele>383.0</ele><time>2026-04-03T11:22:48Z</time></trkpt><trkpt lat="43.001671795087965" lon="11.173308625470135"><ele>384.2</ele><time>2026-04-03T11:22:49Z</time></trkpt><trkpt lat="43.00171909491901" lon="11.173199045427676"><ele>385.4</ele><time>2026-04-03T11:22:50Z</time></trkpt><trkpt lat="43.001764755002405" lon="11.173080622596903"><ele>386.59999999999997</ele><time>2026-04-03T11:22:51Z</time></trkpt><trkpt lat="43.001820212910395" lon="11.172969840965758"><ele>387.79999999999995</ele><time>2026-04-03T11:22:52Z</time></trkpt><trkpt lat="43.00189071312919" lon="11.172868050545839"><ele>389.0</ele><time>2026-04-03T11:22:53Z</time></trkpt><trkpt lat="43.00196442938379" lon="11.17277601644864"><ele>389.0</ele><time>2026-04-03T11:22:54Z</time></trkpt><trkpt lat="43.0020523896617" lon="11.172696175231785"><ele>389.0</ele><time>2026-04-03T11:22:55Z</time></trkpt><trkpt lat="43.002142541648006" lon="11.172617205705286"><ele>389.0</ele><time>2026-04-03T11:22:56Z</time></trkpt><trkpt lat="43.00223615475669" lon="11.172536788216517"><ele>389.0</ele><time>2026-04-03T11:22:57Z</time></trkpt><trkpt lat="43.002331990419506" lon="11.172456875396836"><ele>389.0</ele><time>2026-04-03T11:22:58Z</time></trkpt><trkpt lat="43.00242178253767" lon="11.172382481609155"><ele>389.5</ele><time>2026-04-03T11:22:59Z</time></trkpt><trkpt lat="43.002524935738734" lon="11.172312932287458"><ele>390.0</ele><time>2026-04-03T11:23:00Z</time></trkpt><trkpt lat="43.00262885061937" lon="11.172263335368388"><ele>390.5</ele><time>2026-04-03T11:23:01Z</time></trkpt><trkpt lat="43.002734343421594" lon="11.172230522164218"><ele>391.0</ele><time>2026-04-03T11:23:02Z</time></trkpt><trkpt lat="43.0029463973936" lon="11.17215438584579"><ele>391.0</ele><time>2026-04-03T11:23:04Z</time></trkpt><trkpt lat="43.00304633780558" lon="11.17210191114279"><ele>391.0</ele><time>2026-04-03T11:23:05Z</time></trkpt><trkpt lat="43.00315075794568" lon="11.172045038357352"><ele>391.0</ele><time>2026-04-03T11:23:06Z</time></trkpt><trkpt lat="43.00324440194745" lon="11.17197560432516"><ele>391.0</ele><time>2026-04-03T11:23:07Z</time></trkpt><trkpt lat="43.003362565105796" lon="11.17199031150426"><ele>391.0</ele><time>2026-04-03T11:23:08Z</time></trkpt><trkpt lat="43.00346854443753" lon="11.171983022816725"><ele>393.0</ele><time>2026-04-03T11:23:09Z</time></trkpt><trkpt lat="43.003566110496045" lon="11.171964797930423"><ele>395.0</ele><time>2026-04-03T11:23:10Z</time></trkpt><trkpt lat="43.00366776659866" lon="11.171952148220994"><ele>397.0</ele><time>2026-04-03T11:23:11Z</time></trkpt><trkpt lat="43.003764808301575" lon="11.171964323034631"><ele>399.0</ele><time>2026-04-03T11:23:12Z</time></trkpt><trkpt lat="43.00386143431409" lon="11.171988279884143"><ele>401.0</ele><time>2026-04-03T11:23:13Z</time></trkpt><trkpt lat="43.00395425267427" lon="11.172017941965688"><ele>400.99999999999994</ele><time>2026-04-03T11:23:14Z</time></trkpt><trkpt lat="43.00405025536345" lon="11.172038918306388"><ele>401.0</ele><time>2026-04-03T11:23:15Z</time></trkpt><trkpt lat="43.00412728566197" lon="11.172039114936917"><ele>401.0</ele><time>2026-04-03T11:23:16Z</time></trkpt><trkpt lat="43.00420293166948" lon="11.172020043652225"><ele>401.0</ele><time>2026-04-03T11:23:17Z</time></trkpt><trkpt lat="43.00428511584317" lon="11.17199370238767"><ele>400.99999999999994</ele><time>2026-04-03T11:23:18Z</time></trkpt><trkpt lat="43.00436402390653" lon="11.171951167951358"><ele>401.0</ele><time>2026-04-03T11:23:19Z</time></trkpt><trkpt lat="43.004433949564046" lon="11.171897221817"><ele>403.3333333333333</ele><time>2026-04-03T11:23:20Z</time></trkpt><trkpt lat="43.00450957440401" lon="11.171832106996922"><ele>405.66666666666663</ele><time>2026-04-03T11:23:21Z</time></trkpt><trkpt lat="43.00457507026603" lon="11.171771109302652"><ele>408.0</ele><time>2026-04-03T11:23:22Z</time></trkpt><trkpt lat="43.00464909003895" lon="11.171711775827204"><ele>410.33333333333337</ele><time>2026-04-03T11:23:23Z</time></trkpt><trkpt lat="43.00472246409061" lon="11.171661510781217"><ele>412.6666666666667</ele><time>2026-04-03T11:23:24Z</time></trkpt><trkpt lat="43.004787793726294" lon="11.17162315058471"><ele>415.0</ele><time>2026-04-03T11:23:25Z</time></trkpt><trkpt lat="43.00487676036695" lon="11.171564620856879"><ele>414.0</ele><time>2026-04-03T11:23:27Z</time></trkpt><trkpt lat="43.00493470420418" lon="11.171522569227587"><ele>413.0</ele><time>2026-04-03T11:23:29Z</time></trkpt><trkpt lat="43.00501718646278" lon="11.171460048366436"><ele>412.0</ele><time>2026-04-03T11:23:49Z</time></trkpt><trkpt lat="43.0051175294072" lon="11.17139097400529"><ele>411.0</ele><time>2026-04-03T11:23:51Z</time></trkpt><trkpt lat="43.00519600723748" lon="11.171331715336814"><ele>410.0</ele><time>2026-04-03T11:23:53Z</time></trkpt><trkpt lat="43.005292338256105" lon="11.171265430321862"><ele>411.66666666666663</ele><time>2026-04-03T11:23:55Z</time></trkpt><trkpt lat="43.00535078564452" lon="11.171229016291047"><ele>413.3333333333333</ele><time>2026-04-03T11:23:56Z</time></trkpt><trkpt lat="43.00541291958727" lon="11.171188915903906"><ele>415.0</ele><time>2026-04-03T11:23:57Z</time></trkpt><trkpt lat="43.00547405673372" lon="11.171149278464531"><ele>416.66666666666663</ele><time>2026-04-03T11:23:58Z</time></trkpt><trkpt lat="43.00553840566555" lon="11.171105288915049"><ele>418.3333333333333</ele><time>2026-04-03T11:23:59Z</time></trkpt><trkpt lat="43.00560532140699" lon="11.171059980001585"><ele>420.0</ele><time>2026-04-03T11:24:00Z</time></trkpt><trkpt lat="43.005722358519336" lon="11.170970855679327"><ele>420.0</ele><time>2026-04-03T11:24:02Z</time></trkpt><trkpt lat="43.005782808684984" lon="11.170923787362323"><ele>420.0</ele><time>2026-04-03T11:24:03Z</time></trkpt><trkpt lat="43.00584378124991" lon="11.170874250812915"><ele>420.0</ele><time>2026-04-03T11:24:04Z</time></trkpt><trkpt lat="43.00590707807352" lon="11.170829795302556"><ele>420.0</ele><time>2026-04-03T11:24:05Z</time></trkpt><trkpt lat="43.00596578334016" lon="11.170786319781751"><ele>420.0</ele><time>2026-04-03T11:24:06Z</time></trkpt><trkpt lat="43.00602328817676" lon="11.170739473215974"><ele>420.0</ele><time>2026-04-03T11:24:07Z</time></trkpt><trkpt lat="43.00608410647458" lon="11.170688103580563"><ele>420.0</ele><time>2026-04-03T11:24:08Z</time></trkpt><trkpt lat="43.006141651336236" lon="11.170633964868266"><ele>421.2857142857143</ele><time>2026-04-03T11:24:09Z</time></trkpt><trkpt lat="43.00619337203608" lon="11.17057226623479"><ele>422.57142857142856</ele><time>2026-04-03T11:24:10Z</time></trkpt><trkpt lat="43.00624128648371" lon="11.170504666209775"><ele>423.8571428571429</ele><time>2026-04-03T11:24:11Z</time></trkpt><trkpt lat="43.006291424898464" lon="11.170429829233358"><ele>425.1428571428571</ele><time>2026-04-03T11:24:12Z</time></trkpt><trkpt lat="43.00634944886419" lon="11.170362011072536"><ele>426.42857142857144</ele><time>2026-04-03T11:24:13Z</time></trkpt><trkpt lat="43.0064035618133" lon="11.170310912165512"><ele>427.7142857142857</ele><time>2026-04-03T11:24:14Z</time></trkpt><trkpt lat="43.00646692046746" lon="11.17027131550544"><ele>429.0</ele><time>2026-04-03T11:24:15Z</time></trkpt><trkpt lat="43.00653066398235" lon="11.170248725960175"><ele>429.0</ele><time>2026-04-03T11:24:16Z</time></trkpt><trkpt lat="43.00665266523687" lon="11.170227726255668"><ele>429.0</ele><time>2026-04-03T11:24:18Z</time></trkpt><trkpt lat="43.00676687552824" lon="11.170188889707392"><ele>429.0</ele><time>2026-04-03T11:24:20Z</time></trkpt><trkpt lat="43.006863495354395" lon="11.17009197520797"><ele>429.0</ele><time>2026-04-03T11:24:22Z</time></trkpt><trkpt lat="43.00689523004405" lon="11.169930544003023"><ele>432.0</ele><time>2026-04-03T11:24:24Z</time></trkpt><trkpt lat="43.00692602038637" lon="11.169796538491287"><ele>435.0</ele><time>2026-04-03T11:24:26Z</time></trkpt><trkpt lat="43.006974865802576" lon="11.169732160577203"><ele>438.0</ele><time>2026-04-03T11:24:30Z</time></trkpt><trkpt lat="43.00704687701743" lon="11.169846640057637"><ele>441.0</ele><time>2026-04-03T11:24:32Z</time></trkpt><trkpt lat="43.00709721570124" lon="11.169960616439784"><ele>444.0</ele><time>2026-04-03T11:24:34Z</time></trkpt><trkpt lat="43.00717695442112" lon="11.170071792061847"><ele>444.0</ele><time>2026-04-03T11:24:36Z</time></trkpt><trkpt lat="43.007282774738705" lon="11.170173956467961"><ele>444.0</ele><time>2026-04-03T11:24:38Z</time></trkpt><trkpt lat="43.00735456544483" lon="11.17022422894305"><ele>444.0</ele><time>2026-04-03T11:24:39Z</time></trkpt><trkpt lat="43.007429565293215" lon="11.170269388221252"><ele>444.0</ele><time>2026-04-03T11:24:40Z</time></trkpt><trkpt lat="43.007502654398046" lon="11.17031650301204"><ele>444.0</ele><time>2026-04-03T11:24:41Z</time></trkpt><trkpt lat="43.00756822177995" lon="11.170355057873167"><ele>444.0</ele><time>2026-04-03T11:24:42Z</time></trkpt><trkpt lat="43.00764235249088" lon="11.170377512043284"><ele>446.3333333333333</ele><time>2026-04-03T11:24:43Z</time></trkpt><trkpt lat="43.007716530398305" lon="11.170381204891678"><ele>448.66666666666663</ele><time>2026-04-03T11:24:44Z</time></trkpt><trkpt lat="43.007791812101004" lon="11.170382083891683"><ele>451.0</ele><time>2026-04-03T11:24:45Z</time></trkpt><trkpt lat="43.00786707461284" lon="11.170376805766551"><ele>453.3333333333333</ele><time>2026-04-03T11:24:46Z</time></trkpt><trkpt lat="43.00793432302933" lon="11.170350103825335"><ele>455.66666666666663</ele><time>2026-04-03T11:24:47Z</time></trkpt><trkpt lat="43.008006764682" lon="11.170310734436738"><ele>458.0</ele><time>2026-04-03T11:24:48Z</time></trkpt><trkpt lat="43.008078242675275" lon="11.170255081589039"><ele>457.99999999999994</ele><time>2026-04-03T11:24:49Z</time></trkpt><trkpt lat="43.00814667421648" lon="11.170206139759204"><ele>458.0</ele><time>2026-04-03T11:24:50Z</time></trkpt><trkpt lat="43.00821456615255" lon="11.170166413453561"><ele>458.0</ele><time>2026-04-03T11:24:51Z</time></trkpt><trkpt lat="43.00828113085758" lon="11.170126084326364"><ele>458.0</ele><time>2026-04-03T11:24:52Z</time></trkpt><trkpt lat="43.0083522173177" lon="11.170075215439084"><ele>457.99999999999994</ele><time>2026-04-03T11:24:53Z</time></trkpt><trkpt lat="43.00842776614977" lon="11.170018217891101"><ele>458.0</ele><time>2026-04-03T11:24:54Z</time></trkpt><trkpt lat="43.008496137961124" lon="11.169964318697918"><ele>458.99999999999994</ele><time>2026-04-03T11:24:55Z</time></trkpt><trkpt lat="43.00857203984533" lon="11.169900398944685"><ele>460.0</ele><time>2026-04-03T11:24:56Z</time></trkpt><trkpt lat="43.008638142691865" lon="11.16982982758828"><ele>461.0</ele><time>2026-04-03T11:24:57Z</time></trkpt><trkpt lat="43.00870367808839" lon="11.169749628017978"><ele>462.0</ele><time>2026-04-03T11:24:58Z</time></trkpt><trkpt lat="43.0087746952312" lon="11.169661953314389"><ele>462.99999999999994</ele><time>2026-04-03T11:24:59Z</time></trkpt><trkpt lat="43.008842975884825" lon="11.1695817696466"><ele>464.0</ele><time>2026-04-03T11:25:00Z</time></trkpt><trkpt lat="43.00891095962887" lon="11.169502155650674"><ele>465.6</ele><time>2026-04-03T11:25:01Z</time></trkpt><trkpt lat="43.00898363169902" lon="11.169417471139363"><ele>467.2</ele><time>2026-04-03T11:25:02Z</time></trkpt><trkpt lat="43.00905382047122" lon="11.169335749299561"><ele>468.80000000000007</ele><time>2026-04-03T11:25:03Z</time></trkpt><trkpt lat="43.009123820289155" lon="11.16924732862032"><ele>470.40000000000003</ele><time>2026-04-03T11:25:04Z</time></trkpt><trkpt lat="43.00919088789561" lon="11.169163487377197"><ele>472.0</ele><time>2026-04-03T11:25:05Z</time></trkpt><trkpt lat="43.00925606676216" lon="11.169081938032534"><ele>474.33333333333337</ele><time>2026-04-03T11:25:06Z</time></trkpt><trkpt lat="43.00932652645747" lon="11.169001069285823"><ele>476.6666666666667</ele><time>2026-04-03T11:25:07Z</time></trkpt><trkpt lat="43.00939557724084" lon="11.168924836572485"><ele>479.0</ele><time>2026-04-03T11:25:08Z</time></trkpt><trkpt lat="43.009469042620765" lon="11.168851393482797"><ele>481.33333333333337</ele><time>2026-04-03T11:25:09Z</time></trkpt><trkpt lat="43.00953392768064" lon="11.168785783217471"><ele>483.6666666666667</ele><time>2026-04-03T11:25:10Z</time></trkpt><trkpt lat="43.00960849282052" lon="11.168729360634059"><ele>486.0</ele><time>2026-04-03T11:25:11Z</time></trkpt><trkpt lat="43.00967676998028" lon="11.168688024108206"><ele>486.0</ele><time>2026-04-03T11:25:12Z</time></trkpt><trkpt lat="43.009752223912606" lon="11.168656780941943"><ele>486.0</ele><time>2026-04-03T11:25:13Z</time></trkpt><trkpt lat="43.009827927131425" lon="11.168637354602856"><ele>486.0</ele><time>2026-04-03T11:25:14Z</time></trkpt><trkpt lat="43.009901872911" lon="11.168622668264115"><ele>486.0</ele><time>2026-04-03T11:25:15Z</time></trkpt><trkpt lat="43.009975602385154" lon="11.16861315297061"><ele>486.0</ele><time>2026-04-03T11:25:16Z</time></trkpt><trkpt lat="43.010058974213905" lon="11.168613247675436"><ele>486.0</ele><time>2026-04-03T11:25:17Z</time></trkpt><trkpt lat="43.01014001538931" lon="11.168609183964335"><ele>484.0</ele><time>2026-04-03T11:25:18Z</time></trkpt><trkpt lat="43.01021600953371" lon="11.168603028875065"><ele>482.0</ele><time>2026-04-03T11:25:19Z</time></trkpt><trkpt lat="43.010284954400916" lon="11.168590563238416"><ele>480.0</ele><time>2026-04-03T11:25:20Z</time></trkpt><trkpt lat="43.01039493342048" lon="11.168525645272416"><ele>478.0</ele><time>2026-04-03T11:25:22Z</time></trkpt><trkpt lat="43.010482752985126" lon="11.168408734027755"><ele>476.0</ele><time>2026-04-03T11:25:24Z</time></trkpt><trkpt lat="43.01052088439842" lon="11.168338127245486"><ele>476.0</ele><time>2026-04-03T11:25:25Z</time></trkpt><trkpt lat="43.01053755257835" lon="11.168225462346568"><ele>476.0</ele><time>2026-04-03T11:25:26Z</time></trkpt><trkpt lat="43.01051057803154" lon="11.1680699424398"><ele>476.0</ele><time>2026-04-03T11:25:28Z</time></trkpt><trkpt lat="43.0104912564942" lon="11.16798002169068"><ele>476.0</ele><time>2026-04-03T11:25:29Z</time></trkpt><trkpt lat="43.01048587044784" lon="11.167886023181806"><ele>476.0</ele><time>2026-04-03T11:25:30Z</time></trkpt><trkpt lat="43.01054351264775" lon="11.167730390370037"><ele>475.8333333333333</ele><time>2026-04-03T11:25:32Z</time></trkpt><trkpt lat="43.01060665815091" lon="11.16767666796779"><ele>475.66666666666663</ele><time>2026-04-03T11:25:33Z</time></trkpt><trkpt lat="43.0106699926292" lon="11.16763857110335"><ele>475.5</ele><time>2026-04-03T11:25:34Z</time></trkpt><trkpt lat="43.01074078884653" lon="11.167594830399597"><ele>475.33333333333337</ele><time>2026-04-03T11:25:35Z</time></trkpt><trkpt lat="43.01081367722056" lon="11.167546504870536"><ele>475.1666666666667</ele><time>2026-04-03T11:25:36Z</time></trkpt><trkpt lat="43.01088801699669" lon="11.167487845305152"><ele>475.0</ele><time>2026-04-03T11:25:37Z</time></trkpt><trkpt lat="43.0109640046814" lon="11.167436390437553"><ele>474.6666666666667</ele><time>2026-04-03T11:25:38Z</time></trkpt><trkpt lat="43.01103485667931" lon="11.167387177248477"><ele>474.33333333333337</ele><time>2026-04-03T11:25:39Z</time></trkpt><trkpt lat="43.01110979779966" lon="11.167333695914751"><ele>474.0</ele><time>2026-04-03T11:25:40Z</time></trkpt><trkpt lat="43.01118253537995" lon="11.167288835719893"><ele>473.66666666666663</ele><time>2026-04-03T11:25:41Z</time></trkpt><trkpt lat="43.01124892653815" lon="11.167244442372212"><ele>473.3333333333333</ele><time>2026-04-03T11:25:42Z</time></trkpt><trkpt lat="43.011314115970286" lon="11.167198232675338"><ele>473.0</ele><time>2026-04-03T11:25:43Z</time></trkpt><trkpt lat="43.01137509204438" lon="11.167163253907745"><ele>473.0</ele><time>2026-04-03T11:25:44Z</time></trkpt><trkpt lat="43.01146926653415" lon="11.167143575843722"><ele>473.0</ele><time>2026-04-03T11:25:46Z</time></trkpt><trkpt lat="43.011524651740274" lon="11.167100780007441"><ele>473.0</ele><time>2026-04-03T11:25:49Z</time></trkpt><trkpt lat="43.01146216106636" lon="11.167059480220013"><ele>473.0</ele><time>2026-04-03T11:26:04Z</time></trkpt><trkpt lat="43.01138475604348" lon="11.167642507160473"><ele>474.4</ele><time>2026-04-03T11:26:08Z</time></trkpt><trkpt lat="43.01131840339297" lon="11.167682709248055"><ele>475.79999999999995</ele><time>2026-04-03T11:26:09Z</time></trkpt><trkpt lat="43.011201556759076" lon="11.167753505026848"><ele>477.2</ele><time>2026-04-03T11:26:11Z</time></trkpt><trkpt lat="43.01112289945738" lon="11.167801162524977"><ele>478.6</ele><time>2026-04-03T11:26:12.001Z</time></trkpt><trkpt lat="43.01104019213804" lon="11.16785127386796"><ele>480.0</ele><time>2026-04-03T11:26:13.001Z</time></trkpt><trkpt lat="43.010829890686296" lon="11.167491291727426"><ele>479.0</ele><time>2026-04-03T11:26:14.001Z</time></trkpt><trkpt lat="43.01075522468424" lon="11.167556226385539"><ele>478.0</ele><time>2026-04-03T11:26:15.001Z</time></trkpt><trkpt lat="43.01066772160823" lon="11.167619215474389"><ele>477.0</ele><time>2026-04-03T11:26:16.001Z</time></trkpt><trkpt lat="43.0105633015642" lon="11.167629901039682"><ele>476.0</ele><time>2026-04-03T11:26:17.001Z</time></trkpt><trkpt lat="43.01048563997865" lon="11.16768845246533"><ele>475.0</ele><time>2026-04-03T11:26:18.001Z</time></trkpt><trkpt lat="43.01042442489515" lon="11.16774728675455"><ele>475.0</ele><time>2026-04-03T11:26:19.001Z</time></trkpt><trkpt lat="43.01033206320434" lon="11.167850126814791"><ele>475.0</ele><time>2026-04-03T11:26:21Z</time></trkpt><trkpt lat="43.01026411310519" lon="11.167921985105377"><ele>475.0</ele><time>2026-04-03T11:26:23Z</time></trkpt><trkpt lat="43.01020742237423" lon="11.167980117410137"><ele>475.0</ele><time>2026-04-03T11:26:26Z</time></trkpt><trkpt lat="43.01028964877525" lon="11.168110301456784"><ele>475.0</ele><time>2026-04-03T11:26:27Z</time></trkpt><trkpt lat="43.01030241914583" lon="11.168201985723115"><ele>475.2</ele><time>2026-04-03T11:26:31Z</time></trkpt><trkpt lat="43.01031874243929" lon="11.168296090504027"><ele>475.4</ele><time>2026-04-03T11:26:36Z</time></trkpt><trkpt lat="43.01034900421824" lon="11.168417656124175"><ele>475.6</ele><time>2026-04-03T11:26:40Z</time></trkpt><trkpt lat="43.01031704246587" lon="11.168521218142125"><ele>475.8</ele><time>2026-04-03T11:26:42Z</time></trkpt><trkpt lat="43.010202619863726" lon="11.16854425641237"><ele>476.0</ele><time>2026-04-03T11:26:44Z</time></trkpt><trkpt lat="43.01006895721185" lon="11.168534842846485"><ele>475.99999999999994</ele><time>2026-04-03T11:26:46Z</time></trkpt><trkpt lat="43.00999875500315" lon="11.168538181247868"><ele>476.0</ele><time>2026-04-03T11:26:47Z</time></trkpt><trkpt lat="43.00993124658459" lon="11.168542394106607"><ele>476.0</ele><time>2026-04-03T11:26:48Z</time></trkpt><trkpt lat="43.009850755187244" lon="11.168580192277073"><ele>476.0</ele><time>2026-04-03T11:26:49Z</time></trkpt><trkpt lat="43.00977259700219" lon="11.168597383245597"><ele>475.99999999999994</ele><time>2026-04-03T11:26:50Z</time></trkpt><trkpt lat="43.00968566797179" lon="11.168631166936851"><ele>476.0</ele><time>2026-04-03T11:26:51Z</time></trkpt><trkpt lat="43.00960923059099" lon="11.168674814182172"><ele>475.20000000000005</ele><time>2026-04-03T11:26:52Z</time></trkpt><trkpt lat="43.0095259039344" lon="11.168732989196595"><ele>474.40000000000003</ele><time>2026-04-03T11:26:53Z</time></trkpt><trkpt lat="43.009440649194175" lon="11.16878899536949"><ele>473.6</ele><time>2026-04-03T11:26:54Z</time></trkpt><trkpt lat="43.00936871648136" lon="11.168870882438544"><ele>472.8</ele><time>2026-04-03T11:26:55Z</time></trkpt><trkpt lat="43.009293698975036" lon="11.168957946023296"><ele>472.0</ele><time>2026-04-03T11:26:56Z</time></trkpt><trkpt lat="43.00922377141362" lon="11.169039688471395"><ele>473.40000000000003</ele><time>2026-04-03T11:26:56.999Z</time></trkpt><trkpt lat="43.00915208987072" lon="11.169124792240163"><ele>474.80000000000007</ele><time>2026-04-03T11:26:57.999Z</time></trkpt><trkpt lat="43.00908148355789" lon="11.16920861943322"><ele>476.2</ele><time>2026-04-03T11:26:58.999Z</time></trkpt><trkpt lat="43.00900776794972" lon="11.169296138085535"><ele>477.6</ele><time>2026-04-03T11:26:59.999Z</time></trkpt><trkpt lat="43.00893685629262" lon="11.169380327809483"><ele>479.0</ele><time>2026-04-03T11:27:00.999Z</time></trkpt><trkpt lat="43.008864745077936" lon="11.169464959177883"><ele>479.0</ele><time>2026-04-03T11:27:01.999Z</time></trkpt><trkpt lat="43.00879419660206" lon="11.169546571531638"><ele>479.0</ele><time>2026-04-03T11:27:02.999Z</time></trkpt><trkpt lat="43.00871991053991" lon="11.16963250760762"><ele>479.0</ele><time>2026-04-03T11:27:03.999Z</time></trkpt><trkpt lat="43.00864676593016" lon="11.16971618591358"><ele>479.0</ele><time>2026-04-03T11:27:04.999Z</time></trkpt><trkpt lat="43.008573188009485" lon="11.169799252236006"><ele>479.0</ele><time>2026-04-03T11:27:05.999Z</time></trkpt><trkpt lat="43.00849748622305" lon="11.169880140231186"><ele>476.0</ele><time>2026-04-03T11:27:06.999Z</time></trkpt><trkpt lat="43.00841782049183" lon="11.169945764176553"><ele>473.0</ele><time>2026-04-03T11:27:07.999Z</time></trkpt><trkpt lat="43.008335767080055" lon="11.170004417964602"><ele>470.0</ele><time>2026-04-03T11:27:08.999Z</time></trkpt><trkpt lat="43.00825059811483" lon="11.170064891736946"><ele>467.0</ele><time>2026-04-03T11:27:09.999Z</time></trkpt><trkpt lat="43.0081625104638" lon="11.170127179870395"><ele>464.0</ele><time>2026-04-03T11:27:10.999Z</time></trkpt><trkpt lat="43.00807368039401" lon="11.170184494809227"><ele>462.79999999999995</ele><time>2026-04-03T11:27:11.999Z</time></trkpt><trkpt lat="43.00798180647922" lon="11.170237241615238"><ele>461.59999999999997</ele><time>2026-04-03T11:27:12.999Z</time></trkpt><trkpt lat="43.00788865686723" lon="11.170278309315995"><ele>460.4</ele><time>2026-04-03T11:27:13.999Z</time></trkpt><trkpt lat="43.007791878588954" lon="11.170294392525113"><ele>459.2</ele><time>2026-04-03T11:27:14.999Z</time></trkpt><trkpt lat="43.007694999077614" lon="11.170285814515463"><ele>458.0</ele><time>2026-04-03T11:27:15.999Z</time></trkpt><trkpt lat="43.00759573440338" lon="11.170294929628492"><ele>457.99999999999994</ele><time>2026-04-03T11:27:16.999Z</time></trkpt><trkpt lat="43.00750661935061" lon="11.17025902962488"><ele>458.0</ele><time>2026-04-03T11:27:17.999Z</time></trkpt><trkpt lat="43.00742289588378" lon="11.170216212159975"><ele>458.0</ele><time>2026-04-03T11:27:18.999Z</time></trkpt><trkpt lat="43.007346389587966" lon="11.170158709146492"><ele>458.0</ele><time>2026-04-03T11:27:19.999Z</time></trkpt><trkpt lat="43.00727367824583" lon="11.170093664012683"><ele>457.99999999999994</ele><time>2026-04-03T11:27:20.999Z</time></trkpt><trkpt lat="43.00720878870998" lon="11.170032040900027"><ele>458.0</ele><time>2026-04-03T11:27:21.999Z</time></trkpt><trkpt lat="43.00714962944049" lon="11.169960055648744"><ele>455.4</ele><time>2026-04-03T11:27:22.999Z</time></trkpt><trkpt lat="43.00710180258593" lon="11.169896951016007"><ele>452.79999999999995</ele><time>2026-04-03T11:27:23.999Z</time></trkpt><trkpt lat="43.007057184471975" lon="11.169829005091124"><ele>450.2</ele><time>2026-04-03T11:27:24.999Z</time></trkpt><trkpt lat="43.006990980826856" lon="11.16972127936623"><ele>447.6</ele><time>2026-04-03T11:27:26.999Z</time></trkpt><trkpt lat="43.00688381086026" lon="11.169851973864917"><ele>445.0</ele><time>2026-04-03T11:27:30.999Z</time></trkpt><trkpt lat="43.00685582441819" lon="11.170011475519699"><ele>444.8</ele><time>2026-04-03T11:27:32.999Z</time></trkpt><trkpt lat="43.00679562969771" lon="11.170133886448646"><ele>444.6</ele><time>2026-04-03T11:27:34.999Z</time></trkpt><trkpt lat="43.0066752072012" lon="11.170151037379888"><ele>444.4</ele><time>2026-04-03T11:27:36.999Z</time></trkpt><trkpt lat="43.0066062180442" lon="11.17017135325024"><ele>444.2</ele><time>2026-04-03T11:27:37.999Z</time></trkpt><trkpt lat="43.006523947522005" lon="11.170191334251635"><ele>444.0</ele><time>2026-04-03T11:27:38.999Z</time></trkpt><trkpt lat="43.00643657108796" lon="11.17022372507768"><ele>441.0</ele><time>2026-04-03T11:27:39.999Z</time></trkpt><trkpt lat="43.00635113677173" lon="11.170276684965627"><ele>438.0</ele><time>2026-04-03T11:27:40.999Z</time></trkpt><trkpt lat="43.00628406017196" lon="11.170394423319756"><ele>435.0</ele><time>2026-04-03T11:27:41.999Z</time></trkpt><trkpt lat="43.00622412075055" lon="11.170486838132115"><ele>432.0</ele><time>2026-04-03T11:27:42.999Z</time></trkpt><trkpt lat="43.00613821470125" lon="11.170555628688138"><ele>429.0</ele><time>2026-04-03T11:27:43.999Z</time></trkpt><trkpt lat="43.006060110272706" lon="11.170623442021476"><ele>429.0</ele><time>2026-04-03T11:27:44.999Z</time></trkpt><trkpt lat="43.00598317278873" lon="11.170684268206433"><ele>429.0</ele><time>2026-04-03T11:27:45.999Z</time></trkpt><trkpt lat="43.00590261490084" lon="11.17074672942615"><ele>429.0</ele><time>2026-04-03T11:27:46.999Z</time></trkpt><trkpt lat="43.005829972552675" lon="11.170801510659953"><ele>429.0</ele><time>2026-04-03T11:27:47.999Z</time></trkpt><trkpt lat="43.00574810771967" lon="11.170862370928278"><ele>429.0</ele><time>2026-04-03T11:27:48.999Z</time></trkpt><trkpt lat="43.005668246254835" lon="11.170921453086445"><ele>429.0</ele><time>2026-04-03T11:27:49.999Z</time></trkpt><trkpt lat="43.00558695681891" lon="11.170978682888592"><ele>427.2</ele><time>2026-04-03T11:27:50.999Z</time></trkpt><trkpt lat="43.005501209063745" lon="11.17103765126511"><ele>425.4</ele><time>2026-04-03T11:27:51.999Z</time></trkpt><trkpt lat="43.00541205398681" lon="11.171098962831302"><ele>423.6</ele><time>2026-04-03T11:27:52.999Z</time></trkpt><trkpt lat="43.0053218660657" lon="11.171160984676856"><ele>421.8</ele><time>2026-04-03T11:27:53.999Z</time></trkpt><trkpt lat="43.005230249319084" lon="11.17122398912714"><ele>420.0</ele><time>2026-04-03T11:27:54.999Z</time></trkpt><trkpt lat="43.00514326041651" lon="11.171283811028262"><ele>420.0</ele><time>2026-04-03T11:27:55.999Z</time></trkpt><trkpt lat="43.00505246640403" lon="11.171346249694377"><ele>420.0</ele><time>2026-04-03T11:27:56.999Z</time></trkpt><trkpt lat="43.00496312456274" lon="11.171407689698363"><ele>420.0</ele><time>2026-04-03T11:27:57.999Z</time></trkpt><trkpt lat="43.00487240917429" lon="11.171471155342438"><ele>420.0</ele><time>2026-04-03T11:27:58.999Z</time></trkpt><trkpt lat="43.004788509090716" lon="11.171530180662822"><ele>420.0</ele><time>2026-04-03T11:27:59.999Z</time></trkpt><trkpt lat="43.004710256566604" lon="11.17158523282837"><ele>419.1666666666667</ele><time>2026-04-03T11:28:00.999Z</time></trkpt><trkpt lat="43.00463226191288" lon="11.171640286544045"><ele>418.33333333333337</ele><time>2026-04-03T11:28:01.999Z</time></trkpt><trkpt lat="43.00455570422547" lon="11.171696122501592"><ele>417.5</ele><time>2026-04-03T11:28:02.999Z</time></trkpt><trkpt lat="43.004476467967024" lon="11.17175828463106"><ele>416.6666666666667</ele><time>2026-04-03T11:28:03.999Z</time></trkpt><trkpt lat="43.00440908523841" lon="11.171831383111455"><ele>415.83333333333337</ele><time>2026-04-03T11:28:04.999Z</time></trkpt><trkpt lat="43.00433318808425" lon="11.171894106859053"><ele>415.0</ele><time>2026-04-03T11:28:05.999Z</time></trkpt><trkpt lat="43.00426668980865" lon="11.171926112109372"><ele>415.0</ele><time>2026-04-03T11:28:06.999Z</time></trkpt><trkpt lat="43.004181539602605" lon="11.171957500418014"><ele>415.0</ele><time>2026-04-03T11:28:07.999Z</time></trkpt><trkpt lat="43.00408742214515" lon="11.171965110383477"><ele>415.0</ele><time>2026-04-03T11:28:08.999Z</time></trkpt><trkpt lat="43.00399825536995" lon="11.17196009199218"><ele>415.0</ele><time>2026-04-03T11:28:09.999Z</time></trkpt><trkpt lat="43.00390366071522" lon="11.171935063878973"><ele>415.0</ele><time>2026-04-03T11:28:10.999Z</time></trkpt><trkpt lat="43.00380856273641" lon="11.171912400704143"><ele>412.6666666666667</ele><time>2026-04-03T11:28:11.999Z</time></trkpt><trkpt lat="43.00371532554402" lon="11.17191021189825"><ele>410.33333333333337</ele><time>2026-04-03T11:28:12.999Z</time></trkpt><trkpt lat="43.00362625307377" lon="11.17187666210102"><ele>408.0</ele><time>2026-04-03T11:28:13.999Z</time></trkpt><trkpt lat="43.003547981140485" lon="11.171890025654763"><ele>405.66666666666663</ele><time>2026-04-03T11:28:14.999Z</time></trkpt><trkpt lat="43.00347299928663" lon="11.17190671083937"><ele>403.3333333333333</ele><time>2026-04-03T11:28:15.999Z</time></trkpt><trkpt lat="43.00340851873015" lon="11.171921865013745"><ele>401.0</ele><time>2026-04-03T11:28:16.999Z</time></trkpt><trkpt lat="43.00330951857178" lon="11.17194284616861"><ele>399.3333333333333</ele><time>2026-04-03T11:28:19Z</time></trkpt><trkpt lat="43.00323686121599" lon="11.171972075484614"><ele>397.66666666666663</ele><time>2026-04-03T11:28:22Z</time></trkpt><trkpt lat="43.00315099483205" lon="11.171935598072437"><ele>396.0</ele><time>2026-04-03T11:28:24Z</time></trkpt><trkpt lat="43.00309344333574" lon="11.17201355185546"><ele>394.33333333333337</ele><time>2026-04-03T11:28:25Z</time></trkpt><trkpt lat="43.00297292060433" lon="11.17207009423085"><ele>392.6666666666667</ele><time>2026-04-03T11:28:27Z</time></trkpt><trkpt lat="43.002913045900364" lon="11.172097024804797"><ele>391.0</ele><time>2026-04-03T11:28:28Z</time></trkpt><trkpt lat="43.00284693239317" lon="11.172122602281636"><ele>391.00000000000006</ele><time>2026-04-03T11:28:29Z</time></trkpt><trkpt lat="43.00278055968872" lon="11.172148614556427"><ele>391.0</ele><time>2026-04-03T11:28:30Z</time></trkpt><trkpt lat="43.0027045916525" lon="11.172171029015532"><ele>391.0</ele><time>2026-04-03T11:28:31Z</time></trkpt><trkpt lat="43.002622225678024" lon="11.172194434431507"><ele>391.0</ele><time>2026-04-03T11:28:32Z</time></trkpt><trkpt lat="43.00254366217324" lon="11.17222484738486"><ele>391.00000000000006</ele><time>2026-04-03T11:28:33Z</time></trkpt><trkpt lat="43.00246714378898" lon="11.172284034236348"><ele>391.0</ele><time>2026-04-03T11:28:34Z</time></trkpt><trkpt lat="43.00239059661405" lon="11.172335531509596"><ele>390.6</ele><time>2026-04-03T11:28:35Z</time></trkpt><trkpt lat="43.00231410740237" lon="11.172411308687527"><ele>390.20000000000005</ele><time>2026-04-03T11:28:36Z</time></trkpt><trkpt lat="43.00222278383538" lon="11.17246232792916"><ele>389.79999999999995</ele><time>2026-04-03T11:28:37Z</time></trkpt><trkpt lat="43.00213998396799" lon="11.172531407103918"><ele>389.4</ele><time>2026-04-03T11:28:38Z</time></trkpt><trkpt lat="43.00205541545789" lon="11.172606779505887"><ele>389.0</ele><time>2026-04-03T11:28:39Z</time></trkpt><trkpt lat="43.00197222770222" lon="11.172681699558238"><ele>389.0</ele><time>2026-04-03T11:28:40Z</time></trkpt><trkpt lat="43.00189524550896" lon="11.172770294686233"><ele>389.0</ele><time>2026-04-03T11:28:41Z</time></trkpt><trkpt lat="43.001820763715706" lon="11.172864234828847"><ele>389.0</ele><time>2026-04-03T11:28:42Z</time></trkpt><trkpt lat="43.00175385252799" lon="11.172978563732045"><ele>389.0</ele><time>2026-04-03T11:28:43Z</time></trkpt><trkpt lat="43.00169957311761" lon="11.173098973339668"><ele>389.0</ele><time>2026-04-03T11:28:44Z</time></trkpt><trkpt lat="43.00166363368136" lon="11.17323077363906"><ele>387.79999999999995</ele><time>2026-04-03T11:28:45Z</time></trkpt><trkpt lat="43.00160640589949" lon="11.173346153651528"><ele>386.59999999999997</ele><time>2026-04-03T11:28:46Z</time></trkpt><trkpt lat="43.001562125798884" lon="11.173467183963295"><ele>385.4</ele><time>2026-04-03T11:28:47Z</time></trkpt><trkpt lat="43.00151728689047" lon="11.17359125732358"><ele>384.2</ele><time>2026-04-03T11:28:48Z</time></trkpt><trkpt lat="43.00148974660939" lon="11.173722063146284"><ele>383.0</ele><time>2026-04-03T11:28:49Z</time></trkpt><trkpt lat="43.00144228325946" lon="11.17382618967213"><ele>383.0</ele><time>2026-04-03T11:28:50Z</time></trkpt><trkpt lat="43.001378259134036" lon="11.173924723489362"><ele>383.0</ele><time>2026-04-03T11:28:51Z</time></trkpt><trkpt lat="43.00130086869039" lon="11.173992327870247"><ele>383.0</ele><time>2026-04-03T11:28:52Z</time></trkpt><trkpt lat="43.00121653966905" lon="11.174030359380964"><ele>383.0</ele><time>2026-04-03T11:28:53Z</time></trkpt><trkpt lat="43.001122354600774" lon="11.174019428911185"><ele>383.0</ele><time>2026-04-03T11:28:54Z</time></trkpt><trkpt lat="43.00103749404763" lon="11.173954681463746"><ele>383.0</ele><time>2026-04-03T11:28:55Z</time></trkpt><trkpt lat="43.000972789327434" lon="11.173845072771151"><ele>383.0</ele><time>2026-04-03T11:28:56Z</time></trkpt><trkpt lat="43.00089930946521" lon="11.173765415518089"><ele>383.0</ele><time>2026-04-03T11:28:57Z</time></trkpt><trkpt lat="43.000814821287484" lon="11.17369719094068"><ele>383.0</ele><time>2026-04-03T11:28:58Z</time></trkpt><trkpt lat="43.0007485227427" lon="11.17361902568476"><ele>383.0</ele><time>2026-04-03T11:28:59Z</time></trkpt><trkpt lat="43.000631431767545" lon="11.173469228222448"><ele>383.2</ele><time>2026-04-03T11:29:01Z</time></trkpt><trkpt lat="43.00056931129751" lon="11.173419155033814"><ele>383.4</ele><time>2026-04-03T11:29:02Z</time></trkpt><trkpt lat="43.00052147390421" lon="11.173354924172523"><ele>383.59999999999997</ele><time>2026-04-03T11:29:03Z</time></trkpt><trkpt lat="43.0004695785313" lon="11.173196539528956"><ele>383.79999999999995</ele><time>2026-04-03T11:29:05Z</time></trkpt><trkpt lat="43.000499626299145" lon="11.173026620344345"><ele>384.0</ele><time>2026-04-03T11:29:07Z</time></trkpt><trkpt lat="43.00053917096488" lon="11.172938040183881"><ele>382.3333333333333</ele><time>2026-04-03T11:29:08Z</time></trkpt><trkpt lat="43.00057523479253" lon="11.1728533855917"><ele>380.6666666666667</ele><time>2026-04-03T11:29:09Z</time></trkpt><trkpt lat="43.000616919650945" lon="11.172763361066764"><ele>379.0</ele><time>2026-04-03T11:29:10Z</time></trkpt><trkpt lat="43.00065818531462" lon="11.172669411547872"><ele>377.33333333333337</ele><time>2026-04-03T11:29:11Z</time></trkpt><trkpt lat="43.00069830208297" lon="11.172570423921126"><ele>375.6666666666667</ele><time>2026-04-03T11:29:12Z</time></trkpt><trkpt lat="43.000744458885734" lon="11.172467709800399"><ele>374.0</ele><time>2026-04-03T11:29:13Z</time></trkpt><trkpt lat="43.00079603546115" lon="11.172361491891596"><ele>373.6</ele><time>2026-04-03T11:29:14Z</time></trkpt><trkpt lat="43.00084523458255" lon="11.172251669555157"><ele>373.2</ele><time>2026-04-03T11:29:15Z</time></trkpt><trkpt lat="43.0008940974697" lon="11.172143480071197"><ele>372.8</ele><time>2026-04-03T11:29:16Z</time></trkpt><trkpt lat="43.00094088305752" lon="11.172036444093125"><ele>372.40000000000003</ele><time>2026-04-03T11:29:17Z</time></trkpt><trkpt lat="43.00099721067712" lon="11.171923493655237"><ele>372.0</ele><time>2026-04-03T11:29:18Z</time></trkpt><trkpt lat="43.001055060619606" lon="11.171811797924052"><ele>372.0</ele><time>2026-04-03T11:29:19Z</time></trkpt><trkpt lat="43.001105618984774" lon="11.171697555762549"><ele>372.0</ele><time>2026-04-03T11:29:20Z</time></trkpt><trkpt lat="43.00115536064424" lon="11.171583060291836"><ele>372.0</ele><time>2026-04-03T11:29:21Z</time></trkpt><trkpt lat="43.001208604628154" lon="11.171469443013041"><ele>372.0</ele><time>2026-04-03T11:29:22Z</time></trkpt><trkpt lat="43.00126054201036" lon="11.171352430931801"><ele>372.0</ele><time>2026-04-03T11:29:23Z</time></trkpt><trkpt lat="43.00131443026829" lon="11.171235715019877"><ele>371.40000000000003</ele><time>2026-04-03T11:29:24Z</time></trkpt><trkpt lat="43.00136804002046" lon="11.17111665474973"><ele>370.8</ele><time>2026-04-03T11:29:25Z</time></trkpt><trkpt lat="43.001418408318756" lon="11.170997075841854"><ele>370.2</ele><time>2026-04-03T11:29:26Z</time></trkpt><trkpt lat="43.00147629843689" lon="11.170871306834053"><ele>369.6</ele><time>2026-04-03T11:29:27Z</time></trkpt><trkpt lat="43.00153293566815" lon="11.170748221576348"><ele>369.0</ele><time>2026-04-03T11:29:28Z</time></trkpt><trkpt lat="43.00159274968649" lon="11.170616292583436"><ele>369.75</ele><time>2026-04-03T11:29:29Z</time></trkpt><trkpt lat="43.00164417791441" lon="11.170482478647067"><ele>370.5</ele><time>2026-04-03T11:29:30Z</time></trkpt><trkpt lat="43.00169425341794" lon="11.170343131332052"><ele>371.25</ele><time>2026-04-03T11:29:31Z</time></trkpt><trkpt lat="43.00173136039559" lon="11.170194400628047"><ele>372.0</ele><time>2026-04-03T11:29:32Z</time></trkpt><trkpt lat="43.001750883632546" lon="11.170039753610457"><ele>372.0</ele><time>2026-04-03T11:29:33Z</time></trkpt><trkpt lat="43.00175973040211" lon="11.16988104231841"><ele>372.0</ele><time>2026-04-03T11:29:34Z</time></trkpt><trkpt lat="43.00176137039171" lon="11.16971981363637"><ele>372.0</ele><time>2026-04-03T11:29:35Z</time></trkpt><trkpt lat="43.00174600734583" lon="11.169555048111684"><ele>372.0</ele><time>2026-04-03T11:29:36Z</time></trkpt><trkpt lat="43.00171125760524" lon="11.16939118364342"><ele>371.0</ele><time>2026-04-03T11:29:37Z</time></trkpt><trkpt lat="43.00165937028617" lon="11.169242590876275"><ele>370.0</ele><time>2026-04-03T11:29:38Z</time></trkpt><trkpt lat="43.00161830238981" lon="11.169076858812913"><ele>369.0</ele><time>2026-04-03T11:29:39Z</time></trkpt><trkpt lat="43.00154554705156" lon="11.168936008053533"><ele>368.0</ele><time>2026-04-03T11:29:40Z</time></trkpt><trkpt lat="43.00148589508533" lon="11.168779077385963"><ele>368.0</ele><time>2026-04-03T11:29:41Z</time></trkpt><trkpt lat="43.00142721942539" lon="11.168628442315631"><ele>368.0</ele><time>2026-04-03T11:29:42Z</time></trkpt><trkpt lat="43.001368685433214" lon="11.16847219400419"><ele>368.0</ele><time>2026-04-03T11:29:43Z</time></trkpt><trkpt lat="43.00131191660197" lon="11.168311604371317"><ele>368.0</ele><time>2026-04-03T11:29:44Z</time></trkpt><trkpt lat="43.001248991247365" lon="11.16814113397128"><ele>366.5</ele><time>2026-04-03T11:29:45Z</time></trkpt><trkpt lat="43.0011969156801" lon="11.16800067151983"><ele>365.0</ele><time>2026-04-03T11:29:46Z</time></trkpt><trkpt lat="43.00112832440672" lon="11.167842601664638"><ele>363.5</ele><time>2026-04-03T11:29:47Z</time></trkpt><trkpt lat="43.001061759646426" lon="11.167677551219304"><ele>362.0</ele><time>2026-04-03T11:29:48Z</time></trkpt><trkpt lat="43.000996629271626" lon="11.167508740631007"><ele>361.0</ele><time>2026-04-03T11:29:49Z</time></trkpt><trkpt lat="43.00093061678854" lon="11.167346438113354"><ele>360.0</ele><time>2026-04-03T11:29:50Z</time></trkpt><trkpt lat="43.00086993598894" lon="11.167186486188479"><ele>359.0</ele><time>2026-04-03T11:29:51Z</time></trkpt><trkpt lat="43.00081428529981" lon="11.167034888860373"><ele>358.0</ele><time>2026-04-03T11:29:52Z</time></trkpt><trkpt lat="43.000749920813895" lon="11.166898475199037"><ele>356.75</ele><time>2026-04-03T11:29:53Z</time></trkpt><trkpt lat="43.00067602846038" lon="11.166775603955536"><ele>355.5</ele><time>2026-04-03T11:29:54Z</time></trkpt><trkpt lat="43.000586308552144" lon="11.166676209637334"><ele>354.25</ele><time>2026-04-03T11:29:55Z</time></trkpt><trkpt lat="43.00048450332775" lon="11.166592351399403"><ele>353.0</ele><time>2026-04-03T11:29:56Z</time></trkpt><trkpt lat="43.00036984639135" lon="11.16653491681687"><ele>353.0</ele><time>2026-04-03T11:29:57Z</time></trkpt><trkpt lat="43.00024154259238" lon="11.1665066009426"><ele>353.0</ele><time>2026-04-03T11:29:58Z</time></trkpt><trkpt lat="43.00011078599199" lon="11.166502637354036"><ele>353.0</ele><time>2026-04-03T11:29:59Z</time></trkpt><trkpt lat="42.9999846909424" lon="11.16652134802043"><ele>353.0</ele><time>2026-04-03T11:30:00Z</time></trkpt><trkpt lat="42.999861089711565" lon="11.166558049045689"><ele>353.0</ele><time>2026-04-03T11:30:01Z</time></trkpt><trkpt lat="42.999744005710355" lon="11.166621627857358"><ele>353.0</ele><time>2026-04-03T11:30:02Z</time></trkpt><trkpt lat="42.99962638030259" lon="11.166680252259921"><ele>353.0</ele><time>2026-04-03T11:30:03Z</time></trkpt><trkpt lat="42.999504876973226" lon="11.166741729238392"><ele>353.0</ele><time>2026-04-03T11:30:04Z</time></trkpt><trkpt lat="42.99938571913957" lon="11.166802561312641"><ele>353.0</ele><time>2026-04-03T11:30:05Z</time></trkpt><trkpt lat="42.99926778338044" lon="11.166863357238435"><ele>353.0</ele><time>2026-04-03T11:30:06Z</time></trkpt><trkpt lat="42.9991594811032" lon="11.166921225399875"><ele>353.0</ele><time>2026-04-03T11:30:07Z</time></trkpt><trkpt lat="42.99904804681864" lon="11.16697374120717"><ele>353.0</ele><time>2026-04-03T11:30:08Z</time></trkpt><trkpt lat="42.998928963520996" lon="11.167014430712017"><ele>352.0</ele><time>2026-04-03T11:30:09Z</time></trkpt><trkpt lat="42.99880535872059" lon="11.167051527592417"><ele>351.0</ele><time>2026-04-03T11:30:10Z</time></trkpt><trkpt lat="42.99867837329188" lon="11.167074176589404"><ele>350.0</ele><time>2026-04-03T11:30:11Z</time></trkpt><trkpt lat="42.99854784708413" lon="11.167075632843305"><ele>349.0</ele><time>2026-04-03T11:30:12Z</time></trkpt><trkpt lat="42.99842039305349" lon="11.167061408997956"><ele>348.0</ele><time>2026-04-03T11:30:13Z</time></trkpt><trkpt lat="42.9982942140424" lon="11.16705020625863"><ele>347.0</ele><time>2026-04-03T11:30:14Z</time></trkpt><trkpt lat="42.998166017297784" lon="11.167048823806422"><ele>346.0</ele><time>2026-04-03T11:30:15Z</time></trkpt><trkpt lat="42.99803967317899" lon="11.167047868042832"><ele>345.0</ele><time>2026-04-03T11:30:16Z</time></trkpt><trkpt lat="42.99791305982487" lon="11.167042101106288"><ele>345.0</ele><time>2026-04-03T11:30:17Z</time></trkpt><trkpt lat="42.99779034758913" lon="11.167012350252786"><ele>345.0</ele><time>2026-04-03T11:30:18Z</time></trkpt><trkpt lat="42.99768450892775" lon="11.16694138394812"><ele>345.0</ele><time>2026-04-03T11:30:19Z</time></trkpt><trkpt lat="42.99759262617174" lon="11.166830447837643"><ele>345.0</ele><time>2026-04-03T11:30:20Z</time></trkpt><trkpt lat="42.99750850927921" lon="11.166695147472824"><ele>341.25</ele><time>2026-04-03T11:30:21Z</time></trkpt><trkpt lat="42.9974416995497" lon="11.166553183143415"><ele>337.5</ele><time>2026-04-03T11:30:22Z</time></trkpt><trkpt lat="42.997395127718484" lon="11.166388154492687"><ele>333.75</ele><time>2026-04-03T11:30:23Z</time></trkpt><trkpt lat="42.99735827482459" lon="11.166217629647281"><ele>330.0</ele><time>2026-04-03T11:30:24Z</time></trkpt><trkpt lat="42.997334711542564" lon="11.166041121029956"><ele>329.5</ele><time>2026-04-03T11:30:25Z</time></trkpt><trkpt lat="42.99732575004147" lon="11.165863855170555"><ele>329.0</ele><time>2026-04-03T11:30:26Z</time></trkpt><trkpt lat="42.99733732204922" lon="11.165685151760606"><ele>328.5</ele><time>2026-04-03T11:30:27Z</time></trkpt><trkpt lat="42.99737711534032" lon="11.165509497345814"><ele>328.0</ele><time>2026-04-03T11:30:28Z</time></trkpt><trkpt lat="42.997423488794084" lon="11.165344011410568"><ele>329.0</ele><time>2026-04-03T11:30:29Z</time></trkpt><trkpt lat="42.99747744617307" lon="11.165172213982386"><ele>330.0</ele><time>2026-04-03T11:30:30Z</time></trkpt><trkpt lat="42.997526576692394" lon="11.165022731025969"><ele>331.0</ele><time>2026-04-03T11:30:31Z</time></trkpt><trkpt lat="42.99758936918669" lon="11.164890144970512"><ele>332.0</ele><time>2026-04-03T11:30:32Z</time></trkpt><trkpt lat="42.99768769453016" lon="11.164793148270556"><ele>327.75</ele><time>2026-04-03T11:30:33Z</time></trkpt><trkpt lat="42.99778924930557" lon="11.164692314571246"><ele>323.5</ele><time>2026-04-03T11:30:34Z</time></trkpt><trkpt lat="42.99790618903085" lon="11.16462792931974"><ele>319.25</ele><time>2026-04-03T11:30:35Z</time></trkpt><trkpt lat="42.998027503255656" lon="11.164563565841485"><ele>315.0</ele><time>2026-04-03T11:30:36Z</time></trkpt><trkpt lat="42.998145610053335" lon="11.164488188722451"><ele>315.0</ele><time>2026-04-03T11:30:37Z</time></trkpt><trkpt lat="42.99824818575539" lon="11.164388000682267"><ele>315.0</ele><time>2026-04-03T11:30:38Z</time></trkpt><trkpt lat="42.99833448826837" lon="11.164255243775585"><ele>315.0</ele><time>2026-04-03T11:30:39Z</time></trkpt><trkpt lat="42.99840508327663" lon="11.164102141280207"><ele>315.0</ele><time>2026-04-03T11:30:40Z</time></trkpt><trkpt lat="42.998466034407805" lon="11.163942998708459"><ele>316.0</ele><time>2026-04-03T11:30:41Z</time></trkpt><trkpt lat="42.998521990281624" lon="11.163779924903658"><ele>317.0</ele><time>2026-04-03T11:30:42Z</time></trkpt><trkpt lat="42.998587474028724" lon="11.16362386923933"><ele>318.0</ele><time>2026-04-03T11:30:43Z</time></trkpt><trkpt lat="42.99865760250821" lon="11.16347527400832"><ele>319.0</ele><time>2026-04-03T11:30:44Z</time></trkpt><trkpt lat="42.99873528635056" lon="11.163331860630652"><ele>319.0</ele><time>2026-04-03T11:30:45Z</time></trkpt><trkpt lat="42.998813120521916" lon="11.163197443549098"><ele>319.0</ele><time>2026-04-03T11:30:46Z</time></trkpt><trkpt lat="42.99889535949483" lon="11.163062445599552"><ele>319.0</ele><time>2026-04-03T11:30:47Z</time></trkpt><trkpt lat="42.99897215091307" lon="11.16293521275055"><ele>319.0</ele><time>2026-04-03T11:30:48Z</time></trkpt><trkpt lat="42.99905331359716" lon="11.162800710379411"><ele>318.25</ele><time>2026-04-03T11:30:49Z</time></trkpt><trkpt lat="42.9991290571995" lon="11.162671447064737"><ele>317.5</ele><time>2026-04-03T11:30:50Z</time></trkpt><trkpt lat="42.99919652757469" lon="11.162531957149167"><ele>316.75</ele><time>2026-04-03T11:30:51Z</time></trkpt><trkpt lat="42.999248863871344" lon="11.162387400051383"><ele>316.0</ele><time>2026-04-03T11:30:52Z</time></trkpt><trkpt lat="42.99928072147696" lon="11.162242890323993"><ele>316.0</ele><time>2026-04-03T11:30:53Z</time></trkpt><trkpt lat="42.999308469102644" lon="11.162100044320617"><ele>316.0</ele><time>2026-04-03T11:30:54Z</time></trkpt><trkpt lat="42.99932734741236" lon="11.161963162720788"><ele>316.0</ele><time>2026-04-03T11:30:55Z</time></trkpt><trkpt lat="42.9993397032329" lon="11.161827773466767"><ele>316.0</ele><time>2026-04-03T11:30:56Z</time></trkpt><trkpt lat="42.99936167659954" lon="11.16169679441151"><ele>316.0</ele><time>2026-04-03T11:30:57Z</time></trkpt><trkpt lat="42.99934153598914" lon="11.161574842550289"><ele>315.0</ele><time>2026-04-03T11:30:58Z</time></trkpt><trkpt lat="42.99933078649729" lon="11.161457643406544"><ele>314.0</ele><time>2026-04-03T11:30:59Z</time></trkpt><trkpt lat="42.99931067074163" lon="11.161334955053748"><ele>313.0</ele><time>2026-04-03T11:31:00Z</time></trkpt><trkpt lat="42.99928010405681" lon="11.161235876144227"><ele>312.0</ele><time>2026-04-03T11:31:01Z</time></trkpt><trkpt lat="42.99923635517476" lon="11.161166007620709"><ele>311.0</ele><time>2026-04-03T11:31:02Z</time></trkpt><trkpt lat="42.99912736078154" lon="11.161092750204826"><ele>310.0</ele><time>2026-04-03T11:31:04Z</time></trkpt><trkpt lat="42.99905011091784" lon="11.161006561923765"><ele>307.8</ele><time>2026-04-03T11:31:06Z</time></trkpt><trkpt lat="42.99896387053096" lon="11.160952425089306"><ele>305.6</ele><time>2026-04-03T11:31:08Z</time></trkpt><trkpt lat="42.998868428341126" lon="11.160910228681887"><ele>303.4</ele><time>2026-04-03T11:31:10Z</time></trkpt><trkpt lat="42.998756523440626" lon="11.160906413538836"><ele>301.2</ele><time>2026-04-03T11:31:12Z</time></trkpt><trkpt lat="42.99862805248042" lon="11.16091518872694"><ele>299.0</ele><time>2026-04-03T11:31:14Z</time></trkpt><trkpt lat="42.998556338648875" lon="11.16096104111674"><ele>299.0</ele><time>2026-04-03T11:31:15Z</time></trkpt><trkpt lat="42.99847637987036" lon="11.160983770452086"><ele>299.0</ele><time>2026-04-03T11:31:16Z</time></trkpt><trkpt lat="42.99839214516828" lon="11.16100020950455"><ele>299.0</ele><time>2026-04-03T11:31:17Z</time></trkpt><trkpt lat="42.99831067611918" lon="11.161025392983856"><ele>299.0</ele><time>2026-04-03T11:31:18Z</time></trkpt><trkpt lat="42.99823300172015" lon="11.161042077091809"><ele>299.0</ele><time>2026-04-03T11:31:19Z</time></trkpt><trkpt lat="42.998148877690824" lon="11.161069546415222"><ele>299.0</ele><time>2026-04-03T11:31:20Z</time></trkpt><trkpt lat="42.99806891064125" lon="11.161090093352211"><ele>297.83333333333337</ele><time>2026-04-03T11:31:21Z</time></trkpt><trkpt lat="42.997989012862526" lon="11.16110882411251"><ele>296.6666666666667</ele><time>2026-04-03T11:31:22Z</time></trkpt><trkpt lat="42.99790593649824" lon="11.161133341274908"><ele>295.5</ele><time>2026-04-03T11:31:23Z</time></trkpt><trkpt lat="42.99782577493545" lon="11.161157702610929"><ele>294.3333333333333</ele><time>2026-04-03T11:31:24Z</time></trkpt><trkpt lat="42.99775150483335" lon="11.161179870310471"><ele>293.16666666666663</ele><time>2026-04-03T11:31:25Z</time></trkpt><trkpt lat="42.99767319020937" lon="11.161204085344991"><ele>292.0</ele><time>2026-04-03T11:31:26Z</time></trkpt><trkpt lat="42.99760120363222" lon="11.161225091380803"><ele>292.0</ele><time>2026-04-03T11:31:27Z</time></trkpt><trkpt lat="42.997520829956045" lon="11.161235165414976"><ele>292.0</ele><time>2026-04-03T11:31:28Z</time></trkpt><trkpt lat="42.997443680191594" lon="11.161211141450753"><ele>292.0</ele><time>2026-04-03T11:31:29Z</time></trkpt><trkpt lat="42.99736127987489" lon="11.161197420774226"><ele>292.0</ele><time>2026-04-03T11:31:30Z</time></trkpt><trkpt lat="42.997286540055605" lon="11.161178255450787"><ele>292.0</ele><time>2026-04-03T11:31:31Z</time></trkpt><trkpt lat="42.9972134207842" lon="11.161157832151979"><ele>292.0</ele><time>2026-04-03T11:31:32Z</time></trkpt><trkpt lat="42.99713608903886" lon="11.161132852081879"><ele>291.16666666666663</ele><time>2026-04-03T11:31:33Z</time></trkpt><trkpt lat="42.99706562612784" lon="11.161099374275047"><ele>290.3333333333333</ele><time>2026-04-03T11:31:34Z</time></trkpt><trkpt lat="42.99699696159858" lon="11.161056180213773"><ele>289.5</ele><time>2026-04-03T11:31:35Z</time></trkpt><trkpt lat="42.99693312322359" lon="11.161032686430143"><ele>288.6666666666667</ele><time>2026-04-03T11:31:36Z</time></trkpt><trkpt lat="42.996897610994814" lon="11.160959639606633"><ele>287.83333333333337</ele><time>2026-04-03T11:31:37Z</time></trkpt><trkpt lat="42.99680320952536" lon="11.160904468508969"><ele>287.0</ele><time>2026-04-03T11:31:39Z</time></trkpt><trkpt lat="42.99671216512004" lon="11.160882713197614"><ele>285.0</ele><time>2026-04-03T11:31:41Z</time></trkpt><trkpt lat="42.99665566523429" lon="11.160809311330022"><ele>283.0</ele><time>2026-04-03T11:31:43Z</time></trkpt><trkpt lat="42.996565090613885" lon="11.160731731823816"><ele>281.0</ele><time>2026-04-03T11:31:45Z</time></trkpt><trkpt lat="42.996453909547476" lon="11.16072282165635"><ele>279.0</ele><time>2026-04-03T11:31:47Z</time></trkpt><trkpt lat="42.996350801330216" lon="11.160707897170811"><ele>277.0</ele><time>2026-04-03T11:31:49Z</time></trkpt><trkpt lat="42.996261213252566" lon="11.160698122450578"><ele>271.0</ele><time>2026-04-03T11:31:51Z</time></trkpt><trkpt lat="42.99619573002335" lon="11.160694554487543"><ele>271.0</ele><time>2026-04-03T11:31:53Z</time></trkpt><trkpt lat="42.99621630422134" lon="11.160815178769269"><ele>277.0</ele><time>2026-04-03T11:32:03Z</time></trkpt><trkpt lat="42.996286136026235" lon="11.160833985682784"><ele>277.0</ele><time>2026-04-03T11:32:06Z</time></trkpt></trkseg></trk></gpx>